<?xml version="1.0" encoding="UTF-8"?>
<gpx version="1.0" creator="GPSBabel - https://www.gpsbabel.org" xmlns="http://www.topografix.com/GPX/1/0">
  <time>2022-04-27T16:26:14.730Z</time>
  <bounds minlat="35.901958337" minlon="-106.274678280" maxlat="35.907220710" maxlon="-106.253189310"/>
  <wpt lat="35.901958337" lon="-106.273699510">
    <ele>0.000</ele>
    <name>Los Alamos</name>
    <cmt>Los Alamos</cmt>
    <desc>Los Alamos</desc>
  </wpt>
  <trk>
    <name>Deer Trap Mesa Trail Hike.PatJayNancy.2022-04-26</name>
    <trkseg>
      <trkpt lat="35.904793610" lon="-106.274678280">
        <ele>2184.700</ele>
        <time>2022-04-26T16:01:30Z</time>
        <name>WPT</name>
      </trkpt>
      <trkpt lat="35.904854850" lon="-106.274424960">
        <ele>2180.200</ele>
        <time>2022-04-26T16:08:25Z</time>
        <name>WPT.1</name>
      </trkpt>
      <trkpt lat="35.904861550" lon="-106.274376800">
        <ele>2178.000</ele>
        <time>2022-04-26T16:08:35Z</time>
        <name>WPT.2</name>
      </trkpt>
      <trkpt lat="35.904869140" lon="-106.274330550">
        <ele>2179.700</ele>
        <time>2022-04-26T16:08:38Z</time>
        <name>WPT.3</name>
      </trkpt>
      <trkpt lat="35.904847940" lon="-106.274286040">
        <ele>2179.400</ele>
        <time>2022-04-26T16:08:41Z</time>
        <name>WPT.4</name>
      </trkpt>
      <trkpt lat="35.904838500" lon="-106.274234470">
        <ele>2177.700</ele>
        <time>2022-04-26T16:08:46Z</time>
        <name>WPT.5</name>
      </trkpt>
      <trkpt lat="35.904816870" lon="-106.274184950">
        <ele>2177.400</ele>
        <time>2022-04-26T16:08:50Z</time>
        <name>WPT.6</name>
      </trkpt>
      <trkpt lat="35.904814300" lon="-106.274138210">
        <ele>2176.500</ele>
        <time>2022-04-26T16:08:56Z</time>
        <name>WPT.7</name>
      </trkpt>
      <trkpt lat="35.904809120" lon="-106.274085630">
        <ele>2177.100</ele>
        <time>2022-04-26T16:09:01Z</time>
        <name>WPT.8</name>
      </trkpt>
      <trkpt lat="35.904811080" lon="-106.274034240">
        <ele>2177.400</ele>
        <time>2022-04-26T16:09:06Z</time>
        <name>WPT.9</name>
      </trkpt>
      <trkpt lat="35.904803800" lon="-106.273985990">
        <ele>2177.300</ele>
        <time>2022-04-26T16:09:10Z</time>
        <name>WPT.10</name>
      </trkpt>
      <trkpt lat="35.904794590" lon="-106.273930990">
        <ele>2178.400</ele>
        <time>2022-04-26T16:09:14Z</time>
        <name>WPT.11</name>
      </trkpt>
      <trkpt lat="35.904782210" lon="-106.273884650">
        <ele>2178.400</ele>
        <time>2022-04-26T16:09:18Z</time>
        <name>WPT.12</name>
      </trkpt>
      <trkpt lat="35.904785720" lon="-106.273831860">
        <ele>2178.000</ele>
        <time>2022-04-26T16:09:23Z</time>
        <name>WPT.13</name>
      </trkpt>
      <trkpt lat="35.904791910" lon="-106.273774990">
        <ele>2177.600</ele>
        <time>2022-04-26T16:09:28Z</time>
        <name>WPT.14</name>
      </trkpt>
      <trkpt lat="35.904800700" lon="-106.273726830">
        <ele>2177.200</ele>
        <time>2022-04-26T16:09:32Z</time>
        <name>WPT.15</name>
      </trkpt>
      <trkpt lat="35.904795440" lon="-106.273674000">
        <ele>2177.400</ele>
        <time>2022-04-26T16:09:36Z</time>
        <name>WPT.16</name>
      </trkpt>
      <trkpt lat="35.904797210" lon="-106.273621720">
        <ele>2176.900</ele>
        <time>2022-04-26T16:09:40Z</time>
        <name>WPT.17</name>
      </trkpt>
      <trkpt lat="35.904796900" lon="-106.273572060">
        <ele>2177.700</ele>
        <time>2022-04-26T16:09:44Z</time>
        <name>WPT.18</name>
      </trkpt>
      <trkpt lat="35.904787040" lon="-106.273517530">
        <ele>2176.800</ele>
        <time>2022-04-26T16:09:50Z</time>
        <name>WPT.19</name>
      </trkpt>
      <trkpt lat="35.904774580" lon="-106.273474870">
        <ele>2176.300</ele>
        <time>2022-04-26T16:09:55Z</time>
        <name>WPT.20</name>
      </trkpt>
      <trkpt lat="35.904783780" lon="-106.273431370">
        <ele>2177.000</ele>
        <time>2022-04-26T16:10:01Z</time>
        <name>WPT.21</name>
      </trkpt>
      <trkpt lat="35.904785500" lon="-106.273387050">
        <ele>2176.100</ele>
        <time>2022-04-26T16:10:08Z</time>
        <name>WPT.22</name>
      </trkpt>
      <trkpt lat="35.904768460" lon="-106.273346770">
        <ele>2174.700</ele>
        <time>2022-04-26T16:10:17Z</time>
        <name>WPT.23</name>
      </trkpt>
      <trkpt lat="35.904762910" lon="-106.273302280">
        <ele>2173.500</ele>
        <time>2022-04-26T16:10:27Z</time>
        <name>WPT.24</name>
      </trkpt>
      <trkpt lat="35.904786250" lon="-106.273263850">
        <ele>2173.500</ele>
        <time>2022-04-26T16:10:35Z</time>
        <name>WPT.25</name>
      </trkpt>
      <trkpt lat="35.904818570" lon="-106.273237090">
        <ele>2174.000</ele>
        <time>2022-04-26T16:10:41Z</time>
        <name>WPT.26</name>
      </trkpt>
      <trkpt lat="35.904836600" lon="-106.273196300">
        <ele>2174.100</ele>
        <time>2022-04-26T16:11:14Z</time>
        <name>WPT.27</name>
      </trkpt>
      <trkpt lat="35.904868450" lon="-106.273167580">
        <ele>2173.500</ele>
        <time>2022-04-26T16:11:44Z</time>
        <name>WPT.28</name>
      </trkpt>
      <trkpt lat="35.904902340" lon="-106.273145610">
        <ele>2168.100</ele>
        <time>2022-04-26T16:12:07Z</time>
        <name>WPT.29</name>
      </trkpt>
      <trkpt lat="35.904922160" lon="-106.273101110">
        <ele>2167.900</ele>
        <time>2022-04-26T16:12:14Z</time>
        <name>WPT.30</name>
      </trkpt>
      <trkpt lat="35.904958250" lon="-106.273108100">
        <ele>2167.600</ele>
        <time>2022-04-26T16:12:19Z</time>
        <name>WPT.31</name>
      </trkpt>
      <trkpt lat="35.904987130" lon="-106.273077120">
        <ele>2166.400</ele>
        <time>2022-04-26T16:12:23Z</time>
        <name>WPT.32</name>
      </trkpt>
      <trkpt lat="35.904993910" lon="-106.273025290">
        <ele>2165.200</ele>
        <time>2022-04-26T16:12:28Z</time>
        <name>WPT.33</name>
      </trkpt>
      <trkpt lat="35.905005860" lon="-106.272978230">
        <ele>2166.000</ele>
        <time>2022-04-26T16:12:33Z</time>
        <name>WPT.34</name>
      </trkpt>
      <trkpt lat="35.905000460" lon="-106.272930540">
        <ele>2165.800</ele>
        <time>2022-04-26T16:12:37Z</time>
        <name>WPT.35</name>
      </trkpt>
      <trkpt lat="35.904997070" lon="-106.272877210">
        <ele>2164.900</ele>
        <time>2022-04-26T16:12:41Z</time>
        <name>WPT.36</name>
      </trkpt>
      <trkpt lat="35.904999470" lon="-106.272821080">
        <ele>2163.500</ele>
        <time>2022-04-26T16:12:45Z</time>
        <name>WPT.37</name>
      </trkpt>
      <trkpt lat="35.904993020" lon="-106.272772570">
        <ele>2163.500</ele>
        <time>2022-04-26T16:12:49Z</time>
        <name>WPT.38</name>
      </trkpt>
      <trkpt lat="35.904995100" lon="-106.272722130">
        <ele>2163.600</ele>
        <time>2022-04-26T16:12:53Z</time>
        <name>WPT.39</name>
      </trkpt>
      <trkpt lat="35.904997390" lon="-106.272677090">
        <ele>2163.900</ele>
        <time>2022-04-26T16:12:57Z</time>
        <name>WPT.40</name>
      </trkpt>
      <trkpt lat="35.904995560" lon="-106.272631310">
        <ele>2164.900</ele>
        <time>2022-04-26T16:13:02Z</time>
        <name>WPT.41</name>
      </trkpt>
      <trkpt lat="35.905001140" lon="-106.272581270">
        <ele>2164.900</ele>
        <time>2022-04-26T16:13:09Z</time>
        <name>WPT.42</name>
      </trkpt>
      <trkpt lat="35.905026320" lon="-106.272547200">
        <ele>2165.500</ele>
        <time>2022-04-26T16:13:22Z</time>
        <name>WPT.43</name>
      </trkpt>
      <trkpt lat="35.905047570" lon="-106.272505880">
        <ele>2165.200</ele>
        <time>2022-04-26T16:13:35Z</time>
        <name>WPT.44</name>
      </trkpt>
      <trkpt lat="35.905067700" lon="-106.272456770">
        <ele>2164.500</ele>
        <time>2022-04-26T16:13:43Z</time>
        <name>WPT.45</name>
      </trkpt>
      <trkpt lat="35.905066720" lon="-106.272400600">
        <ele>2163.500</ele>
        <time>2022-04-26T16:13:47Z</time>
        <name>WPT.46</name>
      </trkpt>
      <trkpt lat="35.905067030" lon="-106.272350190">
        <ele>2165.100</ele>
        <time>2022-04-26T16:13:53Z</time>
        <name>WPT.47</name>
      </trkpt>
      <trkpt lat="35.905073260" lon="-106.272298700">
        <ele>2164.500</ele>
        <time>2022-04-26T16:14:02Z</time>
        <name>WPT.48</name>
      </trkpt>
      <trkpt lat="35.905068620" lon="-106.272251980">
        <ele>2166.600</ele>
        <time>2022-04-26T16:14:06Z</time>
        <name>WPT.49</name>
      </trkpt>
      <trkpt lat="35.905077560" lon="-106.272201960">
        <ele>2165.700</ele>
        <time>2022-04-26T16:14:11Z</time>
        <name>WPT.50</name>
      </trkpt>
      <trkpt lat="35.905091010" lon="-106.272150800">
        <ele>2165.100</ele>
        <time>2022-04-26T16:14:16Z</time>
        <name>WPT.51</name>
      </trkpt>
      <trkpt lat="35.905115320" lon="-106.272107230">
        <ele>2165.900</ele>
        <time>2022-04-26T16:14:21Z</time>
        <name>WPT.52</name>
      </trkpt>
      <trkpt lat="35.905147790" lon="-106.272075970">
        <ele>2167.000</ele>
        <time>2022-04-26T16:14:26Z</time>
        <name>WPT.53</name>
      </trkpt>
      <trkpt lat="35.905161810" lon="-106.272024950">
        <ele>2167.200</ele>
        <time>2022-04-26T16:14:32Z</time>
        <name>WPT.54</name>
      </trkpt>
      <trkpt lat="35.905187950" lon="-106.271988670">
        <ele>2166.500</ele>
        <time>2022-04-26T16:14:39Z</time>
        <name>WPT.55</name>
      </trkpt>
      <trkpt lat="35.905217510" lon="-106.271954970">
        <ele>2164.900</ele>
        <time>2022-04-26T16:14:45Z</time>
        <name>WPT.56</name>
      </trkpt>
      <trkpt lat="35.905228250" lon="-106.271909240">
        <ele>2166.600</ele>
        <time>2022-04-26T16:14:51Z</time>
        <name>WPT.57</name>
      </trkpt>
      <trkpt lat="35.905234990" lon="-106.271863450">
        <ele>2165.900</ele>
        <time>2022-04-26T16:15:01Z</time>
        <name>WPT.58</name>
      </trkpt>
      <trkpt lat="35.905247150" lon="-106.271819180">
        <ele>2165.400</ele>
        <time>2022-04-26T16:15:07Z</time>
        <name>WPT.59</name>
      </trkpt>
      <trkpt lat="35.905244720" lon="-106.271772300">
        <ele>2165.600</ele>
        <time>2022-04-26T16:15:12Z</time>
        <name>WPT.60</name>
      </trkpt>
      <trkpt lat="35.905252110" lon="-106.271725970">
        <ele>2165.900</ele>
        <time>2022-04-26T16:15:19Z</time>
        <name>WPT.61</name>
      </trkpt>
      <trkpt lat="35.905275450" lon="-106.271686150">
        <ele>2164.300</ele>
        <time>2022-04-26T16:15:42Z</time>
        <name>WPT.62</name>
      </trkpt>
      <trkpt lat="35.905302050" lon="-106.271650930">
        <ele>2163.900</ele>
        <time>2022-04-26T16:15:50Z</time>
        <name>WPT.63</name>
      </trkpt>
      <trkpt lat="35.905333240" lon="-106.271623540">
        <ele>2163.000</ele>
        <time>2022-04-26T16:16:05Z</time>
        <name>WPT.64</name>
      </trkpt>
      <trkpt lat="35.905364970" lon="-106.271596750">
        <ele>2162.300</ele>
        <time>2022-04-26T16:16:12Z</time>
        <name>WPT.65</name>
      </trkpt>
      <trkpt lat="35.905398440" lon="-106.271569290">
        <ele>2161.400</ele>
        <time>2022-04-26T16:16:20Z</time>
        <name>WPT.66</name>
      </trkpt>
      <trkpt lat="35.905427090" lon="-106.271542140">
        <ele>2161.000</ele>
        <time>2022-04-26T16:16:25Z</time>
        <name>WPT.67</name>
      </trkpt>
      <trkpt lat="35.905457130" lon="-106.271515760">
        <ele>2161.300</ele>
        <time>2022-04-26T16:16:32Z</time>
        <name>WPT.68</name>
      </trkpt>
      <trkpt lat="35.905473460" lon="-106.271468210">
        <ele>2162.000</ele>
        <time>2022-04-26T16:16:37Z</time>
        <name>WPT.69</name>
      </trkpt>
      <trkpt lat="35.905474120" lon="-106.271416400">
        <ele>2160.600</ele>
        <time>2022-04-26T16:16:44Z</time>
        <name>WPT.70</name>
      </trkpt>
      <trkpt lat="35.905481250" lon="-106.271371430">
        <ele>2160.600</ele>
        <time>2022-04-26T16:16:49Z</time>
        <name>WPT.71</name>
      </trkpt>
      <trkpt lat="35.905502810" lon="-106.271333300">
        <ele>2160.100</ele>
        <time>2022-04-26T16:16:54Z</time>
        <name>WPT.72</name>
      </trkpt>
      <trkpt lat="35.905510200" lon="-106.271289020">
        <ele>2160.100</ele>
        <time>2022-04-26T16:16:59Z</time>
        <name>WPT.73</name>
      </trkpt>
      <trkpt lat="35.905509620" lon="-106.271242980">
        <ele>2159.900</ele>
        <time>2022-04-26T16:17:03Z</time>
        <name>WPT.74</name>
      </trkpt>
      <trkpt lat="35.905506510" lon="-106.271197350">
        <ele>2158.800</ele>
        <time>2022-04-26T16:17:08Z</time>
        <name>WPT.75</name>
      </trkpt>
      <trkpt lat="35.905516210" lon="-106.271147310">
        <ele>2159.200</ele>
        <time>2022-04-26T16:17:15Z</time>
        <name>WPT.76</name>
      </trkpt>
      <trkpt lat="35.905522210" lon="-106.271097930">
        <ele>2160.300</ele>
        <time>2022-04-26T16:17:21Z</time>
        <name>WPT.77</name>
      </trkpt>
      <trkpt lat="35.905538330" lon="-106.271056830">
        <ele>2160.100</ele>
        <time>2022-04-26T16:17:46Z</time>
        <name>WPT.78</name>
      </trkpt>
      <trkpt lat="35.905562860" lon="-106.271021270">
        <ele>2160.400</ele>
        <time>2022-04-26T16:17:51Z</time>
        <name>WPT.79</name>
      </trkpt>
      <trkpt lat="35.905593270" lon="-106.270986160">
        <ele>2160.900</ele>
        <time>2022-04-26T16:17:56Z</time>
        <name>WPT.80</name>
      </trkpt>
      <trkpt lat="35.905618360" lon="-106.270943340">
        <ele>2160.400</ele>
        <time>2022-04-26T16:18:02Z</time>
        <name>WPT.81</name>
      </trkpt>
      <trkpt lat="35.905643900" lon="-106.270908970">
        <ele>2159.600</ele>
        <time>2022-04-26T16:18:06Z</time>
        <name>WPT.82</name>
      </trkpt>
      <trkpt lat="35.905667170" lon="-106.270868960">
        <ele>2160.200</ele>
        <time>2022-04-26T16:18:11Z</time>
        <name>WPT.83</name>
      </trkpt>
      <trkpt lat="35.905683390" lon="-106.270826950">
        <ele>2160.000</ele>
        <time>2022-04-26T16:18:18Z</time>
        <name>WPT.84</name>
      </trkpt>
      <trkpt lat="35.905695740" lon="-106.270776090">
        <ele>2160.200</ele>
        <time>2022-04-26T16:18:24Z</time>
        <name>WPT.85</name>
      </trkpt>
      <trkpt lat="35.905712190" lon="-106.270730460">
        <ele>2161.300</ele>
        <time>2022-04-26T16:18:29Z</time>
        <name>WPT.86</name>
      </trkpt>
      <trkpt lat="35.905734320" lon="-106.270687450">
        <ele>2162.000</ele>
        <time>2022-04-26T16:18:33Z</time>
        <name>WPT.87</name>
      </trkpt>
      <trkpt lat="35.905755330" lon="-106.270648620">
        <ele>2161.300</ele>
        <time>2022-04-26T16:18:39Z</time>
        <name>WPT.88</name>
      </trkpt>
      <trkpt lat="35.905762050" lon="-106.270602400">
        <ele>2162.000</ele>
        <time>2022-04-26T16:18:46Z</time>
        <name>WPT.89</name>
      </trkpt>
      <trkpt lat="35.905759840" lon="-106.270549420">
        <ele>2161.900</ele>
        <time>2022-04-26T16:18:52Z</time>
        <name>WPT.90</name>
      </trkpt>
      <trkpt lat="35.905770270" lon="-106.270500300">
        <ele>2159.600</ele>
        <time>2022-04-26T16:18:58Z</time>
        <name>WPT.91</name>
      </trkpt>
      <trkpt lat="35.905785410" lon="-106.270458220">
        <ele>2159.900</ele>
        <time>2022-04-26T16:19:03Z</time>
        <name>WPT.92</name>
      </trkpt>
      <trkpt lat="35.905796370" lon="-106.270408620">
        <ele>2160.600</ele>
        <time>2022-04-26T16:19:08Z</time>
        <name>WPT.93</name>
      </trkpt>
      <trkpt lat="35.905799580" lon="-106.270363030">
        <ele>2159.400</ele>
        <time>2022-04-26T16:19:13Z</time>
        <name>WPT.94</name>
      </trkpt>
      <trkpt lat="35.905802440" lon="-106.270314010">
        <ele>2158.100</ele>
        <time>2022-04-26T16:19:18Z</time>
        <name>WPT.95</name>
      </trkpt>
      <trkpt lat="35.905812050" lon="-106.270269550">
        <ele>2159.200</ele>
        <time>2022-04-26T16:19:22Z</time>
        <name>WPT.96</name>
      </trkpt>
      <trkpt lat="35.905819000" lon="-106.270219330">
        <ele>2158.700</ele>
        <time>2022-04-26T16:19:27Z</time>
        <name>WPT.97</name>
      </trkpt>
      <trkpt lat="35.905820740" lon="-106.270169470">
        <ele>2158.800</ele>
        <time>2022-04-26T16:19:33Z</time>
        <name>WPT.98</name>
      </trkpt>
      <trkpt lat="35.905821340" lon="-106.270118690">
        <ele>2157.300</ele>
        <time>2022-04-26T16:19:38Z</time>
        <name>WPT.99</name>
      </trkpt>
      <trkpt lat="35.905807990" lon="-106.270071820">
        <ele>2157.200</ele>
        <time>2022-04-26T16:19:43Z</time>
        <name>WPT.100</name>
      </trkpt>
      <trkpt lat="35.905782170" lon="-106.270034450">
        <ele>2158.100</ele>
        <time>2022-04-26T16:19:49Z</time>
        <name>WPT.101</name>
      </trkpt>
      <trkpt lat="35.905772610" lon="-106.269986500">
        <ele>2158.100</ele>
        <time>2022-04-26T16:19:55Z</time>
        <name>WPT.102</name>
      </trkpt>
      <trkpt lat="35.905759740" lon="-106.269935480">
        <ele>2155.900</ele>
        <time>2022-04-26T16:20:00Z</time>
        <name>WPT.103</name>
      </trkpt>
      <trkpt lat="35.905759030" lon="-106.269885820">
        <ele>2156.900</ele>
        <time>2022-04-26T16:20:05Z</time>
        <name>WPT.104</name>
      </trkpt>
      <trkpt lat="35.905771400" lon="-106.269833900">
        <ele>2157.600</ele>
        <time>2022-04-26T16:20:13Z</time>
        <name>WPT.105</name>
      </trkpt>
      <trkpt lat="35.905789250" lon="-106.269792680">
        <ele>2158.300</ele>
        <time>2022-04-26T16:20:17Z</time>
        <name>WPT.106</name>
      </trkpt>
      <trkpt lat="35.905799600" lon="-106.269740320">
        <ele>2159.500</ele>
        <time>2022-04-26T16:20:22Z</time>
        <name>WPT.107</name>
      </trkpt>
      <trkpt lat="35.905800280" lon="-106.269694490">
        <ele>2159.000</ele>
        <time>2022-04-26T16:20:26Z</time>
        <name>WPT.108</name>
      </trkpt>
      <trkpt lat="35.905816050" lon="-106.269650360">
        <ele>2160.700</ele>
        <time>2022-04-26T16:20:31Z</time>
        <name>WPT.109</name>
      </trkpt>
      <trkpt lat="35.905832240" lon="-106.269609700">
        <ele>2160.400</ele>
        <time>2022-04-26T16:20:35Z</time>
        <name>WPT.110</name>
      </trkpt>
      <trkpt lat="35.905844320" lon="-106.269566560">
        <ele>2160.200</ele>
        <time>2022-04-26T16:20:40Z</time>
        <name>WPT.111</name>
      </trkpt>
      <trkpt lat="35.905849810" lon="-106.269519070">
        <ele>2159.600</ele>
        <time>2022-04-26T16:20:48Z</time>
        <name>WPT.112</name>
      </trkpt>
      <trkpt lat="35.905842920" lon="-106.269470070">
        <ele>2160.100</ele>
        <time>2022-04-26T16:20:52Z</time>
        <name>WPT.113</name>
      </trkpt>
      <trkpt lat="35.905853760" lon="-106.269421570">
        <ele>2159.600</ele>
        <time>2022-04-26T16:20:56Z</time>
        <name>WPT.114</name>
      </trkpt>
      <trkpt lat="35.905859970" lon="-106.269370580">
        <ele>2158.500</ele>
        <time>2022-04-26T16:21:01Z</time>
        <name>WPT.115</name>
      </trkpt>
      <trkpt lat="35.905868440" lon="-106.269326900">
        <ele>2158.900</ele>
        <time>2022-04-26T16:21:05Z</time>
        <name>WPT.116</name>
      </trkpt>
      <trkpt lat="35.905878210" lon="-106.269274630">
        <ele>2158.800</ele>
        <time>2022-04-26T16:21:11Z</time>
        <name>WPT.117</name>
      </trkpt>
      <trkpt lat="35.905894560" lon="-106.269230160">
        <ele>2159.100</ele>
        <time>2022-04-26T16:21:16Z</time>
        <name>WPT.118</name>
      </trkpt>
      <trkpt lat="35.905889470" lon="-106.269184490">
        <ele>2159.000</ele>
        <time>2022-04-26T16:21:23Z</time>
        <name>WPT.119</name>
      </trkpt>
      <trkpt lat="35.905890070" lon="-106.269132720">
        <ele>2158.200</ele>
        <time>2022-04-26T16:21:28Z</time>
        <name>WPT.120</name>
      </trkpt>
      <trkpt lat="35.905896380" lon="-106.269083960">
        <ele>2158.300</ele>
        <time>2022-04-26T16:21:33Z</time>
        <name>WPT.121</name>
      </trkpt>
      <trkpt lat="35.905913770" lon="-106.269044270">
        <ele>2158.000</ele>
        <time>2022-04-26T16:21:39Z</time>
        <name>WPT.122</name>
      </trkpt>
      <trkpt lat="35.905937840" lon="-106.269009190">
        <ele>2157.500</ele>
        <time>2022-04-26T16:21:44Z</time>
        <name>WPT.123</name>
      </trkpt>
      <trkpt lat="35.905949400" lon="-106.268959930">
        <ele>2158.500</ele>
        <time>2022-04-26T16:21:49Z</time>
        <name>WPT.124</name>
      </trkpt>
      <trkpt lat="35.905941030" lon="-106.268910700">
        <ele>2158.200</ele>
        <time>2022-04-26T16:21:54Z</time>
        <name>WPT.125</name>
      </trkpt>
      <trkpt lat="35.905932980" lon="-106.268860520">
        <ele>2157.400</ele>
        <time>2022-04-26T16:21:59Z</time>
        <name>WPT.126</name>
      </trkpt>
      <trkpt lat="35.905933230" lon="-106.268815630">
        <ele>2159.200</ele>
        <time>2022-04-26T16:22:03Z</time>
        <name>WPT.127</name>
      </trkpt>
      <trkpt lat="35.905937400" lon="-106.268760380">
        <ele>2158.500</ele>
        <time>2022-04-26T16:22:09Z</time>
        <name>WPT.128</name>
      </trkpt>
      <trkpt lat="35.905930570" lon="-106.268716040">
        <ele>2159.500</ele>
        <time>2022-04-26T16:22:14Z</time>
        <name>WPT.129</name>
      </trkpt>
      <trkpt lat="35.905931910" lon="-106.268668500">
        <ele>2159.700</ele>
        <time>2022-04-26T16:22:19Z</time>
        <name>WPT.130</name>
      </trkpt>
      <trkpt lat="35.905937800" lon="-106.268618370">
        <ele>2159.600</ele>
        <time>2022-04-26T16:22:23Z</time>
        <name>WPT.131</name>
      </trkpt>
      <trkpt lat="35.905943080" lon="-106.268567720">
        <ele>2160.200</ele>
        <time>2022-04-26T16:22:28Z</time>
        <name>WPT.132</name>
      </trkpt>
      <trkpt lat="35.905939900" lon="-106.268519650">
        <ele>2159.500</ele>
        <time>2022-04-26T16:22:33Z</time>
        <name>WPT.133</name>
      </trkpt>
      <trkpt lat="35.905932480" lon="-106.268476250">
        <ele>2159.200</ele>
        <time>2022-04-26T16:22:37Z</time>
        <name>WPT.134</name>
      </trkpt>
      <trkpt lat="35.905929410" lon="-106.268432080">
        <ele>2158.700</ele>
        <time>2022-04-26T16:22:52Z</time>
        <name>WPT.135</name>
      </trkpt>
      <trkpt lat="35.905934490" lon="-106.268381860">
        <ele>2158.000</ele>
        <time>2022-04-26T16:23:02Z</time>
        <name>WPT.136</name>
      </trkpt>
      <trkpt lat="35.905944260" lon="-106.268336350">
        <ele>2157.600</ele>
        <time>2022-04-26T16:23:06Z</time>
        <name>WPT.137</name>
      </trkpt>
      <trkpt lat="35.905959440" lon="-106.268293950">
        <ele>2156.800</ele>
        <time>2022-04-26T16:23:10Z</time>
        <name>WPT.138</name>
      </trkpt>
      <trkpt lat="35.905959630" lon="-106.268249180">
        <ele>2157.800</ele>
        <time>2022-04-26T16:23:14Z</time>
        <name>WPT.139</name>
      </trkpt>
      <trkpt lat="35.905978410" lon="-106.268208650">
        <ele>2157.200</ele>
        <time>2022-04-26T16:23:18Z</time>
        <name>WPT.140</name>
      </trkpt>
      <trkpt lat="35.905980100" lon="-106.268162310">
        <ele>2156.900</ele>
        <time>2022-04-26T16:23:27Z</time>
        <name>WPT.141</name>
      </trkpt>
      <trkpt lat="35.905983750" lon="-106.268110350">
        <ele>2155.900</ele>
        <time>2022-04-26T16:23:39Z</time>
        <name>WPT.142</name>
      </trkpt>
      <trkpt lat="35.905982980" lon="-106.268065400">
        <ele>2156.100</ele>
        <time>2022-04-26T16:23:44Z</time>
        <name>WPT.143</name>
      </trkpt>
      <trkpt lat="35.905975180" lon="-106.268021540">
        <ele>2156.200</ele>
        <time>2022-04-26T16:23:57Z</time>
        <name>WPT.144</name>
      </trkpt>
      <trkpt lat="35.905982590" lon="-106.267969180">
        <ele>2155.200</ele>
        <time>2022-04-26T16:24:02Z</time>
        <name>WPT.145</name>
      </trkpt>
      <trkpt lat="35.905971010" lon="-106.267926040">
        <ele>2155.400</ele>
        <time>2022-04-26T16:24:15Z</time>
        <name>WPT.146</name>
      </trkpt>
      <trkpt lat="35.905960520" lon="-106.267880690">
        <ele>2156.300</ele>
        <time>2022-04-26T16:24:19Z</time>
        <name>WPT.147</name>
      </trkpt>
      <trkpt lat="35.905960890" lon="-106.267835580">
        <ele>2156.700</ele>
        <time>2022-04-26T16:24:22Z</time>
        <name>WPT.148</name>
      </trkpt>
      <trkpt lat="35.905951250" lon="-106.267791060">
        <ele>2156.100</ele>
        <time>2022-04-26T16:24:26Z</time>
        <name>WPT.149</name>
      </trkpt>
      <trkpt lat="35.905950340" lon="-106.267739670">
        <ele>2156.200</ele>
        <time>2022-04-26T16:24:32Z</time>
        <name>WPT.150</name>
      </trkpt>
      <trkpt lat="35.905952410" lon="-106.267687100">
        <ele>2157.500</ele>
        <time>2022-04-26T16:24:37Z</time>
        <name>WPT.151</name>
      </trkpt>
      <trkpt lat="35.905944240" lon="-106.267634350">
        <ele>2157.500</ele>
        <time>2022-04-26T16:24:43Z</time>
        <name>WPT.152</name>
      </trkpt>
      <trkpt lat="35.905936750" lon="-106.267587520">
        <ele>2158.300</ele>
        <time>2022-04-26T16:24:50Z</time>
        <name>WPT.153</name>
      </trkpt>
      <trkpt lat="35.905949800" lon="-106.267541560">
        <ele>2157.900</ele>
        <time>2022-04-26T16:24:55Z</time>
        <name>WPT.154</name>
      </trkpt>
      <trkpt lat="35.905948020" lon="-106.267494570">
        <ele>2157.800</ele>
        <time>2022-04-26T16:25:01Z</time>
        <name>WPT.155</name>
      </trkpt>
      <trkpt lat="35.905963830" lon="-106.267447920">
        <ele>2157.500</ele>
        <time>2022-04-26T16:25:06Z</time>
        <name>WPT.156</name>
      </trkpt>
      <trkpt lat="35.905971550" lon="-106.267403470">
        <ele>2156.300</ele>
        <time>2022-04-26T16:25:11Z</time>
        <name>WPT.157</name>
      </trkpt>
      <trkpt lat="35.905968490" lon="-106.267350280">
        <ele>2155.900</ele>
        <time>2022-04-26T16:25:24Z</time>
        <name>WPT.158</name>
      </trkpt>
      <trkpt lat="35.905950570" lon="-106.267308450">
        <ele>2155.600</ele>
        <time>2022-04-26T16:25:28Z</time>
        <name>WPT.159</name>
      </trkpt>
      <trkpt lat="35.905934880" lon="-106.267268430">
        <ele>2156.200</ele>
        <time>2022-04-26T16:25:33Z</time>
        <name>WPT.160</name>
      </trkpt>
      <trkpt lat="35.905907460" lon="-106.267230320">
        <ele>2157.200</ele>
        <time>2022-04-26T16:25:38Z</time>
        <name>WPT.161</name>
      </trkpt>
      <trkpt lat="35.905884690" lon="-106.267189570">
        <ele>2158.200</ele>
        <time>2022-04-26T16:25:43Z</time>
        <name>WPT.162</name>
      </trkpt>
      <trkpt lat="35.905877360" lon="-106.267144440">
        <ele>2159.400</ele>
        <time>2022-04-26T16:25:48Z</time>
        <name>WPT.163</name>
      </trkpt>
      <trkpt lat="35.905864430" lon="-106.267094220">
        <ele>2159.700</ele>
        <time>2022-04-26T16:25:54Z</time>
        <name>WPT.164</name>
      </trkpt>
      <trkpt lat="35.905845430" lon="-106.267054540">
        <ele>2158.200</ele>
        <time>2022-04-26T16:26:07Z</time>
        <name>WPT.165</name>
      </trkpt>
      <trkpt lat="35.905829030" lon="-106.267014370">
        <ele>2157.900</ele>
        <time>2022-04-26T16:26:13Z</time>
        <name>WPT.166</name>
      </trkpt>
      <trkpt lat="35.905839880" lon="-106.266969460">
        <ele>2156.300</ele>
        <time>2022-04-26T16:26:21Z</time>
        <name>WPT.167</name>
      </trkpt>
      <trkpt lat="35.905826670" lon="-106.266928200">
        <ele>2155.400</ele>
        <time>2022-04-26T16:26:25Z</time>
        <name>WPT.168</name>
      </trkpt>
      <trkpt lat="35.905819830" lon="-106.266883450">
        <ele>2155.600</ele>
        <time>2022-04-26T16:26:29Z</time>
        <name>WPT.169</name>
      </trkpt>
      <trkpt lat="35.905821160" lon="-106.266836970">
        <ele>2155.300</ele>
        <time>2022-04-26T16:26:32Z</time>
        <name>WPT.170</name>
      </trkpt>
      <trkpt lat="35.905809350" lon="-106.266789290">
        <ele>2155.900</ele>
        <time>2022-04-26T16:26:36Z</time>
        <name>WPT.171</name>
      </trkpt>
      <trkpt lat="35.905801850" lon="-106.266741440">
        <ele>2155.500</ele>
        <time>2022-04-26T16:26:40Z</time>
        <name>WPT.172</name>
      </trkpt>
      <trkpt lat="35.905790440" lon="-106.266697290">
        <ele>2156.100</ele>
        <time>2022-04-26T16:26:45Z</time>
        <name>WPT.173</name>
      </trkpt>
      <trkpt lat="35.905796950" lon="-106.266645590">
        <ele>2155.600</ele>
        <time>2022-04-26T16:27:01Z</time>
        <name>WPT.174</name>
      </trkpt>
      <trkpt lat="35.905798370" lon="-106.266594380">
        <ele>2155.900</ele>
        <time>2022-04-26T16:27:06Z</time>
        <name>WPT.175</name>
      </trkpt>
      <trkpt lat="35.905795610" lon="-106.266547050">
        <ele>2153.800</ele>
        <time>2022-04-26T16:27:29Z</time>
        <name>WPT.176</name>
      </trkpt>
      <trkpt lat="35.905803160" lon="-106.266492450">
        <ele>2151.700</ele>
        <time>2022-04-26T16:27:37Z</time>
        <name>WPT.177</name>
      </trkpt>
      <trkpt lat="35.905782470" lon="-106.266446340">
        <ele>2153.000</ele>
        <time>2022-04-26T16:27:43Z</time>
        <name>WPT.178</name>
      </trkpt>
      <trkpt lat="35.905771800" lon="-106.266398150">
        <ele>2153.800</ele>
        <time>2022-04-26T16:27:49Z</time>
        <name>WPT.179</name>
      </trkpt>
      <trkpt lat="35.905759300" lon="-106.266352380">
        <ele>2154.100</ele>
        <time>2022-04-26T16:27:54Z</time>
        <name>WPT.180</name>
      </trkpt>
      <trkpt lat="35.905752670" lon="-106.266307720">
        <ele>2155.300</ele>
        <time>2022-04-26T16:27:58Z</time>
        <name>WPT.181</name>
      </trkpt>
      <trkpt lat="35.905735760" lon="-106.266268080">
        <ele>2152.400</ele>
        <time>2022-04-26T16:28:04Z</time>
        <name>WPT.182</name>
      </trkpt>
      <trkpt lat="35.905752550" lon="-106.266222280">
        <ele>2152.800</ele>
        <time>2022-04-26T16:28:10Z</time>
        <name>WPT.183</name>
      </trkpt>
      <trkpt lat="35.905755220" lon="-106.266174970">
        <ele>2151.900</ele>
        <time>2022-04-26T16:28:16Z</time>
        <name>WPT.184</name>
      </trkpt>
      <trkpt lat="35.905769000" lon="-106.266122630">
        <ele>2152.200</ele>
        <time>2022-04-26T16:28:20Z</time>
        <name>WPT.185</name>
      </trkpt>
      <trkpt lat="35.905773330" lon="-106.266072740">
        <ele>2152.800</ele>
        <time>2022-04-26T16:28:25Z</time>
        <name>WPT.186</name>
      </trkpt>
      <trkpt lat="35.905784580" lon="-106.266019750">
        <ele>2152.300</ele>
        <time>2022-04-26T16:28:30Z</time>
        <name>WPT.187</name>
      </trkpt>
      <trkpt lat="35.905784010" lon="-106.265974320">
        <ele>2153.400</ele>
        <time>2022-04-26T16:28:34Z</time>
        <name>WPT.188</name>
      </trkpt>
      <trkpt lat="35.905792070" lon="-106.265923570">
        <ele>2151.400</ele>
        <time>2022-04-26T16:28:44Z</time>
        <name>WPT.189</name>
      </trkpt>
      <trkpt lat="35.905800580" lon="-106.265875950">
        <ele>2151.800</ele>
        <time>2022-04-26T16:28:49Z</time>
        <name>WPT.190</name>
      </trkpt>
      <trkpt lat="35.905798140" lon="-106.265823070">
        <ele>2151.900</ele>
        <time>2022-04-26T16:28:53Z</time>
        <name>WPT.191</name>
      </trkpt>
      <trkpt lat="35.905782120" lon="-106.265779430">
        <ele>2151.900</ele>
        <time>2022-04-26T16:28:57Z</time>
        <name>WPT.192</name>
      </trkpt>
      <trkpt lat="35.905782590" lon="-106.265727720">
        <ele>2152.100</ele>
        <time>2022-04-26T16:29:01Z</time>
        <name>WPT.193</name>
      </trkpt>
      <trkpt lat="35.905789800" lon="-106.265675530">
        <ele>2153.400</ele>
        <time>2022-04-26T16:29:05Z</time>
        <name>WPT.194</name>
      </trkpt>
      <trkpt lat="35.905779310" lon="-106.265630100">
        <ele>2154.800</ele>
        <time>2022-04-26T16:29:21Z</time>
        <name>WPT.195</name>
      </trkpt>
      <trkpt lat="35.905806610" lon="-106.265596020">
        <ele>2153.900</ele>
        <time>2022-04-26T16:29:44Z</time>
        <name>WPT.196</name>
      </trkpt>
      <trkpt lat="35.905828290" lon="-106.265546130">
        <ele>2155.500</ele>
        <time>2022-04-26T16:29:49Z</time>
        <name>WPT.197</name>
      </trkpt>
      <trkpt lat="35.905843440" lon="-106.265496110">
        <ele>2155.800</ele>
        <time>2022-04-26T16:29:53Z</time>
        <name>WPT.198</name>
      </trkpt>
      <trkpt lat="35.905850570" lon="-106.265450840">
        <ele>2155.900</ele>
        <time>2022-04-26T16:30:02Z</time>
        <name>WPT.199</name>
      </trkpt>
      <trkpt lat="35.905862280" lon="-106.265405820">
        <ele>2155.700</ele>
        <time>2022-04-26T16:30:07Z</time>
        <name>WPT.200</name>
      </trkpt>
      <trkpt lat="35.905878770" lon="-106.265361030">
        <ele>2156.000</ele>
        <time>2022-04-26T16:30:12Z</time>
        <name>WPT.201</name>
      </trkpt>
      <trkpt lat="35.905870320" lon="-106.265312110">
        <ele>2157.500</ele>
        <time>2022-04-26T16:30:21Z</time>
        <name>WPT.202</name>
      </trkpt>
      <trkpt lat="35.905895140" lon="-106.265279270">
        <ele>2157.600</ele>
        <time>2022-04-26T16:30:41Z</time>
        <name>WPT.203</name>
      </trkpt>
      <trkpt lat="35.905910180" lon="-106.265233010">
        <ele>2155.700</ele>
        <time>2022-04-26T16:30:45Z</time>
        <name>WPT.204</name>
      </trkpt>
      <trkpt lat="35.905920720" lon="-106.265183910">
        <ele>2154.300</ele>
        <time>2022-04-26T16:30:50Z</time>
        <name>WPT.205</name>
      </trkpt>
      <trkpt lat="35.905939950" lon="-106.265141590">
        <ele>2153.600</ele>
        <time>2022-04-26T16:31:26Z</time>
        <name>WPT.206</name>
      </trkpt>
      <trkpt lat="35.905959920" lon="-106.265096260">
        <ele>2152.900</ele>
        <time>2022-04-26T16:31:34Z</time>
        <name>WPT.207</name>
      </trkpt>
      <trkpt lat="35.905944010" lon="-106.265046620">
        <ele>2153.500</ele>
        <time>2022-04-26T16:31:38Z</time>
        <name>WPT.208</name>
      </trkpt>
      <trkpt lat="35.905944620" lon="-106.264995140">
        <ele>2154.400</ele>
        <time>2022-04-26T16:31:42Z</time>
        <name>WPT.209</name>
      </trkpt>
      <trkpt lat="35.905971250" lon="-106.264951780">
        <ele>2155.800</ele>
        <time>2022-04-26T16:33:36Z</time>
        <name>WPT.210</name>
      </trkpt>
      <trkpt lat="35.905998210" lon="-106.264922190">
        <ele>2155.300</ele>
        <time>2022-04-26T16:33:42Z</time>
        <name>WPT.211</name>
      </trkpt>
      <trkpt lat="35.905994490" lon="-106.264876090">
        <ele>2155.600</ele>
        <time>2022-04-26T16:33:47Z</time>
        <name>WPT.212</name>
      </trkpt>
      <trkpt lat="35.905994570" lon="-106.264831520">
        <ele>2156.500</ele>
        <time>2022-04-26T16:33:59Z</time>
        <name>WPT.213</name>
      </trkpt>
      <trkpt lat="35.906002870" lon="-106.264785180">
        <ele>2155.200</ele>
        <time>2022-04-26T16:35:26Z</time>
        <name>WPT.214</name>
      </trkpt>
      <trkpt lat="35.906012550" lon="-106.264737180">
        <ele>2155.400</ele>
        <time>2022-04-26T16:35:34Z</time>
        <name>WPT.215</name>
      </trkpt>
      <trkpt lat="35.906015100" lon="-106.264691600">
        <ele>2155.800</ele>
        <time>2022-04-26T16:35:39Z</time>
        <name>WPT.216</name>
      </trkpt>
      <trkpt lat="35.906025640" lon="-106.264644720">
        <ele>2155.300</ele>
        <time>2022-04-26T16:35:46Z</time>
        <name>WPT.217</name>
      </trkpt>
      <trkpt lat="35.906047840" lon="-106.264604600">
        <ele>2157.600</ele>
        <time>2022-04-26T16:36:02Z</time>
        <name>WPT.218</name>
      </trkpt>
      <trkpt lat="35.906026680" lon="-106.264566160">
        <ele>2158.300</ele>
        <time>2022-04-26T16:36:10Z</time>
        <name>WPT.219</name>
      </trkpt>
      <trkpt lat="35.906035000" lon="-106.264518240">
        <ele>2158.200</ele>
        <time>2022-04-26T16:36:15Z</time>
        <name>WPT.220</name>
      </trkpt>
      <trkpt lat="35.906039720" lon="-106.264471260">
        <ele>2158.900</ele>
        <time>2022-04-26T16:36:21Z</time>
        <name>WPT.221</name>
      </trkpt>
      <trkpt lat="35.906037010" lon="-106.264426300">
        <ele>2158.200</ele>
        <time>2022-04-26T16:36:29Z</time>
        <name>WPT.222</name>
      </trkpt>
      <trkpt lat="35.906051060" lon="-106.264378680">
        <ele>2157.500</ele>
        <time>2022-04-26T16:36:38Z</time>
        <name>WPT.223</name>
      </trkpt>
      <trkpt lat="35.906068480" lon="-106.264330870">
        <ele>2157.300</ele>
        <time>2022-04-26T16:36:49Z</time>
        <name>WPT.224</name>
      </trkpt>
      <trkpt lat="35.906087080" lon="-106.264286780">
        <ele>2156.000</ele>
        <time>2022-04-26T16:36:55Z</time>
        <name>WPT.225</name>
      </trkpt>
      <trkpt lat="35.906110250" lon="-106.264245280">
        <ele>2156.300</ele>
        <time>2022-04-26T16:37:00Z</time>
        <name>WPT.226</name>
      </trkpt>
      <trkpt lat="35.906110820" lon="-106.264195530">
        <ele>2155.600</ele>
        <time>2022-04-26T16:37:06Z</time>
        <name>WPT.227</name>
      </trkpt>
      <trkpt lat="35.906107740" lon="-106.264148580">
        <ele>2156.000</ele>
        <time>2022-04-26T16:37:11Z</time>
        <name>WPT.228</name>
      </trkpt>
      <trkpt lat="35.906106140" lon="-106.264092760">
        <ele>2155.700</ele>
        <time>2022-04-26T16:37:16Z</time>
        <name>WPT.229</name>
      </trkpt>
      <trkpt lat="35.906092870" lon="-106.264046560">
        <ele>2157.000</ele>
        <time>2022-04-26T16:37:21Z</time>
        <name>WPT.230</name>
      </trkpt>
      <trkpt lat="35.906085730" lon="-106.264000760">
        <ele>2157.600</ele>
        <time>2022-04-26T16:37:26Z</time>
        <name>WPT.231</name>
      </trkpt>
      <trkpt lat="35.906076760" lon="-106.263946090">
        <ele>2157.200</ele>
        <time>2022-04-26T16:37:31Z</time>
        <name>WPT.232</name>
      </trkpt>
      <trkpt lat="35.906059920" lon="-106.263901050">
        <ele>2157.100</ele>
        <time>2022-04-26T16:37:36Z</time>
        <name>WPT.233</name>
      </trkpt>
      <trkpt lat="35.906047700" lon="-106.263858950">
        <ele>2156.300</ele>
        <time>2022-04-26T16:37:41Z</time>
        <name>WPT.234</name>
      </trkpt>
      <trkpt lat="35.906035070" lon="-106.263808600">
        <ele>2157.800</ele>
        <time>2022-04-26T16:37:50Z</time>
        <name>WPT.235</name>
      </trkpt>
      <trkpt lat="35.906012840" lon="-106.263769530">
        <ele>2156.800</ele>
        <time>2022-04-26T16:37:55Z</time>
        <name>WPT.236</name>
      </trkpt>
      <trkpt lat="35.906005620" lon="-106.263724690">
        <ele>2155.900</ele>
        <time>2022-04-26T16:38:05Z</time>
        <name>WPT.237</name>
      </trkpt>
      <trkpt lat="35.906009890" lon="-106.263675330">
        <ele>2155.200</ele>
        <time>2022-04-26T16:38:11Z</time>
        <name>WPT.238</name>
      </trkpt>
      <trkpt lat="35.905985120" lon="-106.263633960">
        <ele>2154.600</ele>
        <time>2022-04-26T16:38:23Z</time>
        <name>WPT.239</name>
      </trkpt>
      <trkpt lat="35.905991060" lon="-106.263581420">
        <ele>2155.300</ele>
        <time>2022-04-26T16:38:37Z</time>
        <name>WPT.240</name>
      </trkpt>
      <trkpt lat="35.905974620" lon="-106.263540210">
        <ele>2155.200</ele>
        <time>2022-04-26T16:38:44Z</time>
        <name>WPT.241</name>
      </trkpt>
      <trkpt lat="35.905960180" lon="-106.263495770">
        <ele>2155.200</ele>
        <time>2022-04-26T16:38:50Z</time>
        <name>WPT.242</name>
      </trkpt>
      <trkpt lat="35.905943750" lon="-106.263453760">
        <ele>2155.400</ele>
        <time>2022-04-26T16:38:59Z</time>
        <name>WPT.243</name>
      </trkpt>
      <trkpt lat="35.905937260" lon="-106.263408600">
        <ele>2155.400</ele>
        <time>2022-04-26T16:39:04Z</time>
        <name>WPT.244</name>
      </trkpt>
      <trkpt lat="35.905923850" lon="-106.263362200">
        <ele>2155.600</ele>
        <time>2022-04-26T16:39:11Z</time>
        <name>WPT.245</name>
      </trkpt>
      <trkpt lat="35.905936250" lon="-106.263312280">
        <ele>2155.300</ele>
        <time>2022-04-26T16:39:28Z</time>
        <name>WPT.246</name>
      </trkpt>
      <trkpt lat="35.905939770" lon="-106.263265030">
        <ele>2155.500</ele>
        <time>2022-04-26T16:39:32Z</time>
        <name>WPT.247</name>
      </trkpt>
      <trkpt lat="35.905948940" lon="-106.263213030">
        <ele>2156.000</ele>
        <time>2022-04-26T16:39:37Z</time>
        <name>WPT.248</name>
      </trkpt>
      <trkpt lat="35.905964600" lon="-106.263166550">
        <ele>2155.200</ele>
        <time>2022-04-26T16:39:42Z</time>
        <name>WPT.249</name>
      </trkpt>
      <trkpt lat="35.905969810" lon="-106.263115760">
        <ele>2156.400</ele>
        <time>2022-04-26T16:39:49Z</time>
        <name>WPT.250</name>
      </trkpt>
      <trkpt lat="35.905968600" lon="-106.263064850">
        <ele>2157.200</ele>
        <time>2022-04-26T16:39:56Z</time>
        <name>WPT.251</name>
      </trkpt>
      <trkpt lat="35.905979020" lon="-106.263017590">
        <ele>2157.600</ele>
        <time>2022-04-26T16:40:01Z</time>
        <name>WPT.252</name>
      </trkpt>
      <trkpt lat="35.905993070" lon="-106.262973250">
        <ele>2157.800</ele>
        <time>2022-04-26T16:40:07Z</time>
        <name>WPT.253</name>
      </trkpt>
      <trkpt lat="35.906018730" lon="-106.262937430">
        <ele>2157.900</ele>
        <time>2022-04-26T16:40:14Z</time>
        <name>WPT.254</name>
      </trkpt>
      <trkpt lat="35.906032850" lon="-106.262895230">
        <ele>2157.300</ele>
        <time>2022-04-26T16:40:19Z</time>
        <name>WPT.255</name>
      </trkpt>
      <trkpt lat="35.906051120" lon="-106.262853570">
        <ele>2156.300</ele>
        <time>2022-04-26T16:40:26Z</time>
        <name>WPT.256</name>
      </trkpt>
      <trkpt lat="35.906068280" lon="-106.262803390">
        <ele>2156.800</ele>
        <time>2022-04-26T16:40:37Z</time>
        <name>WPT.257</name>
      </trkpt>
      <trkpt lat="35.906094740" lon="-106.262771780">
        <ele>2158.000</ele>
        <time>2022-04-26T16:40:42Z</time>
        <name>WPT.258</name>
      </trkpt>
      <trkpt lat="35.906116580" lon="-106.262727060">
        <ele>2157.300</ele>
        <time>2022-04-26T16:40:47Z</time>
        <name>WPT.259</name>
      </trkpt>
      <trkpt lat="35.906124770" lon="-106.262679430">
        <ele>2157.000</ele>
        <time>2022-04-26T16:40:52Z</time>
        <name>WPT.260</name>
      </trkpt>
      <trkpt lat="35.906136450" lon="-106.262630960">
        <ele>2156.200</ele>
        <time>2022-04-26T16:40:58Z</time>
        <name>WPT.261</name>
      </trkpt>
      <trkpt lat="35.906139850" lon="-106.262581820">
        <ele>2154.900</ele>
        <time>2022-04-26T16:41:05Z</time>
        <name>WPT.262</name>
      </trkpt>
      <trkpt lat="35.906161120" lon="-106.262544620">
        <ele>2153.100</ele>
        <time>2022-04-26T16:41:28Z</time>
        <name>WPT.263</name>
      </trkpt>
      <trkpt lat="35.906171270" lon="-106.262497710">
        <ele>2153.500</ele>
        <time>2022-04-26T16:41:33Z</time>
        <name>WPT.264</name>
      </trkpt>
      <trkpt lat="35.906194720" lon="-106.262463300">
        <ele>2153.000</ele>
        <time>2022-04-26T16:41:37Z</time>
        <name>WPT.265</name>
      </trkpt>
      <trkpt lat="35.906211050" lon="-106.262413080">
        <ele>2152.600</ele>
        <time>2022-04-26T16:41:42Z</time>
        <name>WPT.266</name>
      </trkpt>
      <trkpt lat="35.906207490" lon="-106.262366260">
        <ele>2153.900</ele>
        <time>2022-04-26T16:41:51Z</time>
        <name>WPT.267</name>
      </trkpt>
      <trkpt lat="35.906222340" lon="-106.262323220">
        <ele>2154.600</ele>
        <time>2022-04-26T16:41:56Z</time>
        <name>WPT.268</name>
      </trkpt>
      <trkpt lat="35.906254410" lon="-106.262302270">
        <ele>2153.500</ele>
        <time>2022-04-26T16:42:04Z</time>
        <name>WPT.269</name>
      </trkpt>
      <trkpt lat="35.906281580" lon="-106.262268000">
        <ele>2152.100</ele>
        <time>2022-04-26T16:42:21Z</time>
        <name>WPT.270</name>
      </trkpt>
      <trkpt lat="35.906307470" lon="-106.262224300">
        <ele>2152.700</ele>
        <time>2022-04-26T16:42:26Z</time>
        <name>WPT.271</name>
      </trkpt>
      <trkpt lat="35.906316940" lon="-106.262177040">
        <ele>2153.300</ele>
        <time>2022-04-26T16:42:31Z</time>
        <name>WPT.272</name>
      </trkpt>
      <trkpt lat="35.906330140" lon="-106.262130580">
        <ele>2152.800</ele>
        <time>2022-04-26T16:42:41Z</time>
        <name>WPT.273</name>
      </trkpt>
      <trkpt lat="35.906344630" lon="-106.262081850">
        <ele>2152.800</ele>
        <time>2022-04-26T16:42:46Z</time>
        <name>WPT.274</name>
      </trkpt>
      <trkpt lat="35.906353260" lon="-106.262029670">
        <ele>2153.600</ele>
        <time>2022-04-26T16:42:51Z</time>
        <name>WPT.275</name>
      </trkpt>
      <trkpt lat="35.906360560" lon="-106.261980600">
        <ele>2153.600</ele>
        <time>2022-04-26T16:42:57Z</time>
        <name>WPT.276</name>
      </trkpt>
      <trkpt lat="35.906378280" lon="-106.261935500">
        <ele>2154.600</ele>
        <time>2022-04-26T16:43:05Z</time>
        <name>WPT.277</name>
      </trkpt>
      <trkpt lat="35.906406280" lon="-106.261900480">
        <ele>2153.700</ele>
        <time>2022-04-26T16:43:12Z</time>
        <name>WPT.278</name>
      </trkpt>
      <trkpt lat="35.906410140" lon="-106.261854250">
        <ele>2152.700</ele>
        <time>2022-04-26T16:43:16Z</time>
        <name>WPT.279</name>
      </trkpt>
      <trkpt lat="35.906434780" lon="-106.261811770">
        <ele>2153.900</ele>
        <time>2022-04-26T16:43:23Z</time>
        <name>WPT.280</name>
      </trkpt>
      <trkpt lat="35.906442270" lon="-106.261765590">
        <ele>2153.600</ele>
        <time>2022-04-26T16:43:28Z</time>
        <name>WPT.281</name>
      </trkpt>
      <trkpt lat="35.906431720" lon="-106.261722700">
        <ele>2154.700</ele>
        <time>2022-04-26T16:43:35Z</time>
        <name>WPT.282</name>
      </trkpt>
      <trkpt lat="35.906434310" lon="-106.261678490">
        <ele>2154.800</ele>
        <time>2022-04-26T16:43:40Z</time>
        <name>WPT.283</name>
      </trkpt>
      <trkpt lat="35.906454630" lon="-106.261640600">
        <ele>2153.900</ele>
        <time>2022-04-26T16:43:48Z</time>
        <name>WPT.284</name>
      </trkpt>
      <trkpt lat="35.906464190" lon="-106.261595780">
        <ele>2153.400</ele>
        <time>2022-04-26T16:43:53Z</time>
        <name>WPT.285</name>
      </trkpt>
      <trkpt lat="35.906481240" lon="-106.261551870">
        <ele>2153.600</ele>
        <time>2022-04-26T16:43:59Z</time>
        <name>WPT.286</name>
      </trkpt>
      <trkpt lat="35.906495670" lon="-106.261507620">
        <ele>2153.000</ele>
        <time>2022-04-26T16:44:05Z</time>
        <name>WPT.287</name>
      </trkpt>
      <trkpt lat="35.906506450" lon="-106.261459970">
        <ele>2153.400</ele>
        <time>2022-04-26T16:44:10Z</time>
        <name>WPT.288</name>
      </trkpt>
      <trkpt lat="35.906525290" lon="-106.261420100">
        <ele>2155.300</ele>
        <time>2022-04-26T16:44:17Z</time>
        <name>WPT.289</name>
      </trkpt>
      <trkpt lat="35.906513640" lon="-106.261366610">
        <ele>2156.400</ele>
        <time>2022-04-26T16:44:23Z</time>
        <name>WPT.290</name>
      </trkpt>
      <trkpt lat="35.906506780" lon="-106.261320880">
        <ele>2157.200</ele>
        <time>2022-04-26T16:44:28Z</time>
        <name>WPT.291</name>
      </trkpt>
      <trkpt lat="35.906518610" lon="-106.261273860">
        <ele>2157.100</ele>
        <time>2022-04-26T16:44:36Z</time>
        <name>WPT.292</name>
      </trkpt>
      <trkpt lat="35.906512590" lon="-106.261228710">
        <ele>2157.000</ele>
        <time>2022-04-26T16:44:41Z</time>
        <name>WPT.293</name>
      </trkpt>
      <trkpt lat="35.906519140" lon="-106.261183940">
        <ele>2156.500</ele>
        <time>2022-04-26T16:44:52Z</time>
        <name>WPT.294</name>
      </trkpt>
      <trkpt lat="35.906546550" lon="-106.261148860">
        <ele>2154.800</ele>
        <time>2022-04-26T16:45:14Z</time>
        <name>WPT.295</name>
      </trkpt>
      <trkpt lat="35.906521730" lon="-106.261114640">
        <ele>2152.700</ele>
        <time>2022-04-26T16:45:58Z</time>
        <name>WPT.296</name>
      </trkpt>
      <trkpt lat="35.906523050" lon="-106.261070350">
        <ele>2151.900</ele>
        <time>2022-04-26T16:46:04Z</time>
        <name>WPT.297</name>
      </trkpt>
      <trkpt lat="35.906532140" lon="-106.261024880">
        <ele>2152.700</ele>
        <time>2022-04-26T16:46:21Z</time>
        <name>WPT.298</name>
      </trkpt>
      <trkpt lat="35.906546910" lon="-106.260977220">
        <ele>2152.700</ele>
        <time>2022-04-26T16:46:26Z</time>
        <name>WPT.299</name>
      </trkpt>
      <trkpt lat="35.906551650" lon="-106.260931310">
        <ele>2152.500</ele>
        <time>2022-04-26T16:46:30Z</time>
        <name>WPT.300</name>
      </trkpt>
      <trkpt lat="35.906562960" lon="-106.260888440">
        <ele>2154.500</ele>
        <time>2022-04-26T16:46:36Z</time>
        <name>WPT.301</name>
      </trkpt>
      <trkpt lat="35.906559350" lon="-106.260842860">
        <ele>2154.100</ele>
        <time>2022-04-26T16:46:41Z</time>
        <name>WPT.302</name>
      </trkpt>
      <trkpt lat="35.906551050" lon="-106.260795630">
        <ele>2155.900</ele>
        <time>2022-04-26T16:46:47Z</time>
        <name>WPT.303</name>
      </trkpt>
      <trkpt lat="35.906539660" lon="-106.260744120">
        <ele>2156.000</ele>
        <time>2022-04-26T16:46:52Z</time>
        <name>WPT.304</name>
      </trkpt>
      <trkpt lat="35.906546720" lon="-106.260699250">
        <ele>2156.100</ele>
        <time>2022-04-26T16:47:00Z</time>
        <name>WPT.305</name>
      </trkpt>
      <trkpt lat="35.906562250" lon="-106.260658640">
        <ele>2156.000</ele>
        <time>2022-04-26T16:47:07Z</time>
        <name>WPT.306</name>
      </trkpt>
      <trkpt lat="35.906575570" lon="-106.260615820">
        <ele>2156.800</ele>
        <time>2022-04-26T16:48:06Z</time>
        <name>WPT.307</name>
      </trkpt>
      <trkpt lat="35.906566430" lon="-106.260569200">
        <ele>2156.700</ele>
        <time>2022-04-26T16:48:12Z</time>
        <name>WPT.308</name>
      </trkpt>
      <trkpt lat="35.906583020" lon="-106.260520720">
        <ele>2156.700</ele>
        <time>2022-04-26T16:48:17Z</time>
        <name>WPT.309</name>
      </trkpt>
      <trkpt lat="35.906592710" lon="-106.260476830">
        <ele>2155.600</ele>
        <time>2022-04-26T16:48:22Z</time>
        <name>WPT.310</name>
      </trkpt>
      <trkpt lat="35.906591750" lon="-106.260427240">
        <ele>2153.800</ele>
        <time>2022-04-26T16:48:27Z</time>
        <name>WPT.311</name>
      </trkpt>
      <trkpt lat="35.906587890" lon="-106.260378120">
        <ele>2152.800</ele>
        <time>2022-04-26T16:48:32Z</time>
        <name>WPT.312</name>
      </trkpt>
      <trkpt lat="35.906595730" lon="-106.260328310">
        <ele>2155.000</ele>
        <time>2022-04-26T16:48:37Z</time>
        <name>WPT.313</name>
      </trkpt>
      <trkpt lat="35.906606510" lon="-106.260284540">
        <ele>2155.000</ele>
        <time>2022-04-26T16:48:44Z</time>
        <name>WPT.314</name>
      </trkpt>
      <trkpt lat="35.906594150" lon="-106.260242440">
        <ele>2153.700</ele>
        <time>2022-04-26T16:49:00Z</time>
        <name>WPT.315</name>
      </trkpt>
      <trkpt lat="35.906594640" lon="-106.260193860">
        <ele>2153.700</ele>
        <time>2022-04-26T16:49:11Z</time>
        <name>WPT.316</name>
      </trkpt>
      <trkpt lat="35.906591450" lon="-106.260149680">
        <ele>2154.000</ele>
        <time>2022-04-26T16:49:16Z</time>
        <name>WPT.317</name>
      </trkpt>
      <trkpt lat="35.906600250" lon="-106.260102910">
        <ele>2154.200</ele>
        <time>2022-04-26T16:49:22Z</time>
        <name>WPT.318</name>
      </trkpt>
      <trkpt lat="35.906612810" lon="-106.260058490">
        <ele>2155.300</ele>
        <time>2022-04-26T16:49:27Z</time>
        <name>WPT.319</name>
      </trkpt>
      <trkpt lat="35.906600940" lon="-106.260010620">
        <ele>2155.600</ele>
        <time>2022-04-26T16:49:33Z</time>
        <name>WPT.320</name>
      </trkpt>
      <trkpt lat="35.906608030" lon="-106.259958190">
        <ele>2155.500</ele>
        <time>2022-04-26T16:49:39Z</time>
        <name>WPT.321</name>
      </trkpt>
      <trkpt lat="35.906608510" lon="-106.259906380">
        <ele>2155.500</ele>
        <time>2022-04-26T16:49:44Z</time>
        <name>WPT.322</name>
      </trkpt>
      <trkpt lat="35.906612770" lon="-106.259857780">
        <ele>2156.600</ele>
        <time>2022-04-26T16:50:01Z</time>
        <name>WPT.323</name>
      </trkpt>
      <trkpt lat="35.906602300" lon="-106.259813430">
        <ele>2155.900</ele>
        <time>2022-04-26T16:50:06Z</time>
        <name>WPT.324</name>
      </trkpt>
      <trkpt lat="35.906588480" lon="-106.259769250">
        <ele>2157.200</ele>
        <time>2022-04-26T16:50:12Z</time>
        <name>WPT.325</name>
      </trkpt>
      <trkpt lat="35.906579030" lon="-106.259723600">
        <ele>2155.700</ele>
        <time>2022-04-26T16:50:17Z</time>
        <name>WPT.326</name>
      </trkpt>
      <trkpt lat="35.906577400" lon="-106.259672490">
        <ele>2157.000</ele>
        <time>2022-04-26T16:50:22Z</time>
        <name>WPT.327</name>
      </trkpt>
      <trkpt lat="35.906577110" lon="-106.259625570">
        <ele>2156.900</ele>
        <time>2022-04-26T16:50:29Z</time>
        <name>WPT.328</name>
      </trkpt>
      <trkpt lat="35.906581520" lon="-106.259577980">
        <ele>2156.000</ele>
        <time>2022-04-26T16:50:43Z</time>
        <name>WPT.329</name>
      </trkpt>
      <trkpt lat="35.906591800" lon="-106.259535390">
        <ele>2157.800</ele>
        <time>2022-04-26T16:50:49Z</time>
        <name>WPT.330</name>
      </trkpt>
      <trkpt lat="35.906594340" lon="-106.259486640">
        <ele>2158.500</ele>
        <time>2022-04-26T16:50:54Z</time>
        <name>WPT.331</name>
      </trkpt>
      <trkpt lat="35.906591910" lon="-106.259442120">
        <ele>2156.900</ele>
        <time>2022-04-26T16:51:01Z</time>
        <name>WPT.332</name>
      </trkpt>
      <trkpt lat="35.906615560" lon="-106.259398380">
        <ele>2155.500</ele>
        <time>2022-04-26T16:51:32Z</time>
        <name>WPT.333</name>
      </trkpt>
      <trkpt lat="35.906590290" lon="-106.259363120">
        <ele>2157.600</ele>
        <time>2022-04-26T16:51:39Z</time>
        <name>WPT.334</name>
      </trkpt>
      <trkpt lat="35.906583390" lon="-106.259313910">
        <ele>2154.300</ele>
        <time>2022-04-26T16:52:13Z</time>
        <name>WPT.335</name>
      </trkpt>
      <trkpt lat="35.906596500" lon="-106.259267620">
        <ele>2152.800</ele>
        <time>2022-04-26T16:52:19Z</time>
        <name>WPT.336</name>
      </trkpt>
      <trkpt lat="35.906595360" lon="-106.259218210">
        <ele>2153.600</ele>
        <time>2022-04-26T16:52:25Z</time>
        <name>WPT.337</name>
      </trkpt>
      <trkpt lat="35.906610300" lon="-106.259177210">
        <ele>2152.100</ele>
        <time>2022-04-26T16:52:37Z</time>
        <name>WPT.338</name>
      </trkpt>
      <trkpt lat="35.906600170" lon="-106.259132850">
        <ele>2151.800</ele>
        <time>2022-04-26T16:52:42Z</time>
        <name>WPT.339</name>
      </trkpt>
      <trkpt lat="35.906592870" lon="-106.259079750">
        <ele>2150.300</ele>
        <time>2022-04-26T16:53:01Z</time>
        <name>WPT.340</name>
      </trkpt>
      <trkpt lat="35.906593320" lon="-106.259035150">
        <ele>2149.600</ele>
        <time>2022-04-26T16:53:06Z</time>
        <name>WPT.341</name>
      </trkpt>
      <trkpt lat="35.906626380" lon="-106.259007420">
        <ele>2149.100</ele>
        <time>2022-04-26T16:55:10Z</time>
        <name>WPT.342</name>
      </trkpt>
      <trkpt lat="35.906651050" lon="-106.258966030">
        <ele>2148.000</ele>
        <time>2022-04-26T16:55:15Z</time>
        <name>WPT.343</name>
      </trkpt>
      <trkpt lat="35.906658120" lon="-106.258918990">
        <ele>2147.400</ele>
        <time>2022-04-26T16:55:19Z</time>
        <name>WPT.344</name>
      </trkpt>
      <trkpt lat="35.906665190" lon="-106.258873430">
        <ele>2147.300</ele>
        <time>2022-04-26T16:55:23Z</time>
        <name>WPT.345</name>
      </trkpt>
      <trkpt lat="35.906664630" lon="-106.258824950">
        <ele>2146.300</ele>
        <time>2022-04-26T16:55:28Z</time>
        <name>WPT.346</name>
      </trkpt>
      <trkpt lat="35.906662520" lon="-106.258773180">
        <ele>2147.100</ele>
        <time>2022-04-26T16:55:37Z</time>
        <name>WPT.347</name>
      </trkpt>
      <trkpt lat="35.906666120" lon="-106.258728020">
        <ele>2146.500</ele>
        <time>2022-04-26T16:55:47Z</time>
        <name>WPT.348</name>
      </trkpt>
      <trkpt lat="35.906666690" lon="-106.258675280">
        <ele>2145.500</ele>
        <time>2022-04-26T16:55:52Z</time>
        <name>WPT.349</name>
      </trkpt>
      <trkpt lat="35.906656260" lon="-106.258624690">
        <ele>2144.600</ele>
        <time>2022-04-26T16:55:57Z</time>
        <name>WPT.350</name>
      </trkpt>
      <trkpt lat="35.906675890" lon="-106.258581380">
        <ele>2144.200</ele>
        <time>2022-04-26T16:56:01Z</time>
        <name>WPT.351</name>
      </trkpt>
      <trkpt lat="35.906703040" lon="-106.258540530">
        <ele>2144.800</ele>
        <time>2022-04-26T16:56:05Z</time>
        <name>WPT.352</name>
      </trkpt>
      <trkpt lat="35.906732840" lon="-106.258500510">
        <ele>2144.900</ele>
        <time>2022-04-26T16:56:09Z</time>
        <name>WPT.353</name>
      </trkpt>
      <trkpt lat="35.906754150" lon="-106.258458860">
        <ele>2144.600</ele>
        <time>2022-04-26T16:56:13Z</time>
        <name>WPT.354</name>
      </trkpt>
      <trkpt lat="35.906773200" lon="-106.258420360">
        <ele>2144.700</ele>
        <time>2022-04-26T16:56:17Z</time>
        <name>WPT.355</name>
      </trkpt>
      <trkpt lat="35.906794290" lon="-106.258380190">
        <ele>2144.900</ele>
        <time>2022-04-26T16:56:21Z</time>
        <name>WPT.356</name>
      </trkpt>
      <trkpt lat="35.906812150" lon="-106.258332960">
        <ele>2143.700</ele>
        <time>2022-04-26T16:56:26Z</time>
        <name>WPT.357</name>
      </trkpt>
      <trkpt lat="35.906813980" lon="-106.258287310">
        <ele>2143.800</ele>
        <time>2022-04-26T16:56:30Z</time>
        <name>WPT.358</name>
      </trkpt>
      <trkpt lat="35.906795720" lon="-106.258237970">
        <ele>2143.400</ele>
        <time>2022-04-26T16:56:35Z</time>
        <name>WPT.359</name>
      </trkpt>
      <trkpt lat="35.906799140" lon="-106.258190120">
        <ele>2143.500</ele>
        <time>2022-04-26T16:56:40Z</time>
        <name>WPT.360</name>
      </trkpt>
      <trkpt lat="35.906812440" lon="-106.258139550">
        <ele>2143.400</ele>
        <time>2022-04-26T16:56:45Z</time>
        <name>WPT.361</name>
      </trkpt>
      <trkpt lat="35.906841270" lon="-106.258102740">
        <ele>2143.400</ele>
        <time>2022-04-26T16:56:49Z</time>
        <name>WPT.362</name>
      </trkpt>
      <trkpt lat="35.906842800" lon="-106.258058440">
        <ele>2143.600</ele>
        <time>2022-04-26T16:56:53Z</time>
        <name>WPT.363</name>
      </trkpt>
      <trkpt lat="35.906856360" lon="-106.258015820">
        <ele>2143.600</ele>
        <time>2022-04-26T16:56:57Z</time>
        <name>WPT.364</name>
      </trkpt>
      <trkpt lat="35.906864590" lon="-106.257966150">
        <ele>2143.600</ele>
        <time>2022-04-26T16:57:02Z</time>
        <name>WPT.365</name>
      </trkpt>
      <trkpt lat="35.906873240" lon="-106.257918590">
        <ele>2142.300</ele>
        <time>2022-04-26T16:57:07Z</time>
        <name>WPT.366</name>
      </trkpt>
      <trkpt lat="35.906872110" lon="-106.257873580">
        <ele>2142.600</ele>
        <time>2022-04-26T16:57:16Z</time>
        <name>WPT.367</name>
      </trkpt>
      <trkpt lat="35.906865960" lon="-106.257827030">
        <ele>2141.800</ele>
        <time>2022-04-26T16:57:21Z</time>
        <name>WPT.368</name>
      </trkpt>
      <trkpt lat="35.906869900" lon="-106.257776960">
        <ele>2140.800</ele>
        <time>2022-04-26T16:57:28Z</time>
        <name>WPT.369</name>
      </trkpt>
      <trkpt lat="35.906867570" lon="-106.257732410">
        <ele>2140.700</ele>
        <time>2022-04-26T16:57:33Z</time>
        <name>WPT.370</name>
      </trkpt>
      <trkpt lat="35.906893390" lon="-106.257697380">
        <ele>2139.600</ele>
        <time>2022-04-26T16:57:38Z</time>
        <name>WPT.371</name>
      </trkpt>
      <trkpt lat="35.906907870" lon="-106.257653350">
        <ele>2139.100</ele>
        <time>2022-04-26T16:57:49Z</time>
        <name>WPT.372</name>
      </trkpt>
      <trkpt lat="35.906904750" lon="-106.257606490">
        <ele>2137.100</ele>
        <time>2022-04-26T16:58:06Z</time>
        <name>WPT.373</name>
      </trkpt>
      <trkpt lat="35.906906070" lon="-106.257557940">
        <ele>2136.200</ele>
        <time>2022-04-26T16:58:16Z</time>
        <name>WPT.374</name>
      </trkpt>
      <trkpt lat="35.906928570" lon="-106.257518650">
        <ele>2135.600</ele>
        <time>2022-04-26T16:58:21Z</time>
        <name>WPT.375</name>
      </trkpt>
      <trkpt lat="35.906892250" lon="-106.257504540">
        <ele>2134.700</ele>
        <time>2022-04-26T16:58:30Z</time>
        <name>WPT.376</name>
      </trkpt>
      <trkpt lat="35.906882350" lon="-106.257547510">
        <ele>2134.000</ele>
        <time>2022-04-26T16:59:28Z</time>
        <name>WPT.377</name>
      </trkpt>
      <trkpt lat="35.906851640" lon="-106.257514320">
        <ele>2133.700</ele>
        <time>2022-04-26T16:59:37Z</time>
        <name>WPT.378</name>
      </trkpt>
      <trkpt lat="35.906853590" lon="-106.257466460">
        <ele>2134.200</ele>
        <time>2022-04-26T16:59:44Z</time>
        <name>WPT.379</name>
      </trkpt>
      <trkpt lat="35.906864850" lon="-106.257424320">
        <ele>2133.200</ele>
        <time>2022-04-26T16:59:53Z</time>
        <name>WPT.380</name>
      </trkpt>
      <trkpt lat="35.906864430" lon="-106.257375200">
        <ele>2131.300</ele>
        <time>2022-04-26T17:00:16Z</time>
        <name>WPT.381</name>
      </trkpt>
      <trkpt lat="35.906825810" lon="-106.257377660">
        <ele>2128.100</ele>
        <time>2022-04-26T17:00:52Z</time>
        <name>WPT.382</name>
      </trkpt>
      <trkpt lat="35.906836950" lon="-106.257330130">
        <ele>2126.900</ele>
        <time>2022-04-26T17:01:06Z</time>
        <name>WPT.383</name>
      </trkpt>
      <trkpt lat="35.906845430" lon="-106.257278030">
        <ele>2127.900</ele>
        <time>2022-04-26T17:01:11Z</time>
        <name>WPT.384</name>
      </trkpt>
      <trkpt lat="35.906862990" lon="-106.257225870">
        <ele>2126.600</ele>
        <time>2022-04-26T17:01:16Z</time>
        <name>WPT.385</name>
      </trkpt>
      <trkpt lat="35.906876690" lon="-106.257176370">
        <ele>2126.200</ele>
        <time>2022-04-26T17:01:20Z</time>
        <name>WPT.386</name>
      </trkpt>
      <trkpt lat="35.906897150" lon="-106.257138580">
        <ele>2125.400</ele>
        <time>2022-04-26T17:01:24Z</time>
        <name>WPT.387</name>
      </trkpt>
      <trkpt lat="35.906860180" lon="-106.257132140">
        <ele>2124.100</ele>
        <time>2022-04-26T17:01:49Z</time>
        <name>WPT.388</name>
      </trkpt>
      <trkpt lat="35.906829810" lon="-106.257163420">
        <ele>2124.700</ele>
        <time>2022-04-26T17:01:58Z</time>
        <name>WPT.389</name>
      </trkpt>
      <trkpt lat="35.906805790" lon="-106.257196720">
        <ele>2124.200</ele>
        <time>2022-04-26T17:02:08Z</time>
        <name>WPT.390</name>
      </trkpt>
      <trkpt lat="35.906784100" lon="-106.257242970">
        <ele>2124.300</ele>
        <time>2022-04-26T17:02:14Z</time>
        <name>WPT.391</name>
      </trkpt>
      <trkpt lat="35.906769410" lon="-106.257291770">
        <ele>2124.000</ele>
        <time>2022-04-26T17:02:20Z</time>
        <name>WPT.392</name>
      </trkpt>
      <trkpt lat="35.906756480" lon="-106.257339180">
        <ele>2123.200</ele>
        <time>2022-04-26T17:02:41Z</time>
        <name>WPT.393</name>
      </trkpt>
      <trkpt lat="35.906744600" lon="-106.257387020">
        <ele>2123.100</ele>
        <time>2022-04-26T17:02:45Z</time>
        <name>WPT.394</name>
      </trkpt>
      <trkpt lat="35.906715660" lon="-106.257421560">
        <ele>2122.700</ele>
        <time>2022-04-26T17:02:50Z</time>
        <name>WPT.395</name>
      </trkpt>
      <trkpt lat="35.906681570" lon="-106.257457890">
        <ele>2121.800</ele>
        <time>2022-04-26T17:02:56Z</time>
        <name>WPT.396</name>
      </trkpt>
      <trkpt lat="35.906692870" lon="-106.257407510">
        <ele>2122.300</ele>
        <time>2022-04-26T17:03:08Z</time>
        <name>WPT.397</name>
      </trkpt>
      <trkpt lat="35.906715140" lon="-106.257371850">
        <ele>2122.100</ele>
        <time>2022-04-26T17:03:12Z</time>
        <name>WPT.398</name>
      </trkpt>
      <trkpt lat="35.906725400" lon="-106.257314860">
        <ele>2121.300</ele>
        <time>2022-04-26T17:03:17Z</time>
        <name>WPT.399</name>
      </trkpt>
      <trkpt lat="35.906721790" lon="-106.257268790">
        <ele>2119.800</ele>
        <time>2022-04-26T17:03:22Z</time>
        <name>WPT.400</name>
      </trkpt>
      <trkpt lat="35.906721600" lon="-106.257215130">
        <ele>2118.500</ele>
        <time>2022-04-26T17:03:29Z</time>
        <name>WPT.401</name>
      </trkpt>
      <trkpt lat="35.906711460" lon="-106.257171100">
        <ele>2117.000</ele>
        <time>2022-04-26T17:03:40Z</time>
        <name>WPT.402</name>
      </trkpt>
      <trkpt lat="35.906697190" lon="-106.257116100">
        <ele>2115.700</ele>
        <time>2022-04-26T17:03:44Z</time>
        <name>WPT.403</name>
      </trkpt>
      <trkpt lat="35.906674840" lon="-106.257075410">
        <ele>2116.600</ele>
        <time>2022-04-26T17:03:48Z</time>
        <name>WPT.404</name>
      </trkpt>
      <trkpt lat="35.906669210" lon="-106.257026980">
        <ele>2116.900</ele>
        <time>2022-04-26T17:03:53Z</time>
        <name>WPT.405</name>
      </trkpt>
      <trkpt lat="35.906692470" lon="-106.256988890">
        <ele>2116.700</ele>
        <time>2022-04-26T17:04:00Z</time>
        <name>WPT.406</name>
      </trkpt>
      <trkpt lat="35.906726650" lon="-106.256958470">
        <ele>2114.600</ele>
        <time>2022-04-26T17:04:05Z</time>
        <name>WPT.407</name>
      </trkpt>
      <trkpt lat="35.906766300" lon="-106.256937490">
        <ele>2114.400</ele>
        <time>2022-04-26T17:04:09Z</time>
        <name>WPT.408</name>
      </trkpt>
      <trkpt lat="35.906795600" lon="-106.256909590">
        <ele>2113.400</ele>
        <time>2022-04-26T17:04:13Z</time>
        <name>WPT.409</name>
      </trkpt>
      <trkpt lat="35.906829190" lon="-106.256879320">
        <ele>2113.000</ele>
        <time>2022-04-26T17:04:17Z</time>
        <name>WPT.410</name>
      </trkpt>
      <trkpt lat="35.906849890" lon="-106.256840380">
        <ele>2113.500</ele>
        <time>2022-04-26T17:04:22Z</time>
        <name>WPT.411</name>
      </trkpt>
      <trkpt lat="35.906893140" lon="-106.256845550">
        <ele>2113.800</ele>
        <time>2022-04-26T17:04:28Z</time>
        <name>WPT.412</name>
      </trkpt>
      <trkpt lat="35.906934100" lon="-106.256866140">
        <ele>2113.800</ele>
        <time>2022-04-26T17:04:32Z</time>
        <name>WPT.413</name>
      </trkpt>
      <trkpt lat="35.906971860" lon="-106.256893180">
        <ele>2114.800</ele>
        <time>2022-04-26T17:04:37Z</time>
        <name>WPT.414</name>
      </trkpt>
      <trkpt lat="35.907007230" lon="-106.256912700">
        <ele>2114.600</ele>
        <time>2022-04-26T17:04:41Z</time>
        <name>WPT.415</name>
      </trkpt>
      <trkpt lat="35.907046080" lon="-106.256934090">
        <ele>2114.400</ele>
        <time>2022-04-26T17:04:45Z</time>
        <name>WPT.416</name>
      </trkpt>
      <trkpt lat="35.907084620" lon="-106.256941780">
        <ele>2113.700</ele>
        <time>2022-04-26T17:04:49Z</time>
        <name>WPT.417</name>
      </trkpt>
      <trkpt lat="35.907067960" lon="-106.256897070">
        <ele>2111.200</ele>
        <time>2022-04-26T17:04:56Z</time>
        <name>WPT.418</name>
      </trkpt>
      <trkpt lat="35.907033160" lon="-106.256883020">
        <ele>2109.300</ele>
        <time>2022-04-26T17:05:00Z</time>
        <name>WPT.419</name>
      </trkpt>
      <trkpt lat="35.906998510" lon="-106.256868480">
        <ele>2108.800</ele>
        <time>2022-04-26T17:05:05Z</time>
        <name>WPT.420</name>
      </trkpt>
      <trkpt lat="35.906960090" lon="-106.256855580">
        <ele>2107.100</ele>
        <time>2022-04-26T17:05:10Z</time>
        <name>WPT.421</name>
      </trkpt>
      <trkpt lat="35.906929810" lon="-106.256830780">
        <ele>2106.500</ele>
        <time>2022-04-26T17:05:14Z</time>
        <name>WPT.422</name>
      </trkpt>
      <trkpt lat="35.906901750" lon="-106.256793050">
        <ele>2106.100</ele>
        <time>2022-04-26T17:05:19Z</time>
        <name>WPT.423</name>
      </trkpt>
      <trkpt lat="35.906876980" lon="-106.256749570">
        <ele>2106.900</ele>
        <time>2022-04-26T17:05:23Z</time>
        <name>WPT.424</name>
      </trkpt>
      <trkpt lat="35.906863510" lon="-106.256701750">
        <ele>2109.000</ele>
        <time>2022-04-26T17:05:26Z</time>
        <name>WPT.425</name>
      </trkpt>
      <trkpt lat="35.906847410" lon="-106.256651330">
        <ele>2109.200</ele>
        <time>2022-04-26T17:05:38Z</time>
        <name>WPT.426</name>
      </trkpt>
      <trkpt lat="35.906819810" lon="-106.256615330">
        <ele>2109.000</ele>
        <time>2022-04-26T17:05:42Z</time>
        <name>WPT.427</name>
      </trkpt>
      <trkpt lat="35.906788980" lon="-106.256585000">
        <ele>2108.900</ele>
        <time>2022-04-26T17:05:46Z</time>
        <name>WPT.428</name>
      </trkpt>
      <trkpt lat="35.906765350" lon="-106.256539750">
        <ele>2110.100</ele>
        <time>2022-04-26T17:05:51Z</time>
        <name>WPT.429</name>
      </trkpt>
      <trkpt lat="35.906752490" lon="-106.256491880">
        <ele>2110.000</ele>
        <time>2022-04-26T17:05:55Z</time>
        <name>WPT.430</name>
      </trkpt>
      <trkpt lat="35.906736050" lon="-106.256446910">
        <ele>2109.700</ele>
        <time>2022-04-26T17:06:00Z</time>
        <name>WPT.431</name>
      </trkpt>
      <trkpt lat="35.906716510" lon="-106.256407040">
        <ele>2109.000</ele>
        <time>2022-04-26T17:06:04Z</time>
        <name>WPT.432</name>
      </trkpt>
      <trkpt lat="35.906702720" lon="-106.256362130">
        <ele>2108.800</ele>
        <time>2022-04-26T17:06:08Z</time>
        <name>WPT.433</name>
      </trkpt>
      <trkpt lat="35.906693330" lon="-106.256315180">
        <ele>2108.400</ele>
        <time>2022-04-26T17:06:12Z</time>
        <name>WPT.434</name>
      </trkpt>
      <trkpt lat="35.906685410" lon="-106.256258840">
        <ele>2108.100</ele>
        <time>2022-04-26T17:06:16Z</time>
        <name>WPT.435</name>
      </trkpt>
      <trkpt lat="35.906682990" lon="-106.256201020">
        <ele>2107.800</ele>
        <time>2022-04-26T17:06:20Z</time>
        <name>WPT.436</name>
      </trkpt>
      <trkpt lat="35.906685360" lon="-106.256148820">
        <ele>2106.500</ele>
        <time>2022-04-26T17:06:25Z</time>
        <name>WPT.437</name>
      </trkpt>
      <trkpt lat="35.906691110" lon="-106.256104860">
        <ele>2107.300</ele>
        <time>2022-04-26T17:06:29Z</time>
        <name>WPT.438</name>
      </trkpt>
      <trkpt lat="35.906687860" lon="-106.256060110">
        <ele>2108.200</ele>
        <time>2022-04-26T17:06:34Z</time>
        <name>WPT.439</name>
      </trkpt>
      <trkpt lat="35.906676120" lon="-106.256014740">
        <ele>2107.000</ele>
        <time>2022-04-26T17:06:38Z</time>
        <name>WPT.440</name>
      </trkpt>
      <trkpt lat="35.906665610" lon="-106.255970560">
        <ele>2106.300</ele>
        <time>2022-04-26T17:06:41Z</time>
        <name>WPT.441</name>
      </trkpt>
      <trkpt lat="35.906658440" lon="-106.255926130">
        <ele>2105.700</ele>
        <time>2022-04-26T17:06:44Z</time>
        <name>WPT.442</name>
      </trkpt>
      <trkpt lat="35.906652070" lon="-106.255870610">
        <ele>2106.900</ele>
        <time>2022-04-26T17:06:48Z</time>
        <name>WPT.443</name>
      </trkpt>
      <trkpt lat="35.906636610" lon="-106.255824770">
        <ele>2107.800</ele>
        <time>2022-04-26T17:06:52Z</time>
        <name>WPT.444</name>
      </trkpt>
      <trkpt lat="35.906637190" lon="-106.255767930">
        <ele>2106.300</ele>
        <time>2022-04-26T17:06:56Z</time>
        <name>WPT.445</name>
      </trkpt>
      <trkpt lat="35.906647850" lon="-106.255720530">
        <ele>2106.300</ele>
        <time>2022-04-26T17:06:59Z</time>
        <name>WPT.446</name>
      </trkpt>
      <trkpt lat="35.906659680" lon="-106.255667800">
        <ele>2105.400</ele>
        <time>2022-04-26T17:07:03Z</time>
        <name>WPT.447</name>
      </trkpt>
      <trkpt lat="35.906684220" lon="-106.255618790">
        <ele>2105.400</ele>
        <time>2022-04-26T17:07:07Z</time>
        <name>WPT.448</name>
      </trkpt>
      <trkpt lat="35.906700530" lon="-106.255569140">
        <ele>2105.000</ele>
        <time>2022-04-26T17:07:11Z</time>
        <name>WPT.449</name>
      </trkpt>
      <trkpt lat="35.906709160" lon="-106.255521320">
        <ele>2105.800</ele>
        <time>2022-04-26T17:07:16Z</time>
        <name>WPT.450</name>
      </trkpt>
      <trkpt lat="35.906725530" lon="-106.255477430">
        <ele>2104.800</ele>
        <time>2022-04-26T17:08:11Z</time>
        <name>WPT.451</name>
      </trkpt>
      <trkpt lat="35.906742880" lon="-106.255431810">
        <ele>2102.600</ele>
        <time>2022-04-26T17:08:19Z</time>
        <name>WPT.452</name>
      </trkpt>
      <trkpt lat="35.906778640" lon="-106.255420500">
        <ele>2102.600</ele>
        <time>2022-04-26T17:08:24Z</time>
        <name>WPT.453</name>
      </trkpt>
      <trkpt lat="35.906821340" lon="-106.255416340">
        <ele>2103.900</ele>
        <time>2022-04-26T17:08:28Z</time>
        <name>WPT.454</name>
      </trkpt>
      <trkpt lat="35.906863270" lon="-106.255425700">
        <ele>2104.600</ele>
        <time>2022-04-26T17:08:33Z</time>
        <name>WPT.455</name>
      </trkpt>
      <trkpt lat="35.906904520" lon="-106.255434790">
        <ele>2105.200</ele>
        <time>2022-04-26T17:08:39Z</time>
        <name>WPT.456</name>
      </trkpt>
      <trkpt lat="35.906942790" lon="-106.255418150">
        <ele>2106.300</ele>
        <time>2022-04-26T17:08:55Z</time>
        <name>WPT.457</name>
      </trkpt>
      <trkpt lat="35.906899040" lon="-106.255424760">
        <ele>2105.200</ele>
        <time>2022-04-26T17:09:18Z</time>
        <name>WPT.458</name>
      </trkpt>
      <trkpt lat="35.906860040" lon="-106.255402560">
        <ele>2106.100</ele>
        <time>2022-04-26T17:09:22Z</time>
        <name>WPT.459</name>
      </trkpt>
      <trkpt lat="35.906818720" lon="-106.255401760">
        <ele>2105.000</ele>
        <time>2022-04-26T17:09:27Z</time>
        <name>WPT.460</name>
      </trkpt>
      <trkpt lat="35.906824650" lon="-106.255356500">
        <ele>2104.700</ele>
        <time>2022-04-26T17:09:38Z</time>
        <name>WPT.461</name>
      </trkpt>
      <trkpt lat="35.906855390" lon="-106.255316680">
        <ele>2106.200</ele>
        <time>2022-04-26T17:09:45Z</time>
        <name>WPT.462</name>
      </trkpt>
      <trkpt lat="35.906881030" lon="-106.255271160">
        <ele>2105.800</ele>
        <time>2022-04-26T17:09:50Z</time>
        <name>WPT.463</name>
      </trkpt>
      <trkpt lat="35.906901900" lon="-106.255234980">
        <ele>2106.000</ele>
        <time>2022-04-26T17:09:54Z</time>
        <name>WPT.464</name>
      </trkpt>
      <trkpt lat="35.906918370" lon="-106.255191120">
        <ele>2106.500</ele>
        <time>2022-04-26T17:09:58Z</time>
        <name>WPT.465</name>
      </trkpt>
      <trkpt lat="35.906934440" lon="-106.255149180">
        <ele>2108.300</ele>
        <time>2022-04-26T17:10:02Z</time>
        <name>WPT.466</name>
      </trkpt>
      <trkpt lat="35.906958100" lon="-106.255105230">
        <ele>2108.500</ele>
        <time>2022-04-26T17:10:07Z</time>
        <name>WPT.467</name>
      </trkpt>
      <trkpt lat="35.906971910" lon="-106.255061110">
        <ele>2109.100</ele>
        <time>2022-04-26T17:10:11Z</time>
        <name>WPT.468</name>
      </trkpt>
      <trkpt lat="35.906990260" lon="-106.255019170">
        <ele>2109.900</ele>
        <time>2022-04-26T17:10:15Z</time>
        <name>WPT.469</name>
      </trkpt>
      <trkpt lat="35.907006110" lon="-106.254975050">
        <ele>2111.800</ele>
        <time>2022-04-26T17:10:24Z</time>
        <name>WPT.470</name>
      </trkpt>
      <trkpt lat="35.907038790" lon="-106.254948050">
        <ele>2114.800</ele>
        <time>2022-04-26T17:10:31Z</time>
        <name>WPT.471</name>
      </trkpt>
      <trkpt lat="35.907056120" lon="-106.254903180">
        <ele>2114.700</ele>
        <time>2022-04-26T17:10:36Z</time>
        <name>WPT.472</name>
      </trkpt>
      <trkpt lat="35.907066520" lon="-106.254855890">
        <ele>2116.000</ele>
        <time>2022-04-26T17:10:40Z</time>
        <name>WPT.473</name>
      </trkpt>
      <trkpt lat="35.907075190" lon="-106.254802020">
        <ele>2117.500</ele>
        <time>2022-04-26T17:10:45Z</time>
        <name>WPT.474</name>
      </trkpt>
      <trkpt lat="35.907104530" lon="-106.254759460">
        <ele>2117.800</ele>
        <time>2022-04-26T17:10:49Z</time>
        <name>WPT.475</name>
      </trkpt>
      <trkpt lat="35.907135940" lon="-106.254724960">
        <ele>2119.400</ele>
        <time>2022-04-26T17:10:53Z</time>
        <name>WPT.476</name>
      </trkpt>
      <trkpt lat="35.907173340" lon="-106.254706530">
        <ele>2120.200</ele>
        <time>2022-04-26T17:10:57Z</time>
        <name>WPT.477</name>
      </trkpt>
      <trkpt lat="35.907177470" lon="-106.254654120">
        <ele>2120.000</ele>
        <time>2022-04-26T17:11:27Z</time>
        <name>WPT.478</name>
      </trkpt>
      <trkpt lat="35.907191920" lon="-106.254602660">
        <ele>2121.100</ele>
        <time>2022-04-26T17:11:32Z</time>
        <name>WPT.479</name>
      </trkpt>
      <trkpt lat="35.907171590" lon="-106.254557650">
        <ele>2121.100</ele>
        <time>2022-04-26T17:11:37Z</time>
        <name>WPT.480</name>
      </trkpt>
      <trkpt lat="35.907189720" lon="-106.254508360">
        <ele>2120.900</ele>
        <time>2022-04-26T17:11:42Z</time>
        <name>WPT.481</name>
      </trkpt>
      <trkpt lat="35.907193300" lon="-106.254463780">
        <ele>2121.500</ele>
        <time>2022-04-26T17:11:46Z</time>
        <name>WPT.482</name>
      </trkpt>
      <trkpt lat="35.907199280" lon="-106.254411630">
        <ele>2122.100</ele>
        <time>2022-04-26T17:11:51Z</time>
        <name>WPT.483</name>
      </trkpt>
      <trkpt lat="35.907203480" lon="-106.254361750">
        <ele>2122.500</ele>
        <time>2022-04-26T17:11:55Z</time>
        <name>WPT.484</name>
      </trkpt>
      <trkpt lat="35.907212800" lon="-106.254315540">
        <ele>2122.500</ele>
        <time>2022-04-26T17:12:02Z</time>
        <name>WPT.485</name>
      </trkpt>
      <trkpt lat="35.907200750" lon="-106.254270790">
        <ele>2123.100</ele>
        <time>2022-04-26T17:12:18Z</time>
        <name>WPT.486</name>
      </trkpt>
      <trkpt lat="35.907184740" lon="-106.254224690">
        <ele>2123.600</ele>
        <time>2022-04-26T17:12:26Z</time>
        <name>WPT.487</name>
      </trkpt>
      <trkpt lat="35.907160330" lon="-106.254183760">
        <ele>2123.400</ele>
        <time>2022-04-26T17:12:34Z</time>
        <name>WPT.488</name>
      </trkpt>
      <trkpt lat="35.907156630" lon="-106.254134710">
        <ele>2123.900</ele>
        <time>2022-04-26T17:12:40Z</time>
        <name>WPT.489</name>
      </trkpt>
      <trkpt lat="35.907138980" lon="-106.254093990">
        <ele>2123.300</ele>
        <time>2022-04-26T17:12:51Z</time>
        <name>WPT.490</name>
      </trkpt>
      <trkpt lat="35.907105600" lon="-106.254064630">
        <ele>2121.800</ele>
        <time>2022-04-26T17:12:59Z</time>
        <name>WPT.491</name>
      </trkpt>
      <trkpt lat="35.907088230" lon="-106.254024570">
        <ele>2121.400</ele>
        <time>2022-04-26T17:13:08Z</time>
        <name>WPT.492</name>
      </trkpt>
      <trkpt lat="35.907078810" lon="-106.253979450">
        <ele>2121.200</ele>
        <time>2022-04-26T17:13:40Z</time>
        <name>WPT.493</name>
      </trkpt>
      <trkpt lat="35.907086260" lon="-106.253935960">
        <ele>2120.600</ele>
        <time>2022-04-26T17:13:54Z</time>
        <name>WPT.494</name>
      </trkpt>
      <trkpt lat="35.907091940" lon="-106.253982980">
        <ele>2119.200</ele>
        <time>2022-04-26T17:15:05Z</time>
        <name>WPT.495</name>
      </trkpt>
      <trkpt lat="35.907093260" lon="-106.254032550">
        <ele>2118.600</ele>
        <time>2022-04-26T17:15:11Z</time>
        <name>WPT.496</name>
      </trkpt>
      <trkpt lat="35.907107790" lon="-106.254075020">
        <ele>2118.700</ele>
        <time>2022-04-26T17:15:18Z</time>
        <name>WPT.497</name>
      </trkpt>
      <trkpt lat="35.907136950" lon="-106.254104170">
        <ele>2119.700</ele>
        <time>2022-04-26T17:15:29Z</time>
        <name>WPT.498</name>
      </trkpt>
      <trkpt lat="35.907144290" lon="-106.254148590">
        <ele>2121.900</ele>
        <time>2022-04-26T17:17:06Z</time>
        <name>WPT.499</name>
      </trkpt>
      <trkpt lat="35.907179410" lon="-106.254178210">
        <ele>2122.400</ele>
        <time>2022-04-26T17:17:12Z</time>
        <name>WPT.500</name>
      </trkpt>
      <trkpt lat="35.907192420" lon="-106.254134250">
        <ele>2122.400</ele>
        <time>2022-04-26T17:17:33Z</time>
        <name>WPT.501</name>
      </trkpt>
      <trkpt lat="35.907187540" lon="-106.254087060">
        <ele>2123.600</ele>
        <time>2022-04-26T17:19:08Z</time>
        <name>WPT.502</name>
      </trkpt>
      <trkpt lat="35.907170950" lon="-106.254038740">
        <ele>2123.600</ele>
        <time>2022-04-26T17:19:14Z</time>
        <name>WPT.503</name>
      </trkpt>
      <trkpt lat="35.907146700" lon="-106.253996960">
        <ele>2124.500</ele>
        <time>2022-04-26T17:19:26Z</time>
        <name>WPT.504</name>
      </trkpt>
      <trkpt lat="35.907171960" lon="-106.253961430">
        <ele>2124.100</ele>
        <time>2022-04-26T17:19:43Z</time>
        <name>WPT.505</name>
      </trkpt>
      <trkpt lat="35.907172490" lon="-106.253915460">
        <ele>2125.900</ele>
        <time>2022-04-26T17:19:50Z</time>
        <name>WPT.506</name>
      </trkpt>
      <trkpt lat="35.907191860" lon="-106.253876910">
        <ele>2127.000</ele>
        <time>2022-04-26T17:20:06Z</time>
        <name>WPT.507</name>
      </trkpt>
      <trkpt lat="35.907208390" lon="-106.253828800">
        <ele>2127.100</ele>
        <time>2022-04-26T17:20:16Z</time>
        <name>WPT.508</name>
      </trkpt>
      <trkpt lat="35.907203930" lon="-106.253784160">
        <ele>2127.800</ele>
        <time>2022-04-26T17:20:21Z</time>
        <name>WPT.509</name>
      </trkpt>
      <trkpt lat="35.907187770" lon="-106.253737640">
        <ele>2128.200</ele>
        <time>2022-04-26T17:20:28Z</time>
        <name>WPT.510</name>
      </trkpt>
      <trkpt lat="35.907194310" lon="-106.253694020">
        <ele>2126.600</ele>
        <time>2022-04-26T17:20:35Z</time>
        <name>WPT.511</name>
      </trkpt>
      <trkpt lat="35.907189410" lon="-106.253646560">
        <ele>2127.200</ele>
        <time>2022-04-26T17:20:40Z</time>
        <name>WPT.512</name>
      </trkpt>
      <trkpt lat="35.907198410" lon="-106.253596540">
        <ele>2127.300</ele>
        <time>2022-04-26T17:20:48Z</time>
        <name>WPT.513</name>
      </trkpt>
      <trkpt lat="35.907198020" lon="-106.253551640">
        <ele>2127.800</ele>
        <time>2022-04-26T17:21:03Z</time>
        <name>WPT.514</name>
      </trkpt>
      <trkpt lat="35.907206490" lon="-106.253505580">
        <ele>2129.500</ele>
        <time>2022-04-26T17:21:21Z</time>
        <name>WPT.515</name>
      </trkpt>
      <trkpt lat="35.907195960" lon="-106.253452070">
        <ele>2128.900</ele>
        <time>2022-04-26T17:21:39Z</time>
        <name>WPT.516</name>
      </trkpt>
      <trkpt lat="35.907198650" lon="-106.253405250">
        <ele>2130.400</ele>
        <time>2022-04-26T17:21:57Z</time>
        <name>WPT.517</name>
      </trkpt>
      <trkpt lat="35.907196090" lon="-106.253359190">
        <ele>2129.400</ele>
        <time>2022-04-26T17:22:08Z</time>
        <name>WPT.518</name>
      </trkpt>
      <trkpt lat="35.907209310" lon="-106.253308530">
        <ele>2127.400</ele>
        <time>2022-04-26T17:22:16Z</time>
        <name>WPT.519</name>
      </trkpt>
      <trkpt lat="35.907211270" lon="-106.253260460">
        <ele>2126.000</ele>
        <time>2022-04-26T17:22:22Z</time>
        <name>WPT.520</name>
      </trkpt>
      <trkpt lat="35.907194120" lon="-106.253220280">
        <ele>2125.600</ele>
        <time>2022-04-26T17:22:28Z</time>
        <name>WPT.521</name>
      </trkpt>
      <trkpt lat="35.907220710" lon="-106.253189310">
        <ele>2125.600</ele>
        <time>2022-04-26T17:22:38Z</time>
        <name>WPT.522</name>
      </trkpt>
      <trkpt lat="35.907208760" lon="-106.253239840">
        <ele>2124.400</ele>
        <time>2022-04-26T17:23:38Z</time>
        <name>WPT.523</name>
      </trkpt>
      <trkpt lat="35.907198820" lon="-106.253288310">
        <ele>2124.800</ele>
        <time>2022-04-26T17:23:46Z</time>
        <name>WPT.524</name>
      </trkpt>
      <trkpt lat="35.907206660" lon="-106.253332010">
        <ele>2125.200</ele>
        <time>2022-04-26T17:23:53Z</time>
        <name>WPT.525</name>
      </trkpt>
      <trkpt lat="35.907198240" lon="-106.253375220">
        <ele>2126.700</ele>
        <time>2022-04-26T17:24:21Z</time>
        <name>WPT.526</name>
      </trkpt>
      <trkpt lat="35.907194340" lon="-106.253426030">
        <ele>2128.300</ele>
        <time>2022-04-26T17:31:28Z</time>
        <name>WPT.527</name>
      </trkpt>
      <trkpt lat="35.907205560" lon="-106.253468160">
        <ele>2128.700</ele>
        <time>2022-04-26T17:50:40Z</time>
        <name>WPT.528</name>
      </trkpt>
      <trkpt lat="35.907206300" lon="-106.253520440">
        <ele>2128.100</ele>
        <time>2022-04-26T17:50:52Z</time>
        <name>WPT.529</name>
      </trkpt>
      <trkpt lat="35.907197390" lon="-106.253570200">
        <ele>2126.900</ele>
        <time>2022-04-26T17:50:58Z</time>
        <name>WPT.530</name>
      </trkpt>
      <trkpt lat="35.907178640" lon="-106.253610820">
        <ele>2128.600</ele>
        <time>2022-04-26T17:51:03Z</time>
        <name>WPT.531</name>
      </trkpt>
      <trkpt lat="35.907195170" lon="-106.253661810">
        <ele>2127.200</ele>
        <time>2022-04-26T17:51:09Z</time>
        <name>WPT.532</name>
      </trkpt>
      <trkpt lat="35.907193890" lon="-106.253709150">
        <ele>2126.500</ele>
        <time>2022-04-26T17:51:15Z</time>
        <name>WPT.533</name>
      </trkpt>
      <trkpt lat="35.907209140" lon="-106.253753790">
        <ele>2126.500</ele>
        <time>2022-04-26T17:51:24Z</time>
        <name>WPT.534</name>
      </trkpt>
      <trkpt lat="35.907203730" lon="-106.253798470">
        <ele>2126.200</ele>
        <time>2022-04-26T17:51:28Z</time>
        <name>WPT.535</name>
      </trkpt>
      <trkpt lat="35.907193170" lon="-106.253842070">
        <ele>2125.100</ele>
        <time>2022-04-26T17:51:33Z</time>
        <name>WPT.536</name>
      </trkpt>
      <trkpt lat="35.907184150" lon="-106.253887380">
        <ele>2126.100</ele>
        <time>2022-04-26T17:51:38Z</time>
        <name>WPT.537</name>
      </trkpt>
      <trkpt lat="35.907183610" lon="-106.253936750">
        <ele>2125.600</ele>
        <time>2022-04-26T17:51:45Z</time>
        <name>WPT.538</name>
      </trkpt>
      <trkpt lat="35.907165660" lon="-106.253978550">
        <ele>2125.400</ele>
        <time>2022-04-26T17:51:52Z</time>
        <name>WPT.539</name>
      </trkpt>
      <trkpt lat="35.907168820" lon="-106.254023210">
        <ele>2125.600</ele>
        <time>2022-04-26T17:52:10Z</time>
        <name>WPT.540</name>
      </trkpt>
      <trkpt lat="35.907180820" lon="-106.254066100">
        <ele>2125.900</ele>
        <time>2022-04-26T17:52:18Z</time>
        <name>WPT.541</name>
      </trkpt>
      <trkpt lat="35.907188630" lon="-106.254110140">
        <ele>2125.000</ele>
        <time>2022-04-26T17:53:02Z</time>
        <name>WPT.542</name>
      </trkpt>
      <trkpt lat="35.907193050" lon="-106.254155820">
        <ele>2122.800</ele>
        <time>2022-04-26T17:53:32Z</time>
        <name>WPT.543</name>
      </trkpt>
      <trkpt lat="35.907186830" lon="-106.254203520">
        <ele>2123.400</ele>
        <time>2022-04-26T17:53:39Z</time>
        <name>WPT.544</name>
      </trkpt>
      <trkpt lat="35.907197890" lon="-106.254251040">
        <ele>2122.700</ele>
        <time>2022-04-26T17:53:43Z</time>
        <name>WPT.545</name>
      </trkpt>
      <trkpt lat="35.907209600" lon="-106.254303180">
        <ele>2122.300</ele>
        <time>2022-04-26T17:54:01Z</time>
        <name>WPT.546</name>
      </trkpt>
      <trkpt lat="35.907199320" lon="-106.254352810">
        <ele>2122.600</ele>
        <time>2022-04-26T17:54:05Z</time>
        <name>WPT.547</name>
      </trkpt>
      <trkpt lat="35.907195440" lon="-106.254405580">
        <ele>2122.200</ele>
        <time>2022-04-26T17:54:10Z</time>
        <name>WPT.548</name>
      </trkpt>
      <trkpt lat="35.907191790" lon="-106.254451760">
        <ele>2121.700</ele>
        <time>2022-04-26T17:54:14Z</time>
        <name>WPT.549</name>
      </trkpt>
      <trkpt lat="35.907178680" lon="-106.254493340">
        <ele>2122.200</ele>
        <time>2022-04-26T17:54:18Z</time>
        <name>WPT.550</name>
      </trkpt>
      <trkpt lat="35.907159400" lon="-106.254538730">
        <ele>2122.400</ele>
        <time>2022-04-26T17:54:23Z</time>
        <name>WPT.551</name>
      </trkpt>
      <trkpt lat="35.907174210" lon="-106.254589340">
        <ele>2122.100</ele>
        <time>2022-04-26T17:54:29Z</time>
        <name>WPT.552</name>
      </trkpt>
      <trkpt lat="35.907173170" lon="-106.254638210">
        <ele>2122.400</ele>
        <time>2022-04-26T17:54:34Z</time>
        <name>WPT.553</name>
      </trkpt>
      <trkpt lat="35.907162850" lon="-106.254684200">
        <ele>2121.700</ele>
        <time>2022-04-26T17:54:39Z</time>
        <name>WPT.554</name>
      </trkpt>
      <trkpt lat="35.907143600" lon="-106.254727570">
        <ele>2120.800</ele>
        <time>2022-04-26T17:54:44Z</time>
        <name>WPT.555</name>
      </trkpt>
      <trkpt lat="35.907120090" lon="-106.254761200">
        <ele>2120.700</ele>
        <time>2022-04-26T17:54:49Z</time>
        <name>WPT.556</name>
      </trkpt>
      <trkpt lat="35.907102130" lon="-106.254802650">
        <ele>2120.200</ele>
        <time>2022-04-26T17:54:54Z</time>
        <name>WPT.557</name>
      </trkpt>
      <trkpt lat="35.907082640" lon="-106.254847680">
        <ele>2119.500</ele>
        <time>2022-04-26T17:54:59Z</time>
        <name>WPT.558</name>
      </trkpt>
      <trkpt lat="35.907067170" lon="-106.254889580">
        <ele>2118.700</ele>
        <time>2022-04-26T17:55:04Z</time>
        <name>WPT.559</name>
      </trkpt>
      <trkpt lat="35.907053760" lon="-106.254934920">
        <ele>2118.500</ele>
        <time>2022-04-26T17:55:10Z</time>
        <name>WPT.560</name>
      </trkpt>
      <trkpt lat="35.907034400" lon="-106.254981570">
        <ele>2114.800</ele>
        <time>2022-04-26T17:55:29Z</time>
        <name>WPT.561</name>
      </trkpt>
      <trkpt lat="35.907015530" lon="-106.255021680">
        <ele>2113.600</ele>
        <time>2022-04-26T17:55:33Z</time>
        <name>WPT.562</name>
      </trkpt>
      <trkpt lat="35.907003230" lon="-106.255064590">
        <ele>2112.600</ele>
        <time>2022-04-26T17:55:38Z</time>
        <name>WPT.563</name>
      </trkpt>
      <trkpt lat="35.906981760" lon="-106.255107790">
        <ele>2111.700</ele>
        <time>2022-04-26T17:55:42Z</time>
        <name>WPT.564</name>
      </trkpt>
      <trkpt lat="35.906953050" lon="-106.255150660">
        <ele>2111.400</ele>
        <time>2022-04-26T17:55:46Z</time>
        <name>WPT.565</name>
      </trkpt>
      <trkpt lat="35.906932140" lon="-106.255195230">
        <ele>2111.600</ele>
        <time>2022-04-26T17:55:51Z</time>
        <name>WPT.566</name>
      </trkpt>
      <trkpt lat="35.906913210" lon="-106.255233320">
        <ele>2111.900</ele>
        <time>2022-04-26T17:55:57Z</time>
        <name>WPT.567</name>
      </trkpt>
      <trkpt lat="35.906888340" lon="-106.255278210">
        <ele>2111.600</ele>
        <time>2022-04-26T17:56:08Z</time>
        <name>WPT.568</name>
      </trkpt>
      <trkpt lat="35.906870010" lon="-106.255318590">
        <ele>2111.500</ele>
        <time>2022-04-26T17:56:14Z</time>
        <name>WPT.569</name>
      </trkpt>
      <trkpt lat="35.906843210" lon="-106.255353740">
        <ele>2111.200</ele>
        <time>2022-04-26T17:56:20Z</time>
        <name>WPT.570</name>
      </trkpt>
      <trkpt lat="35.906813160" lon="-106.255378490">
        <ele>2110.500</ele>
        <time>2022-04-26T17:56:25Z</time>
        <name>WPT.571</name>
      </trkpt>
      <trkpt lat="35.906776140" lon="-106.255402940">
        <ele>2110.400</ele>
        <time>2022-04-26T17:56:30Z</time>
        <name>WPT.572</name>
      </trkpt>
      <trkpt lat="35.906741450" lon="-106.255432720">
        <ele>2109.400</ele>
        <time>2022-04-26T17:56:36Z</time>
        <name>WPT.573</name>
      </trkpt>
      <trkpt lat="35.906719960" lon="-106.255478410">
        <ele>2107.700</ele>
        <time>2022-04-26T17:56:41Z</time>
        <name>WPT.574</name>
      </trkpt>
      <trkpt lat="35.906707790" lon="-106.255520480">
        <ele>2108.400</ele>
        <time>2022-04-26T17:56:48Z</time>
        <name>WPT.575</name>
      </trkpt>
      <trkpt lat="35.906683110" lon="-106.255566780">
        <ele>2108.400</ele>
        <time>2022-04-26T17:56:52Z</time>
        <name>WPT.576</name>
      </trkpt>
      <trkpt lat="35.906655400" lon="-106.255613050">
        <ele>2108.200</ele>
        <time>2022-04-26T17:56:56Z</time>
        <name>WPT.577</name>
      </trkpt>
      <trkpt lat="35.906641290" lon="-106.255655150">
        <ele>2106.600</ele>
        <time>2022-04-26T17:56:59Z</time>
        <name>WPT.578</name>
      </trkpt>
      <trkpt lat="35.906625190" lon="-106.255698530">
        <ele>2105.700</ele>
        <time>2022-04-26T17:57:02Z</time>
        <name>WPT.579</name>
      </trkpt>
      <trkpt lat="35.906612990" lon="-106.255740990">
        <ele>2106.000</ele>
        <time>2022-04-26T17:57:05Z</time>
        <name>WPT.580</name>
      </trkpt>
      <trkpt lat="35.906605510" lon="-106.255797720">
        <ele>2105.800</ele>
        <time>2022-04-26T17:57:09Z</time>
        <name>WPT.581</name>
      </trkpt>
      <trkpt lat="35.906606290" lon="-106.255847730">
        <ele>2105.800</ele>
        <time>2022-04-26T17:57:13Z</time>
        <name>WPT.582</name>
      </trkpt>
      <trkpt lat="35.906604080" lon="-106.255893010">
        <ele>2106.600</ele>
        <time>2022-04-26T17:57:17Z</time>
        <name>WPT.583</name>
      </trkpt>
      <trkpt lat="35.906607860" lon="-106.255948350">
        <ele>2107.600</ele>
        <time>2022-04-26T17:57:22Z</time>
        <name>WPT.584</name>
      </trkpt>
      <trkpt lat="35.906625090" lon="-106.255998550">
        <ele>2107.700</ele>
        <time>2022-04-26T17:57:26Z</time>
        <name>WPT.585</name>
      </trkpt>
      <trkpt lat="35.906634660" lon="-106.256044750">
        <ele>2108.300</ele>
        <time>2022-04-26T17:57:30Z</time>
        <name>WPT.586</name>
      </trkpt>
      <trkpt lat="35.906632350" lon="-106.256092350">
        <ele>2109.700</ele>
        <time>2022-04-26T17:57:34Z</time>
        <name>WPT.587</name>
      </trkpt>
      <trkpt lat="35.906628730" lon="-106.256140410">
        <ele>2108.700</ele>
        <time>2022-04-26T17:57:39Z</time>
        <name>WPT.588</name>
      </trkpt>
      <trkpt lat="35.906625100" lon="-106.256196280">
        <ele>2109.100</ele>
        <time>2022-04-26T17:57:44Z</time>
        <name>WPT.589</name>
      </trkpt>
      <trkpt lat="35.906631210" lon="-106.256246120">
        <ele>2108.800</ele>
        <time>2022-04-26T17:57:49Z</time>
        <name>WPT.590</name>
      </trkpt>
      <trkpt lat="35.906634450" lon="-106.256297990">
        <ele>2109.400</ele>
        <time>2022-04-26T17:57:54Z</time>
        <name>WPT.591</name>
      </trkpt>
      <trkpt lat="35.906638990" lon="-106.256348960">
        <ele>2111.800</ele>
        <time>2022-04-26T17:58:00Z</time>
        <name>WPT.592</name>
      </trkpt>
      <trkpt lat="35.906643810" lon="-106.256398730">
        <ele>2114.100</ele>
        <time>2022-04-26T17:58:06Z</time>
        <name>WPT.593</name>
      </trkpt>
      <trkpt lat="35.906659500" lon="-106.256448850">
        <ele>2114.800</ele>
        <time>2022-04-26T17:58:14Z</time>
        <name>WPT.594</name>
      </trkpt>
      <trkpt lat="35.906686430" lon="-106.256481180">
        <ele>2115.700</ele>
        <time>2022-04-26T17:58:19Z</time>
        <name>WPT.595</name>
      </trkpt>
      <trkpt lat="35.906727570" lon="-106.256456940">
        <ele>2113.500</ele>
        <time>2022-04-26T17:58:22Z</time>
        <name>WPT.596</name>
      </trkpt>
      <trkpt lat="35.906753380" lon="-106.256422740">
        <ele>2112.000</ele>
        <time>2022-04-26T17:58:26Z</time>
        <name>WPT.597</name>
      </trkpt>
      <trkpt lat="35.906763540" lon="-106.256473810">
        <ele>2111.200</ele>
        <time>2022-04-26T17:59:26Z</time>
        <name>WPT.598</name>
      </trkpt>
      <trkpt lat="35.906759670" lon="-106.256519430">
        <ele>2112.000</ele>
        <time>2022-04-26T17:59:57Z</time>
        <name>WPT.599</name>
      </trkpt>
      <trkpt lat="35.906755090" lon="-106.256565040">
        <ele>2113.000</ele>
        <time>2022-04-26T18:00:09Z</time>
        <name>WPT.600</name>
      </trkpt>
      <trkpt lat="35.906780390" lon="-106.256597140">
        <ele>2113.100</ele>
        <time>2022-04-26T18:00:14Z</time>
        <name>WPT.601</name>
      </trkpt>
      <trkpt lat="35.906812460" lon="-106.256627050">
        <ele>2111.900</ele>
        <time>2022-04-26T18:00:52Z</time>
        <name>WPT.602</name>
      </trkpt>
      <trkpt lat="35.906831960" lon="-106.256668280">
        <ele>2112.200</ele>
        <time>2022-04-26T18:00:59Z</time>
        <name>WPT.603</name>
      </trkpt>
      <trkpt lat="35.906854390" lon="-106.256712350">
        <ele>2112.100</ele>
        <time>2022-04-26T18:01:55Z</time>
        <name>WPT.604</name>
      </trkpt>
      <trkpt lat="35.906879500" lon="-106.256751090">
        <ele>2112.700</ele>
        <time>2022-04-26T18:02:14Z</time>
        <name>WPT.605</name>
      </trkpt>
      <trkpt lat="35.906895820" lon="-106.256792890">
        <ele>2114.100</ele>
        <time>2022-04-26T18:02:17Z</time>
        <name>WPT.606</name>
      </trkpt>
      <trkpt lat="35.906905030" lon="-106.256836740">
        <ele>2114.100</ele>
        <time>2022-04-26T18:02:21Z</time>
        <name>WPT.607</name>
      </trkpt>
      <trkpt lat="35.906933860" lon="-106.256880670">
        <ele>2114.200</ele>
        <time>2022-04-26T18:02:26Z</time>
        <name>WPT.608</name>
      </trkpt>
      <trkpt lat="35.906958940" lon="-106.256914450">
        <ele>2115.100</ele>
        <time>2022-04-26T18:02:30Z</time>
        <name>WPT.609</name>
      </trkpt>
      <trkpt lat="35.906996350" lon="-106.256942010">
        <ele>2115.900</ele>
        <time>2022-04-26T18:02:35Z</time>
        <name>WPT.610</name>
      </trkpt>
      <trkpt lat="35.907028520" lon="-106.256967600">
        <ele>2116.500</ele>
        <time>2022-04-26T18:02:39Z</time>
        <name>WPT.611</name>
      </trkpt>
      <trkpt lat="35.907066490" lon="-106.256998080">
        <ele>2116.900</ele>
        <time>2022-04-26T18:02:44Z</time>
        <name>WPT.612</name>
      </trkpt>
      <trkpt lat="35.907036670" lon="-106.256969100">
        <ele>2116.500</ele>
        <time>2022-04-26T18:02:51Z</time>
        <name>WPT.613</name>
      </trkpt>
      <trkpt lat="35.907010750" lon="-106.256929110">
        <ele>2116.900</ele>
        <time>2022-04-26T18:02:55Z</time>
        <name>WPT.614</name>
      </trkpt>
      <trkpt lat="35.906984060" lon="-106.256896640">
        <ele>2116.600</ele>
        <time>2022-04-26T18:02:59Z</time>
        <name>WPT.615</name>
      </trkpt>
      <trkpt lat="35.906957520" lon="-106.256859420">
        <ele>2115.900</ele>
        <time>2022-04-26T18:03:03Z</time>
        <name>WPT.616</name>
      </trkpt>
      <trkpt lat="35.906933350" lon="-106.256824240">
        <ele>2115.800</ele>
        <time>2022-04-26T18:03:08Z</time>
        <name>WPT.617</name>
      </trkpt>
      <trkpt lat="35.906899680" lon="-106.256793010">
        <ele>2116.300</ele>
        <time>2022-04-26T18:03:12Z</time>
        <name>WPT.618</name>
      </trkpt>
      <trkpt lat="35.906863200" lon="-106.256806610">
        <ele>2115.900</ele>
        <time>2022-04-26T18:03:17Z</time>
        <name>WPT.619</name>
      </trkpt>
      <trkpt lat="35.906837620" lon="-106.256845240">
        <ele>2117.300</ele>
        <time>2022-04-26T18:03:22Z</time>
        <name>WPT.620</name>
      </trkpt>
      <trkpt lat="35.906807170" lon="-106.256883800">
        <ele>2117.000</ele>
        <time>2022-04-26T18:03:26Z</time>
        <name>WPT.621</name>
      </trkpt>
      <trkpt lat="35.906770030" lon="-106.256906610">
        <ele>2117.700</ele>
        <time>2022-04-26T18:03:31Z</time>
        <name>WPT.622</name>
      </trkpt>
      <trkpt lat="35.906730890" lon="-106.256923920">
        <ele>2119.500</ele>
        <time>2022-04-26T18:03:37Z</time>
        <name>WPT.623</name>
      </trkpt>
      <trkpt lat="35.906697670" lon="-106.256952370">
        <ele>2120.700</ele>
        <time>2022-04-26T18:03:45Z</time>
        <name>WPT.624</name>
      </trkpt>
      <trkpt lat="35.906682420" lon="-106.256993240">
        <ele>2118.800</ele>
        <time>2022-04-26T18:03:52Z</time>
        <name>WPT.625</name>
      </trkpt>
      <trkpt lat="35.906699500" lon="-106.257038580">
        <ele>2117.400</ele>
        <time>2022-04-26T18:04:41Z</time>
        <name>WPT.626</name>
      </trkpt>
      <trkpt lat="35.906733180" lon="-106.257069300">
        <ele>2117.300</ele>
        <time>2022-04-26T18:04:46Z</time>
        <name>WPT.627</name>
      </trkpt>
      <trkpt lat="35.906761920" lon="-106.257102880">
        <ele>2118.900</ele>
        <time>2022-04-26T18:04:51Z</time>
        <name>WPT.628</name>
      </trkpt>
      <trkpt lat="35.906786090" lon="-106.257139590">
        <ele>2120.600</ele>
        <time>2022-04-26T18:04:58Z</time>
        <name>WPT.629</name>
      </trkpt>
      <trkpt lat="35.906817470" lon="-106.257162270">
        <ele>2123.600</ele>
        <time>2022-04-26T18:05:34Z</time>
        <name>WPT.630</name>
      </trkpt>
      <trkpt lat="35.906859530" lon="-106.257148950">
        <ele>2123.500</ele>
        <time>2022-04-26T18:05:40Z</time>
        <name>WPT.631</name>
      </trkpt>
      <trkpt lat="35.906889580" lon="-106.257115280">
        <ele>2122.400</ele>
        <time>2022-04-26T18:05:45Z</time>
        <name>WPT.632</name>
      </trkpt>
      <trkpt lat="35.906882630" lon="-106.257163620">
        <ele>2125.300</ele>
        <time>2022-04-26T18:06:10Z</time>
        <name>WPT.633</name>
      </trkpt>
      <trkpt lat="35.906861010" lon="-106.257209860">
        <ele>2126.300</ele>
        <time>2022-04-26T18:06:15Z</time>
        <name>WPT.634</name>
      </trkpt>
      <trkpt lat="35.906849400" lon="-106.257254090">
        <ele>2126.200</ele>
        <time>2022-04-26T18:06:19Z</time>
        <name>WPT.635</name>
      </trkpt>
      <trkpt lat="35.906839600" lon="-106.257297380">
        <ele>2127.900</ele>
        <time>2022-04-26T18:06:24Z</time>
        <name>WPT.636</name>
      </trkpt>
      <trkpt lat="35.906821300" lon="-106.257342190">
        <ele>2130.300</ele>
        <time>2022-04-26T18:06:30Z</time>
        <name>WPT.637</name>
      </trkpt>
      <trkpt lat="35.906826720" lon="-106.257388770">
        <ele>2136.000</ele>
        <time>2022-04-26T18:07:39Z</time>
        <name>WPT.638</name>
      </trkpt>
      <trkpt lat="35.906836280" lon="-106.257436840">
        <ele>2136.800</ele>
        <time>2022-04-26T18:08:02Z</time>
        <name>WPT.639</name>
      </trkpt>
      <trkpt lat="35.906847290" lon="-106.257483430">
        <ele>2136.100</ele>
        <time>2022-04-26T18:08:08Z</time>
        <name>WPT.640</name>
      </trkpt>
      <trkpt lat="35.906876950" lon="-106.257509800">
        <ele>2135.200</ele>
        <time>2022-04-26T18:08:16Z</time>
        <name>WPT.641</name>
      </trkpt>
      <trkpt lat="35.906908100" lon="-106.257477380">
        <ele>2134.600</ele>
        <time>2022-04-26T18:08:21Z</time>
        <name>WPT.642</name>
      </trkpt>
      <trkpt lat="35.906933000" lon="-106.257511020">
        <ele>2135.000</ele>
        <time>2022-04-26T18:08:32Z</time>
        <name>WPT.643</name>
      </trkpt>
      <trkpt lat="35.906906660" lon="-106.257545640">
        <ele>2136.500</ele>
        <time>2022-04-26T18:08:38Z</time>
        <name>WPT.644</name>
      </trkpt>
      <trkpt lat="35.906892190" lon="-106.257593120">
        <ele>2138.500</ele>
        <time>2022-04-26T18:08:45Z</time>
        <name>WPT.645</name>
      </trkpt>
      <trkpt lat="35.906893030" lon="-106.257643300">
        <ele>2138.200</ele>
        <time>2022-04-26T18:08:49Z</time>
        <name>WPT.646</name>
      </trkpt>
      <trkpt lat="35.906885220" lon="-106.257692700">
        <ele>2137.900</ele>
        <time>2022-04-26T18:08:54Z</time>
        <name>WPT.647</name>
      </trkpt>
      <trkpt lat="35.906860960" lon="-106.257737050">
        <ele>2138.200</ele>
        <time>2022-04-26T18:08:59Z</time>
        <name>WPT.648</name>
      </trkpt>
      <trkpt lat="35.906862720" lon="-106.257784020">
        <ele>2138.200</ele>
        <time>2022-04-26T18:09:04Z</time>
        <name>WPT.649</name>
      </trkpt>
      <trkpt lat="35.906870350" lon="-106.257828860">
        <ele>2140.500</ele>
        <time>2022-04-26T18:09:11Z</time>
        <name>WPT.650</name>
      </trkpt>
      <trkpt lat="35.906883740" lon="-106.257872440">
        <ele>2140.800</ele>
        <time>2022-04-26T18:09:17Z</time>
        <name>WPT.651</name>
      </trkpt>
      <trkpt lat="35.906869950" lon="-106.257916750">
        <ele>2141.700</ele>
        <time>2022-04-26T18:09:22Z</time>
        <name>WPT.652</name>
      </trkpt>
      <trkpt lat="35.906867270" lon="-106.257967450">
        <ele>2142.400</ele>
        <time>2022-04-26T18:09:28Z</time>
        <name>WPT.653</name>
      </trkpt>
      <trkpt lat="35.906842000" lon="-106.258012350">
        <ele>2142.600</ele>
        <time>2022-04-26T18:09:33Z</time>
        <name>WPT.654</name>
      </trkpt>
      <trkpt lat="35.906827000" lon="-106.258061090">
        <ele>2141.900</ele>
        <time>2022-04-26T18:09:38Z</time>
        <name>WPT.655</name>
      </trkpt>
      <trkpt lat="35.906819020" lon="-106.258108060">
        <ele>2142.500</ele>
        <time>2022-04-26T18:09:43Z</time>
        <name>WPT.656</name>
      </trkpt>
      <trkpt lat="35.906802360" lon="-106.258148980">
        <ele>2142.900</ele>
        <time>2022-04-26T18:09:47Z</time>
        <name>WPT.657</name>
      </trkpt>
      <trkpt lat="35.906793520" lon="-106.258195480">
        <ele>2142.100</ele>
        <time>2022-04-26T18:09:51Z</time>
        <name>WPT.658</name>
      </trkpt>
      <trkpt lat="35.906805540" lon="-106.258238990">
        <ele>2141.500</ele>
        <time>2022-04-26T18:09:56Z</time>
        <name>WPT.659</name>
      </trkpt>
      <trkpt lat="35.906818490" lon="-106.258289450">
        <ele>2142.700</ele>
        <time>2022-04-26T18:10:02Z</time>
        <name>WPT.660</name>
      </trkpt>
      <trkpt lat="35.906800750" lon="-106.258341870">
        <ele>2144.700</ele>
        <time>2022-04-26T18:10:07Z</time>
        <name>WPT.661</name>
      </trkpt>
      <trkpt lat="35.906781080" lon="-106.258387750">
        <ele>2144.500</ele>
        <time>2022-04-26T18:10:13Z</time>
        <name>WPT.662</name>
      </trkpt>
      <trkpt lat="35.906764860" lon="-106.258427800">
        <ele>2144.900</ele>
        <time>2022-04-26T18:10:18Z</time>
        <name>WPT.663</name>
      </trkpt>
      <trkpt lat="35.906742530" lon="-106.258463310">
        <ele>2144.300</ele>
        <time>2022-04-26T18:10:25Z</time>
        <name>WPT.664</name>
      </trkpt>
      <trkpt lat="35.906727890" lon="-106.258504920">
        <ele>2144.200</ele>
        <time>2022-04-26T18:10:35Z</time>
        <name>WPT.665</name>
      </trkpt>
      <trkpt lat="35.906703390" lon="-106.258542290">
        <ele>2144.200</ele>
        <time>2022-04-26T18:10:39Z</time>
        <name>WPT.666</name>
      </trkpt>
      <trkpt lat="35.906678430" lon="-106.258576510">
        <ele>2144.400</ele>
        <time>2022-04-26T18:10:43Z</time>
        <name>WPT.667</name>
      </trkpt>
      <trkpt lat="35.906661690" lon="-106.258617090">
        <ele>2144.300</ele>
        <time>2022-04-26T18:10:47Z</time>
        <name>WPT.668</name>
      </trkpt>
      <trkpt lat="35.906662000" lon="-106.258665030">
        <ele>2143.900</ele>
        <time>2022-04-26T18:10:53Z</time>
        <name>WPT.669</name>
      </trkpt>
      <trkpt lat="35.906657480" lon="-106.258716560">
        <ele>2145.600</ele>
        <time>2022-04-26T18:10:58Z</time>
        <name>WPT.670</name>
      </trkpt>
      <trkpt lat="35.906648620" lon="-106.258760120">
        <ele>2146.000</ele>
        <time>2022-04-26T18:11:03Z</time>
        <name>WPT.671</name>
      </trkpt>
      <trkpt lat="35.906652450" lon="-106.258804560">
        <ele>2145.600</ele>
        <time>2022-04-26T18:11:07Z</time>
        <name>WPT.672</name>
      </trkpt>
      <trkpt lat="35.906661560" lon="-106.258853370">
        <ele>2146.500</ele>
        <time>2022-04-26T18:11:12Z</time>
        <name>WPT.673</name>
      </trkpt>
      <trkpt lat="35.906653150" lon="-106.258903540">
        <ele>2144.600</ele>
        <time>2022-04-26T18:11:18Z</time>
        <name>WPT.674</name>
      </trkpt>
      <trkpt lat="35.906641950" lon="-106.258947030">
        <ele>2145.000</ele>
        <time>2022-04-26T18:11:22Z</time>
        <name>WPT.675</name>
      </trkpt>
      <trkpt lat="35.906624420" lon="-106.258992980">
        <ele>2145.200</ele>
        <time>2022-04-26T18:11:26Z</time>
        <name>WPT.676</name>
      </trkpt>
      <trkpt lat="35.906588470" lon="-106.259019760">
        <ele>2145.700</ele>
        <time>2022-04-26T18:11:32Z</time>
        <name>WPT.677</name>
      </trkpt>
      <trkpt lat="35.906556820" lon="-106.259045570">
        <ele>2146.800</ele>
        <time>2022-04-26T18:11:37Z</time>
        <name>WPT.678</name>
      </trkpt>
      <trkpt lat="35.906539450" lon="-106.259091420">
        <ele>2146.600</ele>
        <time>2022-04-26T18:11:42Z</time>
        <name>WPT.679</name>
      </trkpt>
      <trkpt lat="35.906527840" lon="-106.259133650">
        <ele>2147.400</ele>
        <time>2022-04-26T18:11:47Z</time>
        <name>WPT.680</name>
      </trkpt>
      <trkpt lat="35.906545150" lon="-106.259178050">
        <ele>2148.300</ele>
        <time>2022-04-26T18:11:53Z</time>
        <name>WPT.681</name>
      </trkpt>
      <trkpt lat="35.906560590" lon="-106.259218220">
        <ele>2149.400</ele>
        <time>2022-04-26T18:12:01Z</time>
        <name>WPT.682</name>
      </trkpt>
      <trkpt lat="35.906585750" lon="-106.259252350">
        <ele>2150.100</ele>
        <time>2022-04-26T18:12:20Z</time>
        <name>WPT.683</name>
      </trkpt>
      <trkpt lat="35.906581440" lon="-106.259297750">
        <ele>2152.300</ele>
        <time>2022-04-26T18:12:40Z</time>
        <name>WPT.684</name>
      </trkpt>
      <trkpt lat="35.906571880" lon="-106.259342420">
        <ele>2154.000</ele>
        <time>2022-04-26T18:12:57Z</time>
        <name>WPT.685</name>
      </trkpt>
      <trkpt lat="35.906594320" lon="-106.259377940">
        <ele>2151.100</ele>
        <time>2022-04-26T18:13:13Z</time>
        <name>WPT.686</name>
      </trkpt>
      <trkpt lat="35.906568980" lon="-106.259409690">
        <ele>2153.300</ele>
        <time>2022-04-26T18:13:20Z</time>
        <name>WPT.687</name>
      </trkpt>
      <trkpt lat="35.906555800" lon="-106.259454390">
        <ele>2152.400</ele>
        <time>2022-04-26T18:13:29Z</time>
        <name>WPT.688</name>
      </trkpt>
      <trkpt lat="35.906557130" lon="-106.259502640">
        <ele>2151.200</ele>
        <time>2022-04-26T18:13:51Z</time>
        <name>WPT.689</name>
      </trkpt>
      <trkpt lat="35.906550530" lon="-106.259549760">
        <ele>2150.400</ele>
        <time>2022-04-26T18:13:57Z</time>
        <name>WPT.690</name>
      </trkpt>
      <trkpt lat="35.906537140" lon="-106.259600740">
        <ele>2151.300</ele>
        <time>2022-04-26T18:14:01Z</time>
        <name>WPT.691</name>
      </trkpt>
      <trkpt lat="35.906525650" lon="-106.259643550">
        <ele>2151.500</ele>
        <time>2022-04-26T18:14:07Z</time>
        <name>WPT.692</name>
      </trkpt>
      <trkpt lat="35.906547250" lon="-106.259690710">
        <ele>2151.200</ele>
        <time>2022-04-26T18:16:28Z</time>
        <name>WPT.693</name>
      </trkpt>
      <trkpt lat="35.906537100" lon="-106.259736390">
        <ele>2151.100</ele>
        <time>2022-04-26T18:16:35Z</time>
        <name>WPT.694</name>
      </trkpt>
      <trkpt lat="35.906547430" lon="-106.259780000">
        <ele>2152.300</ele>
        <time>2022-04-26T18:16:48Z</time>
        <name>WPT.695</name>
      </trkpt>
      <trkpt lat="35.906552070" lon="-106.259833640">
        <ele>2151.800</ele>
        <time>2022-04-26T18:16:53Z</time>
        <name>WPT.696</name>
      </trkpt>
      <trkpt lat="35.906563680" lon="-106.259883540">
        <ele>2152.300</ele>
        <time>2022-04-26T18:16:58Z</time>
        <name>WPT.697</name>
      </trkpt>
      <trkpt lat="35.906584380" lon="-106.259924040">
        <ele>2151.900</ele>
        <time>2022-04-26T18:17:03Z</time>
        <name>WPT.698</name>
      </trkpt>
      <trkpt lat="35.906570650" lon="-106.259966920">
        <ele>2151.600</ele>
        <time>2022-04-26T18:17:08Z</time>
        <name>WPT.699</name>
      </trkpt>
      <trkpt lat="35.906580430" lon="-106.260011660">
        <ele>2151.000</ele>
        <time>2022-04-26T18:17:12Z</time>
        <name>WPT.700</name>
      </trkpt>
      <trkpt lat="35.906585500" lon="-106.260060250">
        <ele>2150.300</ele>
        <time>2022-04-26T18:17:20Z</time>
        <name>WPT.701</name>
      </trkpt>
      <trkpt lat="35.906584910" lon="-106.260108630">
        <ele>2150.500</ele>
        <time>2022-04-26T18:17:26Z</time>
        <name>WPT.702</name>
      </trkpt>
      <trkpt lat="35.906578620" lon="-106.260153340">
        <ele>2150.800</ele>
        <time>2022-04-26T18:17:31Z</time>
        <name>WPT.703</name>
      </trkpt>
      <trkpt lat="35.906573140" lon="-106.260198400">
        <ele>2152.300</ele>
        <time>2022-04-26T18:17:37Z</time>
        <name>WPT.704</name>
      </trkpt>
      <trkpt lat="35.906562400" lon="-106.260242440">
        <ele>2151.500</ele>
        <time>2022-04-26T18:17:45Z</time>
        <name>WPT.705</name>
      </trkpt>
      <trkpt lat="35.906563500" lon="-106.260292930">
        <ele>2151.300</ele>
        <time>2022-04-26T18:17:54Z</time>
        <name>WPT.706</name>
      </trkpt>
      <trkpt lat="35.906569190" lon="-106.260337010">
        <ele>2151.100</ele>
        <time>2022-04-26T18:17:58Z</time>
        <name>WPT.707</name>
      </trkpt>
      <trkpt lat="35.906571530" lon="-106.260385320">
        <ele>2149.100</ele>
        <time>2022-04-26T18:18:04Z</time>
        <name>WPT.708</name>
      </trkpt>
      <trkpt lat="35.906549020" lon="-106.260420940">
        <ele>2149.600</ele>
        <time>2022-04-26T18:18:10Z</time>
        <name>WPT.709</name>
      </trkpt>
      <trkpt lat="35.906545750" lon="-106.260473590">
        <ele>2150.200</ele>
        <time>2022-04-26T18:18:22Z</time>
        <name>WPT.710</name>
      </trkpt>
      <trkpt lat="35.906540480" lon="-106.260522010">
        <ele>2150.100</ele>
        <time>2022-04-26T18:18:27Z</time>
        <name>WPT.711</name>
      </trkpt>
      <trkpt lat="35.906542030" lon="-106.260567100">
        <ele>2150.200</ele>
        <time>2022-04-26T18:18:34Z</time>
        <name>WPT.712</name>
      </trkpt>
      <trkpt lat="35.906539070" lon="-106.260616760">
        <ele>2150.600</ele>
        <time>2022-04-26T18:18:40Z</time>
        <name>WPT.713</name>
      </trkpt>
      <trkpt lat="35.906520540" lon="-106.260664390">
        <ele>2150.700</ele>
        <time>2022-04-26T18:18:46Z</time>
        <name>WPT.714</name>
      </trkpt>
      <trkpt lat="35.906521540" lon="-106.260708700">
        <ele>2151.500</ele>
        <time>2022-04-26T18:19:14Z</time>
        <name>WPT.715</name>
      </trkpt>
      <trkpt lat="35.906532330" lon="-106.260751640">
        <ele>2149.600</ele>
        <time>2022-04-26T18:19:37Z</time>
        <name>WPT.716</name>
      </trkpt>
      <trkpt lat="35.906523520" lon="-106.260801860">
        <ele>2150.200</ele>
        <time>2022-04-26T18:19:47Z</time>
        <name>WPT.717</name>
      </trkpt>
      <trkpt lat="35.906526090" lon="-106.260853510">
        <ele>2150.600</ele>
        <time>2022-04-26T18:20:03Z</time>
        <name>WPT.718</name>
      </trkpt>
      <trkpt lat="35.906529290" lon="-106.260898630">
        <ele>2150.900</ele>
        <time>2022-04-26T18:20:08Z</time>
        <name>WPT.719</name>
      </trkpt>
      <trkpt lat="35.906535020" lon="-106.260942650">
        <ele>2150.500</ele>
        <time>2022-04-26T18:20:12Z</time>
        <name>WPT.720</name>
      </trkpt>
      <trkpt lat="35.906515350" lon="-106.260987920">
        <ele>2150.800</ele>
        <time>2022-04-26T18:20:29Z</time>
        <name>WPT.721</name>
      </trkpt>
      <trkpt lat="35.906518890" lon="-106.261037870">
        <ele>2150.100</ele>
        <time>2022-04-26T18:20:54Z</time>
        <name>WPT.722</name>
      </trkpt>
      <trkpt lat="35.906509020" lon="-106.261080520">
        <ele>2151.900</ele>
        <time>2022-04-26T18:21:17Z</time>
        <name>WPT.723</name>
      </trkpt>
      <trkpt lat="35.906490900" lon="-106.261119410">
        <ele>2152.900</ele>
        <time>2022-04-26T18:21:40Z</time>
        <name>WPT.724</name>
      </trkpt>
      <trkpt lat="35.906471900" lon="-106.261166050">
        <ele>2153.600</ele>
        <time>2022-04-26T18:21:47Z</time>
        <name>WPT.725</name>
      </trkpt>
      <trkpt lat="35.906479970" lon="-106.261217440">
        <ele>2153.000</ele>
        <time>2022-04-26T18:21:52Z</time>
        <name>WPT.726</name>
      </trkpt>
      <trkpt lat="35.906475430" lon="-106.261262550">
        <ele>2153.200</ele>
        <time>2022-04-26T18:21:57Z</time>
        <name>WPT.727</name>
      </trkpt>
      <trkpt lat="35.906476660" lon="-106.261309740">
        <ele>2152.600</ele>
        <time>2022-04-26T18:22:05Z</time>
        <name>WPT.728</name>
      </trkpt>
      <trkpt lat="35.906480210" lon="-106.261355670">
        <ele>2154.500</ele>
        <time>2022-04-26T18:22:15Z</time>
        <name>WPT.729</name>
      </trkpt>
      <trkpt lat="35.906483680" lon="-106.261402430">
        <ele>2151.500</ele>
        <time>2022-04-26T18:22:23Z</time>
        <name>WPT.730</name>
      </trkpt>
      <trkpt lat="35.906482160" lon="-106.261449420">
        <ele>2150.900</ele>
        <time>2022-04-26T18:22:29Z</time>
        <name>WPT.731</name>
      </trkpt>
      <trkpt lat="35.906467470" lon="-106.261494610">
        <ele>2152.200</ele>
        <time>2022-04-26T18:22:39Z</time>
        <name>WPT.732</name>
      </trkpt>
      <trkpt lat="35.906457330" lon="-106.261542430">
        <ele>2152.600</ele>
        <time>2022-04-26T18:22:45Z</time>
        <name>WPT.733</name>
      </trkpt>
      <trkpt lat="35.906441070" lon="-106.261585190">
        <ele>2153.200</ele>
        <time>2022-04-26T18:22:50Z</time>
        <name>WPT.734</name>
      </trkpt>
      <trkpt lat="35.906426290" lon="-106.261629820">
        <ele>2152.400</ele>
        <time>2022-04-26T18:22:57Z</time>
        <name>WPT.735</name>
      </trkpt>
      <trkpt lat="35.906421640" lon="-106.261677880">
        <ele>2153.800</ele>
        <time>2022-04-26T18:23:05Z</time>
        <name>WPT.736</name>
      </trkpt>
      <trkpt lat="35.906434100" lon="-106.261727660">
        <ele>2152.000</ele>
        <time>2022-04-26T18:23:15Z</time>
        <name>WPT.737</name>
      </trkpt>
      <trkpt lat="35.906421480" lon="-106.261771820">
        <ele>2153.500</ele>
        <time>2022-04-26T18:23:22Z</time>
        <name>WPT.738</name>
      </trkpt>
      <trkpt lat="35.906405120" lon="-106.261816230">
        <ele>2151.800</ele>
        <time>2022-04-26T18:23:32Z</time>
        <name>WPT.739</name>
      </trkpt>
      <trkpt lat="35.906382290" lon="-106.261858410">
        <ele>2152.400</ele>
        <time>2022-04-26T18:23:40Z</time>
        <name>WPT.740</name>
      </trkpt>
      <trkpt lat="35.906359400" lon="-106.261896230">
        <ele>2152.900</ele>
        <time>2022-04-26T18:23:45Z</time>
        <name>WPT.741</name>
      </trkpt>
      <trkpt lat="35.906351530" lon="-106.261940610">
        <ele>2152.700</ele>
        <time>2022-04-26T18:23:51Z</time>
        <name>WPT.742</name>
      </trkpt>
      <trkpt lat="35.906346410" lon="-106.261996640">
        <ele>2152.100</ele>
        <time>2022-04-26T18:23:57Z</time>
        <name>WPT.743</name>
      </trkpt>
      <trkpt lat="35.906332600" lon="-106.262040630">
        <ele>2152.500</ele>
        <time>2022-04-26T18:24:03Z</time>
        <name>WPT.744</name>
      </trkpt>
      <trkpt lat="35.906319460" lon="-106.262085210">
        <ele>2151.700</ele>
        <time>2022-04-26T18:24:08Z</time>
        <name>WPT.745</name>
      </trkpt>
      <trkpt lat="35.906305250" lon="-106.262128820">
        <ele>2152.200</ele>
        <time>2022-04-26T18:24:24Z</time>
        <name>WPT.746</name>
      </trkpt>
      <trkpt lat="35.906293440" lon="-106.262178440">
        <ele>2150.900</ele>
        <time>2022-04-26T18:24:29Z</time>
        <name>WPT.747</name>
      </trkpt>
      <trkpt lat="35.906276530" lon="-106.262222040">
        <ele>2151.800</ele>
        <time>2022-04-26T18:24:34Z</time>
        <name>WPT.748</name>
      </trkpt>
      <trkpt lat="35.906243920" lon="-106.262253490">
        <ele>2153.500</ele>
        <time>2022-04-26T18:24:40Z</time>
        <name>WPT.749</name>
      </trkpt>
      <trkpt lat="35.906222110" lon="-106.262292870">
        <ele>2155.100</ele>
        <time>2022-04-26T18:24:44Z</time>
        <name>WPT.750</name>
      </trkpt>
      <trkpt lat="35.906219840" lon="-106.262340900">
        <ele>2154.000</ele>
        <time>2022-04-26T18:24:50Z</time>
        <name>WPT.751</name>
      </trkpt>
      <trkpt lat="35.906205310" lon="-106.262385920">
        <ele>2152.500</ele>
        <time>2022-04-26T18:24:55Z</time>
        <name>WPT.752</name>
      </trkpt>
      <trkpt lat="35.906193070" lon="-106.262434870">
        <ele>2151.100</ele>
        <time>2022-04-26T18:25:00Z</time>
        <name>WPT.753</name>
      </trkpt>
      <trkpt lat="35.906165490" lon="-106.262471850">
        <ele>2151.000</ele>
        <time>2022-04-26T18:25:06Z</time>
        <name>WPT.754</name>
      </trkpt>
      <trkpt lat="35.906153510" lon="-106.262513960">
        <ele>2152.500</ele>
        <time>2022-04-26T18:25:28Z</time>
        <name>WPT.755</name>
      </trkpt>
      <trkpt lat="35.906132250" lon="-106.262554200">
        <ele>2152.000</ele>
        <time>2022-04-26T18:25:37Z</time>
        <name>WPT.756</name>
      </trkpt>
      <trkpt lat="35.906115980" lon="-106.262604690">
        <ele>2151.600</ele>
        <time>2022-04-26T18:25:41Z</time>
        <name>WPT.757</name>
      </trkpt>
      <trkpt lat="35.906098090" lon="-106.262645410">
        <ele>2151.900</ele>
        <time>2022-04-26T18:25:45Z</time>
        <name>WPT.758</name>
      </trkpt>
      <trkpt lat="35.906083250" lon="-106.262688900">
        <ele>2151.700</ele>
        <time>2022-04-26T18:25:49Z</time>
        <name>WPT.759</name>
      </trkpt>
      <trkpt lat="35.906059120" lon="-106.262726850">
        <ele>2151.000</ele>
        <time>2022-04-26T18:25:53Z</time>
        <name>WPT.760</name>
      </trkpt>
      <trkpt lat="35.906044910" lon="-106.262769270">
        <ele>2150.900</ele>
        <time>2022-04-26T18:25:57Z</time>
        <name>WPT.761</name>
      </trkpt>
      <trkpt lat="35.906015680" lon="-106.262811090">
        <ele>2150.900</ele>
        <time>2022-04-26T18:26:02Z</time>
        <name>WPT.762</name>
      </trkpt>
      <trkpt lat="35.905990750" lon="-106.262853360">
        <ele>2150.700</ele>
        <time>2022-04-26T18:26:08Z</time>
        <name>WPT.763</name>
      </trkpt>
      <trkpt lat="35.905962360" lon="-106.262897350">
        <ele>2151.200</ele>
        <time>2022-04-26T18:26:13Z</time>
        <name>WPT.764</name>
      </trkpt>
      <trkpt lat="35.905950340" lon="-106.262942940">
        <ele>2150.500</ele>
        <time>2022-04-26T18:26:19Z</time>
        <name>WPT.765</name>
      </trkpt>
      <trkpt lat="35.905940860" lon="-106.262986000">
        <ele>2152.500</ele>
        <time>2022-04-26T18:27:07Z</time>
        <name>WPT.766</name>
      </trkpt>
      <trkpt lat="35.905935200" lon="-106.263043570">
        <ele>2150.800</ele>
        <time>2022-04-26T18:27:13Z</time>
        <name>WPT.767</name>
      </trkpt>
      <trkpt lat="35.905931070" lon="-106.263092870">
        <ele>2148.200</ele>
        <time>2022-04-26T18:27:18Z</time>
        <name>WPT.768</name>
      </trkpt>
      <trkpt lat="35.905920980" lon="-106.263138060">
        <ele>2148.600</ele>
        <time>2022-04-26T18:27:29Z</time>
        <name>WPT.769</name>
      </trkpt>
      <trkpt lat="35.905912180" lon="-106.263192150">
        <ele>2148.400</ele>
        <time>2022-04-26T18:27:35Z</time>
        <name>WPT.770</name>
      </trkpt>
      <trkpt lat="35.905911400" lon="-106.263237560">
        <ele>2147.700</ele>
        <time>2022-04-26T18:27:40Z</time>
        <name>WPT.771</name>
      </trkpt>
      <trkpt lat="35.905901630" lon="-106.263282380">
        <ele>2148.200</ele>
        <time>2022-04-26T18:27:46Z</time>
        <name>WPT.772</name>
      </trkpt>
      <trkpt lat="35.905891570" lon="-106.263337850">
        <ele>2149.700</ele>
        <time>2022-04-26T18:28:02Z</time>
        <name>WPT.773</name>
      </trkpt>
      <trkpt lat="35.905907990" lon="-106.263380030">
        <ele>2148.700</ele>
        <time>2022-04-26T18:28:07Z</time>
        <name>WPT.774</name>
      </trkpt>
      <trkpt lat="35.905927630" lon="-106.263419300">
        <ele>2147.500</ele>
        <time>2022-04-26T18:28:12Z</time>
        <name>WPT.775</name>
      </trkpt>
      <trkpt lat="35.905939020" lon="-106.263464550">
        <ele>2145.900</ele>
        <time>2022-04-26T18:28:21Z</time>
        <name>WPT.776</name>
      </trkpt>
      <trkpt lat="35.905938680" lon="-106.263514040">
        <ele>2147.600</ele>
        <time>2022-04-26T18:28:33Z</time>
        <name>WPT.777</name>
      </trkpt>
      <trkpt lat="35.905936630" lon="-106.263559470">
        <ele>2149.200</ele>
        <time>2022-04-26T18:28:42Z</time>
        <name>WPT.778</name>
      </trkpt>
      <trkpt lat="35.905938140" lon="-106.263607620">
        <ele>2148.800</ele>
        <time>2022-04-26T18:28:48Z</time>
        <name>WPT.779</name>
      </trkpt>
      <trkpt lat="35.905959580" lon="-106.263651560">
        <ele>2147.800</ele>
        <time>2022-04-26T18:28:53Z</time>
        <name>WPT.780</name>
      </trkpt>
      <trkpt lat="35.905966880" lon="-106.263701530">
        <ele>2147.800</ele>
        <time>2022-04-26T18:28:59Z</time>
        <name>WPT.781</name>
      </trkpt>
      <trkpt lat="35.905975230" lon="-106.263746190">
        <ele>2148.000</ele>
        <time>2022-04-26T18:29:05Z</time>
        <name>WPT.782</name>
      </trkpt>
      <trkpt lat="35.906001230" lon="-106.263779590">
        <ele>2147.000</ele>
        <time>2022-04-26T18:29:12Z</time>
        <name>WPT.783</name>
      </trkpt>
      <trkpt lat="35.906007850" lon="-106.263826370">
        <ele>2149.600</ele>
        <time>2022-04-26T18:29:17Z</time>
        <name>WPT.784</name>
      </trkpt>
      <trkpt lat="35.906019120" lon="-106.263872090">
        <ele>2147.300</ele>
        <time>2022-04-26T18:29:25Z</time>
        <name>WPT.785</name>
      </trkpt>
      <trkpt lat="35.906041920" lon="-106.263910140">
        <ele>2147.000</ele>
        <time>2022-04-26T18:29:33Z</time>
        <name>WPT.786</name>
      </trkpt>
      <trkpt lat="35.906053040" lon="-106.263956120">
        <ele>2147.700</ele>
        <time>2022-04-26T18:29:38Z</time>
        <name>WPT.787</name>
      </trkpt>
      <trkpt lat="35.906071880" lon="-106.264002240">
        <ele>2147.100</ele>
        <time>2022-04-26T18:29:43Z</time>
        <name>WPT.788</name>
      </trkpt>
      <trkpt lat="35.906084010" lon="-106.264051560">
        <ele>2148.300</ele>
        <time>2022-04-26T18:29:49Z</time>
        <name>WPT.789</name>
      </trkpt>
      <trkpt lat="35.906086040" lon="-106.264096880">
        <ele>2148.100</ele>
        <time>2022-04-26T18:29:54Z</time>
        <name>WPT.790</name>
      </trkpt>
      <trkpt lat="35.906085860" lon="-106.264143180">
        <ele>2148.200</ele>
        <time>2022-04-26T18:29:59Z</time>
        <name>WPT.791</name>
      </trkpt>
      <trkpt lat="35.906075640" lon="-106.264188080">
        <ele>2149.200</ele>
        <time>2022-04-26T18:30:04Z</time>
        <name>WPT.792</name>
      </trkpt>
      <trkpt lat="35.906060030" lon="-106.264230990">
        <ele>2151.300</ele>
        <time>2022-04-26T18:30:11Z</time>
        <name>WPT.793</name>
      </trkpt>
      <trkpt lat="35.906047760" lon="-106.264273980">
        <ele>2152.100</ele>
        <time>2022-04-26T18:30:19Z</time>
        <name>WPT.794</name>
      </trkpt>
      <trkpt lat="35.906032100" lon="-106.264315590">
        <ele>2152.700</ele>
        <time>2022-04-26T18:30:25Z</time>
        <name>WPT.795</name>
      </trkpt>
      <trkpt lat="35.906016430" lon="-106.264360820">
        <ele>2154.100</ele>
        <time>2022-04-26T18:30:35Z</time>
        <name>WPT.796</name>
      </trkpt>
      <trkpt lat="35.906016920" lon="-106.264410100">
        <ele>2154.700</ele>
        <time>2022-04-26T18:30:44Z</time>
        <name>WPT.797</name>
      </trkpt>
      <trkpt lat="35.906015960" lon="-106.264458260">
        <ele>2153.900</ele>
        <time>2022-04-26T18:30:50Z</time>
        <name>WPT.798</name>
      </trkpt>
      <trkpt lat="35.906005300" lon="-106.264505860">
        <ele>2154.200</ele>
        <time>2022-04-26T18:30:56Z</time>
        <name>WPT.799</name>
      </trkpt>
      <trkpt lat="35.906028150" lon="-106.264542250">
        <ele>2153.300</ele>
        <time>2022-04-26T18:31:08Z</time>
        <name>WPT.800</name>
      </trkpt>
      <trkpt lat="35.906012520" lon="-106.264584560">
        <ele>2153.900</ele>
        <time>2022-04-26T18:31:14Z</time>
        <name>WPT.801</name>
      </trkpt>
      <trkpt lat="35.905997710" lon="-106.264634920">
        <ele>2153.500</ele>
        <time>2022-04-26T18:31:26Z</time>
        <name>WPT.802</name>
      </trkpt>
      <trkpt lat="35.906008630" lon="-106.264682370">
        <ele>2150.900</ele>
        <time>2022-04-26T18:31:34Z</time>
        <name>WPT.803</name>
      </trkpt>
      <trkpt lat="35.905988080" lon="-106.264726650">
        <ele>2151.400</ele>
        <time>2022-04-26T18:31:40Z</time>
        <name>WPT.804</name>
      </trkpt>
      <trkpt lat="35.905978040" lon="-106.264769680">
        <ele>2153.700</ele>
        <time>2022-04-26T18:32:00Z</time>
        <name>WPT.805</name>
      </trkpt>
      <trkpt lat="35.905974590" lon="-106.264818720">
        <ele>2152.700</ele>
        <time>2022-04-26T18:32:08Z</time>
        <name>WPT.806</name>
      </trkpt>
      <trkpt lat="35.905984430" lon="-106.264861840">
        <ele>2151.600</ele>
        <time>2022-04-26T18:32:13Z</time>
        <name>WPT.807</name>
      </trkpt>
      <trkpt lat="35.905960630" lon="-106.264897470">
        <ele>2153.000</ele>
        <time>2022-04-26T18:32:19Z</time>
        <name>WPT.808</name>
      </trkpt>
      <trkpt lat="35.905947370" lon="-106.264947110">
        <ele>2152.800</ele>
        <time>2022-04-26T18:32:24Z</time>
        <name>WPT.809</name>
      </trkpt>
      <trkpt lat="35.905946700" lon="-106.264992130">
        <ele>2152.100</ele>
        <time>2022-04-26T18:32:39Z</time>
        <name>WPT.810</name>
      </trkpt>
      <trkpt lat="35.905949590" lon="-106.265042330">
        <ele>2151.700</ele>
        <time>2022-04-26T18:32:47Z</time>
        <name>WPT.811</name>
      </trkpt>
      <trkpt lat="35.905935170" lon="-106.265088740">
        <ele>2152.600</ele>
        <time>2022-04-26T18:32:55Z</time>
        <name>WPT.812</name>
      </trkpt>
      <trkpt lat="35.905916920" lon="-106.265129650">
        <ele>2152.100</ele>
        <time>2022-04-26T18:32:59Z</time>
        <name>WPT.813</name>
      </trkpt>
      <trkpt lat="35.905901320" lon="-106.265175380">
        <ele>2152.700</ele>
        <time>2022-04-26T18:33:03Z</time>
        <name>WPT.814</name>
      </trkpt>
      <trkpt lat="35.905870220" lon="-106.265213960">
        <ele>2154.500</ele>
        <time>2022-04-26T18:33:11Z</time>
        <name>WPT.815</name>
      </trkpt>
      <trkpt lat="35.905860480" lon="-106.265257070">
        <ele>2154.400</ele>
        <time>2022-04-26T18:33:24Z</time>
        <name>WPT.816</name>
      </trkpt>
      <trkpt lat="35.905864480" lon="-106.265311990">
        <ele>2152.800</ele>
        <time>2022-04-26T18:33:31Z</time>
        <name>WPT.817</name>
      </trkpt>
      <trkpt lat="35.905848860" lon="-106.265360380">
        <ele>2153.300</ele>
        <time>2022-04-26T18:33:36Z</time>
        <name>WPT.818</name>
      </trkpt>
      <trkpt lat="35.905831430" lon="-106.265403450">
        <ele>2153.100</ele>
        <time>2022-04-26T18:33:42Z</time>
        <name>WPT.819</name>
      </trkpt>
      <trkpt lat="35.905823600" lon="-106.265453450">
        <ele>2152.700</ele>
        <time>2022-04-26T18:33:47Z</time>
        <name>WPT.820</name>
      </trkpt>
      <trkpt lat="35.905817430" lon="-106.265500220">
        <ele>2153.700</ele>
        <time>2022-04-26T18:33:53Z</time>
        <name>WPT.821</name>
      </trkpt>
      <trkpt lat="35.905791530" lon="-106.265538320">
        <ele>2154.600</ele>
        <time>2022-04-26T18:34:05Z</time>
        <name>WPT.822</name>
      </trkpt>
      <trkpt lat="35.905784890" lon="-106.265594820">
        <ele>2152.200</ele>
        <time>2022-04-26T18:34:15Z</time>
        <name>WPT.823</name>
      </trkpt>
      <trkpt lat="35.905783630" lon="-106.265651320">
        <ele>2151.800</ele>
        <time>2022-04-26T18:34:19Z</time>
        <name>WPT.824</name>
      </trkpt>
      <trkpt lat="35.905773090" lon="-106.265694910">
        <ele>2152.700</ele>
        <time>2022-04-26T18:34:23Z</time>
        <name>WPT.825</name>
      </trkpt>
      <trkpt lat="35.905771130" lon="-106.265750450">
        <ele>2151.000</ele>
        <time>2022-04-26T18:34:28Z</time>
        <name>WPT.826</name>
      </trkpt>
      <trkpt lat="35.905766770" lon="-106.265796950">
        <ele>2151.000</ele>
        <time>2022-04-26T18:34:32Z</time>
        <name>WPT.827</name>
      </trkpt>
      <trkpt lat="35.905768720" lon="-106.265846890">
        <ele>2149.600</ele>
        <time>2022-04-26T18:34:36Z</time>
        <name>WPT.828</name>
      </trkpt>
      <trkpt lat="35.905760070" lon="-106.265896440">
        <ele>2149.500</ele>
        <time>2022-04-26T18:34:41Z</time>
        <name>WPT.829</name>
      </trkpt>
      <trkpt lat="35.905752400" lon="-106.265944090">
        <ele>2151.400</ele>
        <time>2022-04-26T18:34:46Z</time>
        <name>WPT.830</name>
      </trkpt>
      <trkpt lat="35.905749600" lon="-106.265998370">
        <ele>2150.200</ele>
        <time>2022-04-26T18:34:51Z</time>
        <name>WPT.831</name>
      </trkpt>
      <trkpt lat="35.905752790" lon="-106.266050690">
        <ele>2148.800</ele>
        <time>2022-04-26T18:34:56Z</time>
        <name>WPT.832</name>
      </trkpt>
      <trkpt lat="35.905736310" lon="-106.266097000">
        <ele>2149.000</ele>
        <time>2022-04-26T18:35:08Z</time>
        <name>WPT.833</name>
      </trkpt>
      <trkpt lat="35.905728580" lon="-106.266141490">
        <ele>2148.100</ele>
        <time>2022-04-26T18:35:12Z</time>
        <name>WPT.834</name>
      </trkpt>
      <trkpt lat="35.905722170" lon="-106.266191170">
        <ele>2148.900</ele>
        <time>2022-04-26T18:35:17Z</time>
        <name>WPT.835</name>
      </trkpt>
      <trkpt lat="35.905719640" lon="-106.266237930">
        <ele>2148.500</ele>
        <time>2022-04-26T18:35:21Z</time>
        <name>WPT.836</name>
      </trkpt>
      <trkpt lat="35.905722910" lon="-106.266283390">
        <ele>2150.400</ele>
        <time>2022-04-26T18:35:28Z</time>
        <name>WPT.837</name>
      </trkpt>
      <trkpt lat="35.905740550" lon="-106.266326490">
        <ele>2148.200</ele>
        <time>2022-04-26T18:35:33Z</time>
        <name>WPT.838</name>
      </trkpt>
      <trkpt lat="35.905749900" lon="-106.266369770">
        <ele>2150.500</ele>
        <time>2022-04-26T18:35:38Z</time>
        <name>WPT.839</name>
      </trkpt>
      <trkpt lat="35.905763310" lon="-106.266412700">
        <ele>2150.500</ele>
        <time>2022-04-26T18:35:45Z</time>
        <name>WPT.840</name>
      </trkpt>
      <trkpt lat="35.905783410" lon="-106.266455650">
        <ele>2147.700</ele>
        <time>2022-04-26T18:35:55Z</time>
        <name>WPT.841</name>
      </trkpt>
      <trkpt lat="35.905799130" lon="-106.266495690">
        <ele>2147.800</ele>
        <time>2022-04-26T18:36:01Z</time>
        <name>WPT.842</name>
      </trkpt>
      <trkpt lat="35.905775590" lon="-106.266533290">
        <ele>2149.900</ele>
        <time>2022-04-26T18:36:16Z</time>
        <name>WPT.843</name>
      </trkpt>
      <trkpt lat="35.905780990" lon="-106.266577500">
        <ele>2149.700</ele>
        <time>2022-04-26T18:36:19Z</time>
        <name>WPT.844</name>
      </trkpt>
      <trkpt lat="35.905782600" lon="-106.266626380">
        <ele>2150.700</ele>
        <time>2022-04-26T18:36:23Z</time>
        <name>WPT.845</name>
      </trkpt>
      <trkpt lat="35.905785490" lon="-106.266674320">
        <ele>2149.900</ele>
        <time>2022-04-26T18:36:28Z</time>
        <name>WPT.846</name>
      </trkpt>
      <trkpt lat="35.905798320" lon="-106.266719140">
        <ele>2149.400</ele>
        <time>2022-04-26T18:36:32Z</time>
        <name>WPT.847</name>
      </trkpt>
      <trkpt lat="35.905805300" lon="-106.266769390">
        <ele>2149.900</ele>
        <time>2022-04-26T18:36:36Z</time>
        <name>WPT.848</name>
      </trkpt>
      <trkpt lat="35.905808490" lon="-106.266822910">
        <ele>2150.900</ele>
        <time>2022-04-26T18:36:41Z</time>
        <name>WPT.849</name>
      </trkpt>
      <trkpt lat="35.905821020" lon="-106.266871030">
        <ele>2151.000</ele>
        <time>2022-04-26T18:36:46Z</time>
        <name>WPT.850</name>
      </trkpt>
      <trkpt lat="35.905833410" lon="-106.266913270">
        <ele>2150.500</ele>
        <time>2022-04-26T18:36:59Z</time>
        <name>WPT.851</name>
      </trkpt>
      <trkpt lat="35.905820000" lon="-106.266954640">
        <ele>2151.900</ele>
        <time>2022-04-26T18:37:05Z</time>
        <name>WPT.852</name>
      </trkpt>
      <trkpt lat="35.905820840" lon="-106.266999030">
        <ele>2152.400</ele>
        <time>2022-04-26T18:37:11Z</time>
        <name>WPT.853</name>
      </trkpt>
      <trkpt lat="35.905823910" lon="-106.267047180">
        <ele>2151.400</ele>
        <time>2022-04-26T18:37:16Z</time>
        <name>WPT.854</name>
      </trkpt>
      <trkpt lat="35.905836840" lon="-106.267095370">
        <ele>2152.600</ele>
        <time>2022-04-26T18:37:23Z</time>
        <name>WPT.855</name>
      </trkpt>
      <trkpt lat="35.905861420" lon="-106.267133490">
        <ele>2152.800</ele>
        <time>2022-04-26T18:37:31Z</time>
        <name>WPT.856</name>
      </trkpt>
      <trkpt lat="35.905876690" lon="-106.267182690">
        <ele>2152.500</ele>
        <time>2022-04-26T18:37:37Z</time>
        <name>WPT.857</name>
      </trkpt>
      <trkpt lat="35.905904010" lon="-106.267212830">
        <ele>2151.900</ele>
        <time>2022-04-26T18:37:42Z</time>
        <name>WPT.858</name>
      </trkpt>
      <trkpt lat="35.905931700" lon="-106.267245650">
        <ele>2152.400</ele>
        <time>2022-04-26T18:37:47Z</time>
        <name>WPT.859</name>
      </trkpt>
      <trkpt lat="35.905949950" lon="-106.267284790">
        <ele>2152.600</ele>
        <time>2022-04-26T18:37:52Z</time>
        <name>WPT.860</name>
      </trkpt>
      <trkpt lat="35.905965620" lon="-106.267330360">
        <ele>2151.200</ele>
        <time>2022-04-26T18:37:58Z</time>
        <name>WPT.861</name>
      </trkpt>
      <trkpt lat="35.905972660" lon="-106.267375220">
        <ele>2153.200</ele>
        <time>2022-04-26T18:38:17Z</time>
        <name>WPT.862</name>
      </trkpt>
      <trkpt lat="35.905971670" lon="-106.267421990">
        <ele>2152.900</ele>
        <time>2022-04-26T18:38:22Z</time>
        <name>WPT.863</name>
      </trkpt>
      <trkpt lat="35.905958730" lon="-106.267467900">
        <ele>2153.800</ele>
        <time>2022-04-26T18:38:28Z</time>
        <name>WPT.864</name>
      </trkpt>
      <trkpt lat="35.905958980" lon="-106.267514420">
        <ele>2154.000</ele>
        <time>2022-04-26T18:38:33Z</time>
        <name>WPT.865</name>
      </trkpt>
      <trkpt lat="35.905957340" lon="-106.267559110">
        <ele>2155.000</ele>
        <time>2022-04-26T18:38:40Z</time>
        <name>WPT.866</name>
      </trkpt>
      <trkpt lat="35.905957040" lon="-106.267605810">
        <ele>2155.000</ele>
        <time>2022-04-26T18:38:46Z</time>
        <name>WPT.867</name>
      </trkpt>
      <trkpt lat="35.905964730" lon="-106.267654840">
        <ele>2153.500</ele>
        <time>2022-04-26T18:38:51Z</time>
        <name>WPT.868</name>
      </trkpt>
      <trkpt lat="35.905968960" lon="-106.267705350">
        <ele>2154.000</ele>
        <time>2022-04-26T18:38:57Z</time>
        <name>WPT.869</name>
      </trkpt>
      <trkpt lat="35.905966220" lon="-106.267761340">
        <ele>2155.600</ele>
        <time>2022-04-26T18:39:03Z</time>
        <name>WPT.870</name>
      </trkpt>
      <trkpt lat="35.905963160" lon="-106.267806680">
        <ele>2155.600</ele>
        <time>2022-04-26T18:39:07Z</time>
        <name>WPT.871</name>
      </trkpt>
      <trkpt lat="35.905972520" lon="-106.267850880">
        <ele>2155.200</ele>
        <time>2022-04-26T18:39:35Z</time>
        <name>WPT.872</name>
      </trkpt>
      <trkpt lat="35.905979820" lon="-106.267901490">
        <ele>2153.600</ele>
        <time>2022-04-26T18:39:40Z</time>
        <name>WPT.873</name>
      </trkpt>
      <trkpt lat="35.905983830" lon="-106.267946720">
        <ele>2153.900</ele>
        <time>2022-04-26T18:39:45Z</time>
        <name>WPT.874</name>
      </trkpt>
      <trkpt lat="35.905984550" lon="-106.267998310">
        <ele>2152.300</ele>
        <time>2022-04-26T18:39:51Z</time>
        <name>WPT.875</name>
      </trkpt>
      <trkpt lat="35.905982460" lon="-106.268047840">
        <ele>2153.400</ele>
        <time>2022-04-26T18:39:56Z</time>
        <name>WPT.876</name>
      </trkpt>
      <trkpt lat="35.905978370" lon="-106.268091920">
        <ele>2152.700</ele>
        <time>2022-04-26T18:40:06Z</time>
        <name>WPT.877</name>
      </trkpt>
      <trkpt lat="35.905965620" lon="-106.268143180">
        <ele>2152.500</ele>
        <time>2022-04-26T18:40:14Z</time>
        <name>WPT.878</name>
      </trkpt>
      <trkpt lat="35.905956270" lon="-106.268187500">
        <ele>2153.200</ele>
        <time>2022-04-26T18:40:19Z</time>
        <name>WPT.879</name>
      </trkpt>
      <trkpt lat="35.905950270" lon="-106.268236660">
        <ele>2153.300</ele>
        <time>2022-04-26T18:40:24Z</time>
        <name>WPT.880</name>
      </trkpt>
      <trkpt lat="35.905938410" lon="-106.268286020">
        <ele>2154.300</ele>
        <time>2022-04-26T18:40:31Z</time>
        <name>WPT.881</name>
      </trkpt>
      <trkpt lat="35.905937120" lon="-106.268333030">
        <ele>2155.300</ele>
        <time>2022-04-26T18:40:44Z</time>
        <name>WPT.882</name>
      </trkpt>
      <trkpt lat="35.905937190" lon="-106.268385690">
        <ele>2156.000</ele>
        <time>2022-04-26T18:40:55Z</time>
        <name>WPT.883</name>
      </trkpt>
      <trkpt lat="35.905948900" lon="-106.268437870">
        <ele>2151.500</ele>
        <time>2022-04-26T18:41:00Z</time>
        <name>WPT.884</name>
      </trkpt>
      <trkpt lat="35.905948950" lon="-106.268488430">
        <ele>2151.200</ele>
        <time>2022-04-26T18:41:04Z</time>
        <name>WPT.885</name>
      </trkpt>
      <trkpt lat="35.905945970" lon="-106.268540090">
        <ele>2152.500</ele>
        <time>2022-04-26T18:41:08Z</time>
        <name>WPT.886</name>
      </trkpt>
      <trkpt lat="35.905937340" lon="-106.268586220">
        <ele>2153.300</ele>
        <time>2022-04-26T18:41:12Z</time>
        <name>WPT.887</name>
      </trkpt>
      <trkpt lat="35.905935170" lon="-106.268631110">
        <ele>2154.500</ele>
        <time>2022-04-26T18:41:16Z</time>
        <name>WPT.888</name>
      </trkpt>
      <trkpt lat="35.905934730" lon="-106.268681150">
        <ele>2154.500</ele>
        <time>2022-04-26T18:41:20Z</time>
        <name>WPT.889</name>
      </trkpt>
      <trkpt lat="35.905922360" lon="-106.268735760">
        <ele>2154.900</ele>
        <time>2022-04-26T18:41:26Z</time>
        <name>WPT.890</name>
      </trkpt>
      <trkpt lat="35.905918440" lon="-106.268781340">
        <ele>2156.400</ele>
        <time>2022-04-26T18:41:31Z</time>
        <name>WPT.891</name>
      </trkpt>
      <trkpt lat="35.905930520" lon="-106.268832190">
        <ele>2155.200</ele>
        <time>2022-04-26T18:41:36Z</time>
        <name>WPT.892</name>
      </trkpt>
      <trkpt lat="35.905929040" lon="-106.268881220">
        <ele>2154.000</ele>
        <time>2022-04-26T18:41:41Z</time>
        <name>WPT.893</name>
      </trkpt>
      <trkpt lat="35.905931690" lon="-106.268930620">
        <ele>2153.300</ele>
        <time>2022-04-26T18:41:46Z</time>
        <name>WPT.894</name>
      </trkpt>
      <trkpt lat="35.905918130" lon="-106.268981440">
        <ele>2154.900</ele>
        <time>2022-04-26T18:41:52Z</time>
        <name>WPT.895</name>
      </trkpt>
      <trkpt lat="35.905910950" lon="-106.269026040">
        <ele>2154.200</ele>
        <time>2022-04-26T18:41:57Z</time>
        <name>WPT.896</name>
      </trkpt>
      <trkpt lat="35.905896780" lon="-106.269072950">
        <ele>2154.900</ele>
        <time>2022-04-26T18:42:03Z</time>
        <name>WPT.897</name>
      </trkpt>
      <trkpt lat="35.905898720" lon="-106.269122530">
        <ele>2155.600</ele>
        <time>2022-04-26T18:42:08Z</time>
        <name>WPT.898</name>
      </trkpt>
      <trkpt lat="35.905885780" lon="-106.269168700">
        <ele>2157.000</ele>
        <time>2022-04-26T18:42:14Z</time>
        <name>WPT.899</name>
      </trkpt>
      <trkpt lat="35.905874660" lon="-106.269215490">
        <ele>2156.300</ele>
        <time>2022-04-26T18:42:19Z</time>
        <name>WPT.900</name>
      </trkpt>
      <trkpt lat="35.905880590" lon="-106.269259920">
        <ele>2156.300</ele>
        <time>2022-04-26T18:42:23Z</time>
        <name>WPT.901</name>
      </trkpt>
      <trkpt lat="35.905871840" lon="-106.269307930">
        <ele>2156.600</ele>
        <time>2022-04-26T18:42:29Z</time>
        <name>WPT.902</name>
      </trkpt>
      <trkpt lat="35.905864520" lon="-106.269357420">
        <ele>2156.700</ele>
        <time>2022-04-26T18:42:34Z</time>
        <name>WPT.903</name>
      </trkpt>
      <trkpt lat="35.905857620" lon="-106.269406320">
        <ele>2156.500</ele>
        <time>2022-04-26T18:42:39Z</time>
        <name>WPT.904</name>
      </trkpt>
      <trkpt lat="35.905860540" lon="-106.269456600">
        <ele>2155.800</ele>
        <time>2022-04-26T18:42:44Z</time>
        <name>WPT.905</name>
      </trkpt>
      <trkpt lat="35.905846030" lon="-106.269507380">
        <ele>2156.700</ele>
        <time>2022-04-26T18:42:49Z</time>
        <name>WPT.906</name>
      </trkpt>
      <trkpt lat="35.905831220" lon="-106.269550600">
        <ele>2156.800</ele>
        <time>2022-04-26T18:42:53Z</time>
        <name>WPT.907</name>
      </trkpt>
      <trkpt lat="35.905826940" lon="-106.269601340">
        <ele>2156.500</ele>
        <time>2022-04-26T18:42:57Z</time>
        <name>WPT.908</name>
      </trkpt>
      <trkpt lat="35.905821350" lon="-106.269651110">
        <ele>2156.500</ele>
        <time>2022-04-26T18:43:02Z</time>
        <name>WPT.909</name>
      </trkpt>
      <trkpt lat="35.905818410" lon="-106.269702900">
        <ele>2157.100</ele>
        <time>2022-04-26T18:43:07Z</time>
        <name>WPT.910</name>
      </trkpt>
      <trkpt lat="35.905810810" lon="-106.269747150">
        <ele>2157.200</ele>
        <time>2022-04-26T18:43:11Z</time>
        <name>WPT.911</name>
      </trkpt>
      <trkpt lat="35.905802160" lon="-106.269793200">
        <ele>2158.200</ele>
        <time>2022-04-26T18:43:16Z</time>
        <name>WPT.912</name>
      </trkpt>
      <trkpt lat="35.905801960" lon="-106.269843730">
        <ele>2158.100</ele>
        <time>2022-04-26T18:43:22Z</time>
        <name>WPT.913</name>
      </trkpt>
      <trkpt lat="35.905807090" lon="-106.269890070">
        <ele>2159.000</ele>
        <time>2022-04-26T18:43:27Z</time>
        <name>WPT.914</name>
      </trkpt>
      <trkpt lat="35.905814250" lon="-106.269934470">
        <ele>2158.600</ele>
        <time>2022-04-26T18:43:32Z</time>
        <name>WPT.915</name>
      </trkpt>
      <trkpt lat="35.905831190" lon="-106.269983580">
        <ele>2159.500</ele>
        <time>2022-04-26T18:43:38Z</time>
        <name>WPT.916</name>
      </trkpt>
      <trkpt lat="35.905841120" lon="-106.270030010">
        <ele>2158.800</ele>
        <time>2022-04-26T18:43:42Z</time>
        <name>WPT.917</name>
      </trkpt>
      <trkpt lat="35.905847140" lon="-106.270074410">
        <ele>2158.700</ele>
        <time>2022-04-26T18:43:46Z</time>
        <name>WPT.918</name>
      </trkpt>
      <trkpt lat="35.905834600" lon="-106.270120560">
        <ele>2157.900</ele>
        <time>2022-04-26T18:43:52Z</time>
        <name>WPT.919</name>
      </trkpt>
      <trkpt lat="35.905826480" lon="-106.270164080">
        <ele>2158.300</ele>
        <time>2022-04-26T18:43:57Z</time>
        <name>WPT.920</name>
      </trkpt>
      <trkpt lat="35.905819690" lon="-106.270216250">
        <ele>2157.900</ele>
        <time>2022-04-26T18:44:02Z</time>
        <name>WPT.921</name>
      </trkpt>
      <trkpt lat="35.905816940" lon="-106.270271200">
        <ele>2156.800</ele>
        <time>2022-04-26T18:44:07Z</time>
        <name>WPT.922</name>
      </trkpt>
      <trkpt lat="35.905800330" lon="-106.270320480">
        <ele>2158.300</ele>
        <time>2022-04-26T18:44:12Z</time>
        <name>WPT.923</name>
      </trkpt>
      <trkpt lat="35.905783320" lon="-106.270366370">
        <ele>2158.500</ele>
        <time>2022-04-26T18:44:17Z</time>
        <name>WPT.924</name>
      </trkpt>
      <trkpt lat="35.905769420" lon="-106.270408110">
        <ele>2158.300</ele>
        <time>2022-04-26T18:44:22Z</time>
        <name>WPT.925</name>
      </trkpt>
      <trkpt lat="35.905745090" lon="-106.270443990">
        <ele>2159.800</ele>
        <time>2022-04-26T18:44:28Z</time>
        <name>WPT.926</name>
      </trkpt>
      <trkpt lat="35.905727030" lon="-106.270484850">
        <ele>2159.400</ele>
        <time>2022-04-26T18:44:35Z</time>
        <name>WPT.927</name>
      </trkpt>
      <trkpt lat="35.905719500" lon="-106.270536330">
        <ele>2159.700</ele>
        <time>2022-04-26T18:44:42Z</time>
        <name>WPT.928</name>
      </trkpt>
      <trkpt lat="35.905699760" lon="-106.270577470">
        <ele>2159.800</ele>
        <time>2022-04-26T18:44:51Z</time>
        <name>WPT.929</name>
      </trkpt>
      <trkpt lat="35.905678620" lon="-106.270626520">
        <ele>2159.800</ele>
        <time>2022-04-26T18:44:56Z</time>
        <name>WPT.930</name>
      </trkpt>
      <trkpt lat="35.905678610" lon="-106.270673760">
        <ele>2160.500</ele>
        <time>2022-04-26T18:45:01Z</time>
        <name>WPT.931</name>
      </trkpt>
      <trkpt lat="35.905668090" lon="-106.270723230">
        <ele>2160.000</ele>
        <time>2022-04-26T18:45:06Z</time>
        <name>WPT.932</name>
      </trkpt>
      <trkpt lat="35.905666400" lon="-106.270772830">
        <ele>2160.300</ele>
        <time>2022-04-26T18:45:12Z</time>
        <name>WPT.933</name>
      </trkpt>
      <trkpt lat="35.905642560" lon="-106.270814030">
        <ele>2160.900</ele>
        <time>2022-04-26T18:45:16Z</time>
        <name>WPT.934</name>
      </trkpt>
      <trkpt lat="35.905620790" lon="-106.270853140">
        <ele>2159.800</ele>
        <time>2022-04-26T18:45:20Z</time>
        <name>WPT.935</name>
      </trkpt>
      <trkpt lat="35.905600890" lon="-106.270900490">
        <ele>2159.100</ele>
        <time>2022-04-26T18:45:26Z</time>
        <name>WPT.936</name>
      </trkpt>
      <trkpt lat="35.905579090" lon="-106.270939490">
        <ele>2159.000</ele>
        <time>2022-04-26T18:45:33Z</time>
        <name>WPT.937</name>
      </trkpt>
      <trkpt lat="35.905552680" lon="-106.270977290">
        <ele>2159.600</ele>
        <time>2022-04-26T18:45:38Z</time>
        <name>WPT.938</name>
      </trkpt>
      <trkpt lat="35.905533500" lon="-106.271024560">
        <ele>2160.700</ele>
        <time>2022-04-26T18:45:43Z</time>
        <name>WPT.939</name>
      </trkpt>
      <trkpt lat="35.905517120" lon="-106.271073070">
        <ele>2160.800</ele>
        <time>2022-04-26T18:45:51Z</time>
        <name>WPT.940</name>
      </trkpt>
      <trkpt lat="35.905499040" lon="-106.271113370">
        <ele>2161.300</ele>
        <time>2022-04-26T18:45:55Z</time>
        <name>WPT.941</name>
      </trkpt>
      <trkpt lat="35.905490520" lon="-106.271157290">
        <ele>2162.500</ele>
        <time>2022-04-26T18:46:00Z</time>
        <name>WPT.942</name>
      </trkpt>
      <trkpt lat="35.905476510" lon="-106.271204210">
        <ele>2160.900</ele>
        <time>2022-04-26T18:46:06Z</time>
        <name>WPT.943</name>
      </trkpt>
      <trkpt lat="35.905466250" lon="-106.271253290">
        <ele>2161.800</ele>
        <time>2022-04-26T18:46:11Z</time>
        <name>WPT.944</name>
      </trkpt>
      <trkpt lat="35.905449480" lon="-106.271293430">
        <ele>2162.800</ele>
        <time>2022-04-26T18:46:15Z</time>
        <name>WPT.945</name>
      </trkpt>
      <trkpt lat="35.905443570" lon="-106.271341900">
        <ele>2162.300</ele>
        <time>2022-04-26T18:46:20Z</time>
        <name>WPT.946</name>
      </trkpt>
      <trkpt lat="35.905427430" lon="-106.271383810">
        <ele>2162.100</ele>
        <time>2022-04-26T18:46:25Z</time>
        <name>WPT.947</name>
      </trkpt>
      <trkpt lat="35.905397890" lon="-106.271417270">
        <ele>2163.000</ele>
        <time>2022-04-26T18:46:30Z</time>
        <name>WPT.948</name>
      </trkpt>
      <trkpt lat="35.905367220" lon="-106.271445910">
        <ele>2164.100</ele>
        <time>2022-04-26T18:46:35Z</time>
        <name>WPT.949</name>
      </trkpt>
      <trkpt lat="35.905347950" lon="-106.271485850">
        <ele>2163.300</ele>
        <time>2022-04-26T18:46:44Z</time>
        <name>WPT.950</name>
      </trkpt>
      <trkpt lat="35.905314800" lon="-106.271511160">
        <ele>2164.200</ele>
        <time>2022-04-26T18:46:52Z</time>
        <name>WPT.951</name>
      </trkpt>
      <trkpt lat="35.905281240" lon="-106.271533270">
        <ele>2165.900</ele>
        <time>2022-04-26T18:47:04Z</time>
        <name>WPT.952</name>
      </trkpt>
      <trkpt lat="35.905255910" lon="-106.271579550">
        <ele>2166.800</ele>
        <time>2022-04-26T18:47:10Z</time>
        <name>WPT.953</name>
      </trkpt>
      <trkpt lat="35.905227710" lon="-106.271610390">
        <ele>2166.900</ele>
        <time>2022-04-26T18:47:14Z</time>
        <name>WPT.954</name>
      </trkpt>
      <trkpt lat="35.905212700" lon="-106.271652790">
        <ele>2165.200</ele>
        <time>2022-04-26T18:47:23Z</time>
        <name>WPT.955</name>
      </trkpt>
      <trkpt lat="35.905212390" lon="-106.271703280">
        <ele>2163.900</ele>
        <time>2022-04-26T18:47:30Z</time>
        <name>WPT.956</name>
      </trkpt>
      <trkpt lat="35.905214670" lon="-106.271751470">
        <ele>2163.700</ele>
        <time>2022-04-26T18:47:36Z</time>
        <name>WPT.957</name>
      </trkpt>
      <trkpt lat="35.905194550" lon="-106.271790900">
        <ele>2163.300</ele>
        <time>2022-04-26T18:47:43Z</time>
        <name>WPT.958</name>
      </trkpt>
      <trkpt lat="35.905178500" lon="-106.271835020">
        <ele>2162.800</ele>
        <time>2022-04-26T18:47:50Z</time>
        <name>WPT.959</name>
      </trkpt>
      <trkpt lat="35.905167540" lon="-106.271882800">
        <ele>2164.800</ele>
        <time>2022-04-26T18:47:59Z</time>
        <name>WPT.960</name>
      </trkpt>
      <trkpt lat="35.905138330" lon="-106.271913560">
        <ele>2165.500</ele>
        <time>2022-04-26T18:48:04Z</time>
        <name>WPT.961</name>
      </trkpt>
      <trkpt lat="35.905128050" lon="-106.271966020">
        <ele>2165.600</ele>
        <time>2022-04-26T18:48:10Z</time>
        <name>WPT.962</name>
      </trkpt>
      <trkpt lat="35.905100910" lon="-106.272006510">
        <ele>2165.700</ele>
        <time>2022-04-26T18:48:15Z</time>
        <name>WPT.963</name>
      </trkpt>
      <trkpt lat="35.905083150" lon="-106.272049870">
        <ele>2166.200</ele>
        <time>2022-04-26T18:48:19Z</time>
        <name>WPT.964</name>
      </trkpt>
      <trkpt lat="35.905071120" lon="-106.272101230">
        <ele>2166.800</ele>
        <time>2022-04-26T18:48:23Z</time>
        <name>WPT.965</name>
      </trkpt>
      <trkpt lat="35.905059490" lon="-106.272149940">
        <ele>2166.900</ele>
        <time>2022-04-26T18:48:28Z</time>
        <name>WPT.966</name>
      </trkpt>
      <trkpt lat="35.905060100" lon="-106.272203420">
        <ele>2166.000</ele>
        <time>2022-04-26T18:48:37Z</time>
        <name>WPT.967</name>
      </trkpt>
      <trkpt lat="35.905064290" lon="-106.272250810">
        <ele>2164.700</ele>
        <time>2022-04-26T18:48:49Z</time>
        <name>WPT.968</name>
      </trkpt>
      <trkpt lat="35.905073240" lon="-106.272298110">
        <ele>2164.200</ele>
        <time>2022-04-26T18:48:53Z</time>
        <name>WPT.969</name>
      </trkpt>
      <trkpt lat="35.905064460" lon="-106.272347680">
        <ele>2163.700</ele>
        <time>2022-04-26T18:48:57Z</time>
        <name>WPT.970</name>
      </trkpt>
      <trkpt lat="35.905065760" lon="-106.272398810">
        <ele>2161.700</ele>
        <time>2022-04-26T18:49:02Z</time>
        <name>WPT.971</name>
      </trkpt>
      <trkpt lat="35.905053580" lon="-106.272448460">
        <ele>2161.800</ele>
        <time>2022-04-26T18:49:07Z</time>
        <name>WPT.972</name>
      </trkpt>
      <trkpt lat="35.905040760" lon="-106.272491830">
        <ele>2162.500</ele>
        <time>2022-04-26T18:49:12Z</time>
        <name>WPT.973</name>
      </trkpt>
      <trkpt lat="35.905031490" lon="-106.272539180">
        <ele>2161.900</ele>
        <time>2022-04-26T18:49:18Z</time>
        <name>WPT.974</name>
      </trkpt>
      <trkpt lat="35.905030400" lon="-106.272584590">
        <ele>2162.400</ele>
        <time>2022-04-26T18:49:24Z</time>
        <name>WPT.975</name>
      </trkpt>
      <trkpt lat="35.905028000" lon="-106.272631960">
        <ele>2162.500</ele>
        <time>2022-04-26T18:49:28Z</time>
        <name>WPT.976</name>
      </trkpt>
      <trkpt lat="35.905007770" lon="-106.272678810">
        <ele>2164.300</ele>
        <time>2022-04-26T18:49:33Z</time>
        <name>WPT.977</name>
      </trkpt>
      <trkpt lat="35.904998720" lon="-106.272727650">
        <ele>2163.200</ele>
        <time>2022-04-26T18:49:37Z</time>
        <name>WPT.978</name>
      </trkpt>
      <trkpt lat="35.904994490" lon="-106.272788330">
        <ele>2163.800</ele>
        <time>2022-04-26T18:49:42Z</time>
        <name>WPT.979</name>
      </trkpt>
      <trkpt lat="35.904990490" lon="-106.272840670">
        <ele>2163.700</ele>
        <time>2022-04-26T18:49:46Z</time>
        <name>WPT.980</name>
      </trkpt>
      <trkpt lat="35.904989930" lon="-106.272891560">
        <ele>2163.200</ele>
        <time>2022-04-26T18:49:50Z</time>
        <name>WPT.981</name>
      </trkpt>
      <trkpt lat="35.904989750" lon="-106.272949240">
        <ele>2163.000</ele>
        <time>2022-04-26T18:49:55Z</time>
        <name>WPT.982</name>
      </trkpt>
      <trkpt lat="35.904973680" lon="-106.272990570">
        <ele>2163.300</ele>
        <time>2022-04-26T18:50:02Z</time>
        <name>WPT.983</name>
      </trkpt>
      <trkpt lat="35.904938850" lon="-106.273017170">
        <ele>2165.900</ele>
        <time>2022-04-26T18:50:10Z</time>
        <name>WPT.984</name>
      </trkpt>
      <trkpt lat="35.904898260" lon="-106.273007150">
        <ele>2166.100</ele>
        <time>2022-04-26T18:50:17Z</time>
        <name>WPT.985</name>
      </trkpt>
      <trkpt lat="35.904928210" lon="-106.273034780">
        <ele>2169.400</ele>
        <time>2022-04-26T18:50:56Z</time>
        <name>WPT.986</name>
      </trkpt>
      <trkpt lat="35.904912470" lon="-106.273082890">
        <ele>2170.700</ele>
        <time>2022-04-26T18:51:46Z</time>
        <name>WPT.987</name>
      </trkpt>
      <trkpt lat="35.904884110" lon="-106.273114910">
        <ele>2171.100</ele>
        <time>2022-04-26T18:52:22Z</time>
        <name>WPT.988</name>
      </trkpt>
      <trkpt lat="35.904854920" lon="-106.273147460">
        <ele>2173.400</ele>
        <time>2022-04-26T18:52:58Z</time>
        <name>WPT.989</name>
      </trkpt>
      <trkpt lat="35.904854540" lon="-106.273193610">
        <ele>2179.300</ele>
        <time>2022-04-26T18:53:40Z</time>
        <name>WPT.990</name>
      </trkpt>
      <trkpt lat="35.904842320" lon="-106.273236740">
        <ele>2180.800</ele>
        <time>2022-04-26T18:53:46Z</time>
        <name>WPT.991</name>
      </trkpt>
      <trkpt lat="35.904858900" lon="-106.273292070">
        <ele>2180.100</ele>
        <time>2022-04-26T18:53:50Z</time>
        <name>WPT.992</name>
      </trkpt>
      <trkpt lat="35.904863080" lon="-106.273343740">
        <ele>2180.000</ele>
        <time>2022-04-26T18:53:54Z</time>
        <name>WPT.993</name>
      </trkpt>
      <trkpt lat="35.904857190" lon="-106.273399990">
        <ele>2180.600</ele>
        <time>2022-04-26T18:53:58Z</time>
        <name>WPT.994</name>
      </trkpt>
      <trkpt lat="35.904852820" lon="-106.273446360">
        <ele>2180.800</ele>
        <time>2022-04-26T18:54:02Z</time>
        <name>WPT.995</name>
      </trkpt>
      <trkpt lat="35.904848270" lon="-106.273496570">
        <ele>2181.800</ele>
        <time>2022-04-26T18:54:07Z</time>
        <name>WPT.996</name>
      </trkpt>
      <trkpt lat="35.904849910" lon="-106.273547040">
        <ele>2182.500</ele>
        <time>2022-04-26T18:54:19Z</time>
        <name>WPT.997</name>
      </trkpt>
      <trkpt lat="35.904842660" lon="-106.273594680">
        <ele>2182.900</ele>
        <time>2022-04-26T18:54:23Z</time>
        <name>WPT.998</name>
      </trkpt>
      <trkpt lat="35.904840790" lon="-106.273644560">
        <ele>2182.900</ele>
        <time>2022-04-26T18:54:27Z</time>
        <name>WPT.999</name>
      </trkpt>
      <trkpt lat="35.904843130" lon="-106.273699970">
        <ele>2182.200</ele>
        <time>2022-04-26T18:54:32Z</time>
        <name>WPT.1000</name>
      </trkpt>
      <trkpt lat="35.904838830" lon="-106.273746070">
        <ele>2182.600</ele>
        <time>2022-04-26T18:54:36Z</time>
        <name>WPT.1001</name>
      </trkpt>
      <trkpt lat="35.904830420" lon="-106.273796810">
        <ele>2183.600</ele>
        <time>2022-04-26T18:54:43Z</time>
        <name>WPT.1002</name>
      </trkpt>
      <trkpt lat="35.904817520" lon="-106.273840570">
        <ele>2182.900</ele>
        <time>2022-04-26T18:54:48Z</time>
        <name>WPT.1003</name>
      </trkpt>
      <trkpt lat="35.904804500" lon="-106.273891400">
        <ele>2182.700</ele>
        <time>2022-04-26T18:54:53Z</time>
        <name>WPT.1004</name>
      </trkpt>
      <trkpt lat="35.904811490" lon="-106.273942770">
        <ele>2182.600</ele>
        <time>2022-04-26T18:54:57Z</time>
        <name>WPT.1005</name>
      </trkpt>
      <trkpt lat="35.904817780" lon="-106.273988270">
        <ele>2182.000</ele>
        <time>2022-04-26T18:55:01Z</time>
        <name>WPT.1006</name>
      </trkpt>
      <trkpt lat="35.904810360" lon="-106.274038090">
        <ele>2181.300</ele>
        <time>2022-04-26T18:55:05Z</time>
        <name>WPT.1007</name>
      </trkpt>
      <trkpt lat="35.904817600" lon="-106.274093770">
        <ele>2180.800</ele>
        <time>2022-04-26T18:55:09Z</time>
        <name>WPT.1008</name>
      </trkpt>
      <trkpt lat="35.904815460" lon="-106.274141860">
        <ele>2181.000</ele>
        <time>2022-04-26T18:55:14Z</time>
        <name>WPT.1009</name>
      </trkpt>
      <trkpt lat="35.904814260" lon="-106.274187920">
        <ele>2181.000</ele>
        <time>2022-04-26T18:55:19Z</time>
        <name>WPT.1010</name>
      </trkpt>
      <trkpt lat="35.904812990" lon="-106.274235570">
        <ele>2181.500</ele>
        <time>2022-04-26T18:55:23Z</time>
        <name>WPT.1011</name>
      </trkpt>
      <trkpt lat="35.904822710" lon="-106.274279410">
        <ele>2181.900</ele>
        <time>2022-04-26T18:55:26Z</time>
        <name>WPT.1012</name>
      </trkpt>
      <trkpt lat="35.904834040" lon="-106.274325030">
        <ele>2183.300</ele>
        <time>2022-04-26T18:55:30Z</time>
        <name>WPT.1013</name>
      </trkpt>
      <trkpt lat="35.904839600" lon="-106.274372930">
        <ele>2185.200</ele>
        <time>2022-04-26T18:55:34Z</time>
        <name>WPT.1014</name>
      </trkpt>
      <trkpt lat="35.904850990" lon="-106.274415840">
        <ele>2185.900</ele>
        <time>2022-04-26T18:55:38Z</time>
        <name>WPT.1015</name>
      </trkpt>
      <trkpt lat="35.904856070" lon="-106.274467930">
        <ele>2187.600</ele>
        <time>2022-04-26T18:55:43Z</time>
        <name>WPT.1016</name>
      </trkpt>
      <trkpt lat="35.904871520" lon="-106.274510730">
        <ele>2188.100</ele>
        <time>2022-04-26T18:55:48Z</time>
        <name>WPT.1017</name>
      </trkpt>
      <trkpt lat="35.904878630" lon="-106.274557570">
        <ele>2188.900</ele>
        <time>2022-04-26T18:55:55Z</time>
        <name>WPT.1018</name>
      </trkpt>
      <trkpt lat="35.904863040" lon="-106.274567430">
        <ele>2189.100</ele>
        <time>2022-04-26T18:56:19Z</time>
        <name>WPT.1019</name>
      </trkpt>
    </trkseg>
  </trk>
</gpx>
